<?xml version='1.0' encoding='UTF-8'?><gpx version="1.1" creator="JPX - https://github.com/jenetics/jpx" xmlns="http://www.topografix.com/GPX/1/1"><trk><trkseg><trkpt lat="44.1181999" lon="9.8028707"><ele>37.0</ele><time>2026-03-27T12:30:34.83Z</time></trkpt><trkpt lat="44.1181213" lon="9.8028521"><ele>37.0</ele><time>2026-03-27T12:30:38.831Z</time></trkpt><trkpt lat="44.1180545" lon="9.8028318"><ele>37.0</ele><time>2026-03-27T12:30:44.831Z</time></trkpt><trkpt lat="44.1179607" lon="9.8028722"><ele>37.0</ele><time>2026-03-27T12:30:47.831Z</time></trkpt><trkpt lat="44.1178783" lon="9.8028967"><ele>37.0</ele><time>2026-03-27T12:30:50.831Z</time></trkpt><trkpt lat="44.117815" lon="9.80287"><ele>37.0</ele><time>2026-03-27T12:30:55.831Z</time></trkpt><trkpt lat="44.11771" lon="9.80291"><ele>37.0</ele><time>2026-03-27T12:30:59.83Z</time></trkpt><trkpt lat="44.1176267" lon="9.80297"><ele>37.0</ele><time>2026-03-27T12:31:02.831Z</time></trkpt><trkpt lat="44.1175583" lon="9.803045"><ele>37.0</ele><time>2026-03-27T12:31:05.83Z</time></trkpt><trkpt lat="44.1175033" lon="9.8030883"><ele>37.0</ele><time>2026-03-27T12:31:07.83Z</time></trkpt><trkpt lat="44.1174367" lon="9.80316"><ele>37.0</ele><time>2026-03-27T12:31:10.831Z</time></trkpt><trkpt lat="44.1173583" lon="9.8032133"><ele>37.0</ele><time>2026-03-27T12:31:13.831Z</time></trkpt><trkpt lat="44.11727" lon="9.803245"><ele>36.57142857142857</ele><time>2026-03-27T12:31:16.831Z</time></trkpt><trkpt lat="44.1172383" lon="9.8033283"><ele>36.14285714285714</ele><time>2026-03-27T12:31:18.831Z</time></trkpt><trkpt lat="44.11719" lon="9.8033883"><ele>35.71428571428571</ele><time>2026-03-27T12:31:20.831Z</time></trkpt><trkpt lat="44.117135" lon="9.803485"><ele>35.285714285714285</ele><time>2026-03-27T12:31:23.83Z</time></trkpt><trkpt lat="44.117075" lon="9.8035617"><ele>34.857142857142854</ele><time>2026-03-27T12:31:26.831Z</time></trkpt><trkpt lat="44.1170417" lon="9.8036517"><ele>34.42857142857142</ele><time>2026-03-27T12:31:30.831Z</time></trkpt><trkpt lat="44.117005" lon="9.80373"><ele>34.0</ele><time>2026-03-27T12:31:33.831Z</time></trkpt><trkpt lat="44.1169617" lon="9.8038067"><ele>34.0</ele><time>2026-03-27T12:31:38.831Z</time></trkpt><trkpt lat="44.1168717" lon="9.803795"><ele>34.0</ele><time>2026-03-27T12:31:41.831Z</time></trkpt><trkpt lat="44.1168017" lon="9.80378"><ele>34.0</ele><time>2026-03-27T12:31:43.831Z</time></trkpt><trkpt lat="44.1167333" lon="9.8037283"><ele>34.0</ele><time>2026-03-27T12:31:45.831Z</time></trkpt><trkpt lat="44.116635" lon="9.8036833"><ele>34.0</ele><time>2026-03-27T12:31:47.83Z</time></trkpt><trkpt lat="44.116525" lon="9.80366"><ele>32.75</ele><time>2026-03-27T12:31:49.831Z</time></trkpt><trkpt lat="44.1164033" lon="9.8036817"><ele>31.5</ele><time>2026-03-27T12:31:51.831Z</time></trkpt><trkpt lat="44.1162733" lon="9.8037067"><ele>30.25</ele><time>2026-03-27T12:31:53.831Z</time></trkpt><trkpt lat="44.1161533" lon="9.8037283"><ele>29.0</ele><time>2026-03-27T12:31:55.831Z</time></trkpt><trkpt lat="44.11606" lon="9.8037383"><ele>29.0</ele><time>2026-03-27T12:31:57.831Z</time></trkpt><trkpt lat="44.1159667" lon="9.8037617"><ele>29.0</ele><time>2026-03-27T12:31:59.831Z</time></trkpt><trkpt lat="44.1159017" lon="9.8038083"><ele>29.0</ele><time>2026-03-27T12:32:01.831Z</time></trkpt><trkpt lat="44.1158333" lon="9.8039017"><ele>29.0</ele><time>2026-03-27T12:32:03.831Z</time></trkpt><trkpt lat="44.1157533" lon="9.80397"><ele>29.0</ele><time>2026-03-27T12:32:05.831Z</time></trkpt><trkpt lat="44.1156683" lon="9.804045"><ele>28.799999999999997</ele><time>2026-03-27T12:32:07.83Z</time></trkpt><trkpt lat="44.115605" lon="9.804135"><ele>28.599999999999998</ele><time>2026-03-27T12:32:09.831Z</time></trkpt><trkpt lat="44.1155233" lon="9.8042133"><ele>28.4</ele><time>2026-03-27T12:32:11.831Z</time></trkpt><trkpt lat="44.1154283" lon="9.8042917"><ele>28.2</ele><time>2026-03-27T12:32:13.831Z</time></trkpt><trkpt lat="44.1153417" lon="9.8043683"><ele>28.0</ele><time>2026-03-27T12:32:15.831Z</time></trkpt><trkpt lat="44.1152517" lon="9.8044533"><ele>28.0</ele><time>2026-03-27T12:32:17.83Z</time></trkpt><trkpt lat="44.11516" lon="9.8045383"><ele>27.999999999999996</ele><time>2026-03-27T12:32:19.831Z</time></trkpt><trkpt lat="44.11507" lon="9.8046433"><ele>27.999999999999996</ele><time>2026-03-27T12:32:21.831Z</time></trkpt><trkpt lat="44.11499" lon="9.8047267"><ele>28.0</ele><time>2026-03-27T12:32:23.83Z</time></trkpt><trkpt lat="44.1149083" lon="9.8048133"><ele>28.0</ele><time>2026-03-27T12:32:25.831Z</time></trkpt><trkpt lat="44.1148667" lon="9.8049417"><ele>28.166666666666668</ele><time>2026-03-27T12:32:27.831Z</time></trkpt><trkpt lat="44.11486" lon="9.805055"><ele>28.333333333333336</ele><time>2026-03-27T12:32:29.831Z</time></trkpt><trkpt lat="44.11487" lon="9.8051433"><ele>28.5</ele><time>2026-03-27T12:32:31.831Z</time></trkpt><trkpt lat="44.1148883" lon="9.8052567"><ele>28.666666666666664</ele><time>2026-03-27T12:32:34.831Z</time></trkpt><trkpt lat="44.1149183" lon="9.80538"><ele>28.833333333333332</ele><time>2026-03-27T12:32:37.831Z</time></trkpt><trkpt lat="44.1149467" lon="9.8054883"><ele>29.0</ele><time>2026-03-27T12:32:39.831Z</time></trkpt><trkpt lat="44.115005" lon="9.805605"><ele>28.999999999999996</ele><time>2026-03-27T12:32:41.831Z</time></trkpt><trkpt lat="44.115055" lon="9.8056883"><ele>29.0</ele><time>2026-03-27T12:32:43.831Z</time></trkpt><trkpt lat="44.115105" lon="9.8057633"><ele>29.0</ele><time>2026-03-27T12:32:45.83Z</time></trkpt><trkpt lat="44.1151617" lon="9.8058467"><ele>29.0</ele><time>2026-03-27T12:32:47.831Z</time></trkpt><trkpt lat="44.1152233" lon="9.8059467"><ele>28.999999999999996</ele><time>2026-03-27T12:32:49.831Z</time></trkpt><trkpt lat="44.1152767" lon="9.80603"><ele>29.0</ele><time>2026-03-27T12:32:51.831Z</time></trkpt><trkpt lat="44.1153317" lon="9.8061217"><ele>30.833333333333332</ele><time>2026-03-27T12:32:53.831Z</time></trkpt><trkpt lat="44.1153867" lon="9.8062117"><ele>32.666666666666664</ele><time>2026-03-27T12:32:55.831Z</time></trkpt><trkpt lat="44.1154483" lon="9.8063017"><ele>34.5</ele><time>2026-03-27T12:32:57.83Z</time></trkpt><trkpt lat="44.1155017" lon="9.8063917"><ele>36.333333333333336</ele><time>2026-03-27T12:32:59.831Z</time></trkpt><trkpt lat="44.11555" lon="9.8064833"><ele>38.16666666666667</ele><time>2026-03-27T12:33:01.83Z</time></trkpt><trkpt lat="44.115595" lon="9.8065767"><ele>40.0</ele><time>2026-03-27T12:33:03.831Z</time></trkpt><trkpt lat="44.115625" lon="9.806665"><ele>40.0</ele><time>2026-03-27T12:33:05.831Z</time></trkpt><trkpt lat="44.1156433" lon="9.80675"><ele>40.0</ele><time>2026-03-27T12:33:07.831Z</time></trkpt><trkpt lat="44.1156567" lon="9.80687"><ele>40.0</ele><time>2026-03-27T12:33:09.831Z</time></trkpt><trkpt lat="44.1156667" lon="9.806995"><ele>40.0</ele><time>2026-03-27T12:33:11.83Z</time></trkpt><trkpt lat="44.1156733" lon="9.807095"><ele>40.0</ele><time>2026-03-27T12:33:13.831Z</time></trkpt><trkpt lat="44.1156683" lon="9.807205"><ele>40.0</ele><time>2026-03-27T12:33:15.831Z</time></trkpt><trkpt lat="44.1156483" lon="9.8073067"><ele>40.5</ele><time>2026-03-27T12:33:17.831Z</time></trkpt><trkpt lat="44.1156267" lon="9.807405"><ele>41.0</ele><time>2026-03-27T12:33:19.831Z</time></trkpt><trkpt lat="44.1155983" lon="9.8075"><ele>41.5</ele><time>2026-03-27T12:33:21.83Z</time></trkpt><trkpt lat="44.1155583" lon="9.8075933"><ele>42.0</ele><time>2026-03-27T12:33:23.83Z</time></trkpt><trkpt lat="44.1155183" lon="9.80767"><ele>42.5</ele><time>2026-03-27T12:33:25.831Z</time></trkpt><trkpt lat="44.1154533" lon="9.8077367"><ele>43.0</ele><time>2026-03-27T12:33:28.831Z</time></trkpt><trkpt lat="44.1153767" lon="9.8077683"><ele>41.0</ele><time>2026-03-27T12:33:31.831Z</time></trkpt><trkpt lat="44.115295" lon="9.807805"><ele>39.0</ele><time>2026-03-27T12:33:35.83Z</time></trkpt><trkpt lat="44.115205" lon="9.8078267"><ele>37.0</ele><time>2026-03-27T12:33:38.831Z</time></trkpt><trkpt lat="44.1151367" lon="9.8078533"><ele>35.0</ele><time>2026-03-27T12:33:40.83Z</time></trkpt><trkpt lat="44.11507" lon="9.807885"><ele>33.0</ele><time>2026-03-27T12:33:42.831Z</time></trkpt><trkpt lat="44.1149983" lon="9.8078883"><ele>31.0</ele><time>2026-03-27T12:33:44.831Z</time></trkpt><trkpt lat="44.1149033" lon="9.807885"><ele>30.28571428571429</ele><time>2026-03-27T12:33:46.831Z</time></trkpt><trkpt lat="44.114835" lon="9.80785"><ele>29.571428571428577</ele><time>2026-03-27T12:33:48.831Z</time></trkpt><trkpt lat="44.1147733" lon="9.8078017"><ele>28.857142857142858</ele><time>2026-03-27T12:33:50.831Z</time></trkpt><trkpt lat="44.1147283" lon="9.807735"><ele>28.142857142857146</ele><time>2026-03-27T12:33:52.831Z</time></trkpt><trkpt lat="44.1146717" lon="9.8076683"><ele>27.42857142857143</ele><time>2026-03-27T12:33:54.831Z</time></trkpt><trkpt lat="44.114625" lon="9.8075967"><ele>26.714285714285715</ele><time>2026-03-27T12:33:56.831Z</time></trkpt><trkpt lat="44.11459" lon="9.80751"><ele>26.0</ele><time>2026-03-27T12:33:58.831Z</time></trkpt><trkpt lat="44.1145633" lon="9.8073983"><ele>27.666666666666664</ele><time>2026-03-27T12:34:00.831Z</time></trkpt><trkpt lat="44.114535" lon="9.8073067"><ele>29.333333333333332</ele><time>2026-03-27T12:34:02.831Z</time></trkpt><trkpt lat="44.1145133" lon="9.8072083"><ele>31.0</ele><time>2026-03-27T12:34:04.831Z</time></trkpt><trkpt lat="44.11448" lon="9.8070983"><ele>32.666666666666664</ele><time>2026-03-27T12:34:06.831Z</time></trkpt><trkpt lat="44.1144233" lon="9.8070033"><ele>34.333333333333336</ele><time>2026-03-27T12:34:08.831Z</time></trkpt><trkpt lat="44.11434" lon="9.8069233"><ele>36.0</ele><time>2026-03-27T12:34:10.831Z</time></trkpt><trkpt lat="44.1142517" lon="9.8068567"><ele>36.8</ele><time>2026-03-27T12:34:12.831Z</time></trkpt><trkpt lat="44.1141633" lon="9.8067933"><ele>37.6</ele><time>2026-03-27T12:34:14.83Z</time></trkpt><trkpt lat="44.114065" lon="9.8067367"><ele>38.4</ele><time>2026-03-27T12:34:16.83Z</time></trkpt><trkpt lat="44.1139567" lon="9.8066833"><ele>39.2</ele><time>2026-03-27T12:34:18.831Z</time></trkpt><trkpt lat="44.1138583" lon="9.8066167"><ele>40.0</ele><time>2026-03-27T12:34:20.83Z</time></trkpt><trkpt lat="44.11376" lon="9.8065667"><ele>38.2</ele><time>2026-03-27T12:34:22.831Z</time></trkpt><trkpt lat="44.1136667" lon="9.8064867"><ele>36.4</ele><time>2026-03-27T12:34:24.831Z</time></trkpt><trkpt lat="44.1135533" lon="9.806415"><ele>34.6</ele><time>2026-03-27T12:34:26.831Z</time></trkpt><trkpt lat="44.1134817" lon="9.806385"><ele>32.8</ele><time>2026-03-27T12:34:27.831Z</time></trkpt><trkpt lat="44.1134" lon="9.806365"><ele>31.0</ele><time>2026-03-27T12:34:28.831Z</time></trkpt><trkpt lat="44.1133117" lon="9.80636"><ele>31.000000000000004</ele><time>2026-03-27T12:34:29.831Z</time></trkpt><trkpt lat="44.1132233" lon="9.8063633"><ele>31.0</ele><time>2026-03-27T12:34:30.831Z</time></trkpt><trkpt lat="44.113135" lon="9.8063767"><ele>31.0</ele><time>2026-03-27T12:34:31.831Z</time></trkpt><trkpt lat="44.1130467" lon="9.8064033"><ele>31.0</ele><time>2026-03-27T12:34:32.831Z</time></trkpt><trkpt lat="44.1129583" lon="9.8064417"><ele>31.000000000000004</ele><time>2026-03-27T12:34:33.831Z</time></trkpt><trkpt lat="44.11288" lon="9.8064883"><ele>31.0</ele><time>2026-03-27T12:34:34.831Z</time></trkpt><trkpt lat="44.1128067" lon="9.806555"><ele>31.000000000000004</ele><time>2026-03-27T12:34:35.831Z</time></trkpt><trkpt lat="44.112735" lon="9.80663"><ele>31.0</ele><time>2026-03-27T12:34:36.831Z</time></trkpt><trkpt lat="44.112665" lon="9.8067017"><ele>31.0</ele><time>2026-03-27T12:34:37.831Z</time></trkpt><trkpt lat="44.1125833" lon="9.80676"><ele>31.0</ele><time>2026-03-27T12:34:38.83Z</time></trkpt><trkpt lat="44.1124983" lon="9.8068033"><ele>31.000000000000004</ele><time>2026-03-27T12:34:39.83Z</time></trkpt><trkpt lat="44.1124117" lon="9.80684"><ele>31.0</ele><time>2026-03-27T12:34:40.831Z</time></trkpt><trkpt lat="44.112325" lon="9.8068667"><ele>27.2</ele><time>2026-03-27T12:34:41.831Z</time></trkpt><trkpt lat="44.11223" lon="9.80689"><ele>23.400000000000002</ele><time>2026-03-27T12:34:42.831Z</time></trkpt><trkpt lat="44.112135" lon="9.8069033"><ele>19.6</ele><time>2026-03-27T12:34:43.831Z</time></trkpt><trkpt lat="44.11204" lon="9.8069017"><ele>15.8</ele><time>2026-03-27T12:34:44.831Z</time></trkpt><trkpt lat="44.1119483" lon="9.8068983"><ele>12.0</ele><time>2026-03-27T12:34:45.831Z</time></trkpt><trkpt lat="44.1118633" lon="9.8068717"><ele>12.0</ele><time>2026-03-27T12:34:46.831Z</time></trkpt><trkpt lat="44.111775" lon="9.806835"><ele>12.0</ele><time>2026-03-27T12:34:47.83Z</time></trkpt><trkpt lat="44.1116917" lon="9.8067783"><ele>12.0</ele><time>2026-03-27T12:34:48.831Z</time></trkpt><trkpt lat="44.1116133" lon="9.8067067"><ele>12.0</ele><time>2026-03-27T12:34:49.831Z</time></trkpt><trkpt lat="44.1115383" lon="9.8066217"><ele>12.0</ele><time>2026-03-27T12:34:50.83Z</time></trkpt><trkpt lat="44.1114667" lon="9.8065333"><ele>13.8</ele><time>2026-03-27T12:34:51.831Z</time></trkpt><trkpt lat="44.111395" lon="9.8064433"><ele>15.6</ele><time>2026-03-27T12:34:52.831Z</time></trkpt><trkpt lat="44.11132" lon="9.8063567"><ele>17.400000000000002</ele><time>2026-03-27T12:34:53.831Z</time></trkpt><trkpt lat="44.111245" lon="9.8062883"><ele>19.2</ele><time>2026-03-27T12:34:54.831Z</time></trkpt><trkpt lat="44.111165" lon="9.80624"><ele>21.0</ele><time>2026-03-27T12:34:55.83Z</time></trkpt><trkpt lat="44.1110833" lon="9.80621"><ele>21.0</ele><time>2026-03-27T12:34:56.831Z</time></trkpt><trkpt lat="44.1109933" lon="9.8062017"><ele>21.0</ele><time>2026-03-27T12:34:57.831Z</time></trkpt><trkpt lat="44.1109017" lon="9.80622"><ele>21.0</ele><time>2026-03-27T12:34:58.831Z</time></trkpt><trkpt lat="44.1108133" lon="9.8062633"><ele>21.0</ele><time>2026-03-27T12:34:59.831Z</time></trkpt><trkpt lat="44.110735" lon="9.8063483"><ele>21.0</ele><time>2026-03-27T12:35:00.831Z</time></trkpt><trkpt lat="44.1106633" lon="9.8064433"><ele>20.666666666666668</ele><time>2026-03-27T12:35:01.831Z</time></trkpt><trkpt lat="44.110595" lon="9.8065283"><ele>20.333333333333332</ele><time>2026-03-27T12:35:02.83Z</time></trkpt><trkpt lat="44.1105333" lon="9.8066033"><ele>20.0</ele><time>2026-03-27T12:35:03.831Z</time></trkpt><trkpt lat="44.11047" lon="9.806655"><ele>19.666666666666664</ele><time>2026-03-27T12:35:04.83Z</time></trkpt><trkpt lat="44.1103683" lon="9.806715"><ele>19.333333333333332</ele><time>2026-03-27T12:35:06.831Z</time></trkpt><trkpt lat="44.110305" lon="9.80673"><ele>19.0</ele><time>2026-03-27T12:35:07.831Z</time></trkpt><trkpt lat="44.11022" lon="9.8067267"><ele>19.0</ele><time>2026-03-27T12:35:08.831Z</time></trkpt><trkpt lat="44.1100817" lon="9.8067017"><ele>19.0</ele><time>2026-03-27T12:35:09.831Z</time></trkpt><trkpt lat="44.1099833" lon="9.8066533"><ele>19.0</ele><time>2026-03-27T12:35:10.831Z</time></trkpt><trkpt lat="44.109895" lon="9.8065717"><ele>19.0</ele><time>2026-03-27T12:35:11.831Z</time></trkpt><trkpt lat="44.1098117" lon="9.8064367"><ele>17.599999999999998</ele><time>2026-03-27T12:35:12.831Z</time></trkpt><trkpt lat="44.109725" lon="9.8063533"><ele>16.2</ele><time>2026-03-27T12:35:13.831Z</time></trkpt><trkpt lat="44.1096333" lon="9.8062617"><ele>14.799999999999999</ele><time>2026-03-27T12:35:14.831Z</time></trkpt><trkpt lat="44.1095433" lon="9.8061833"><ele>13.399999999999999</ele><time>2026-03-27T12:35:15.831Z</time></trkpt><trkpt lat="44.1094617" lon="9.8061"><ele>12.0</ele><time>2026-03-27T12:35:16.831Z</time></trkpt><trkpt lat="44.1093767" lon="9.8060117"><ele>12.5</ele><time>2026-03-27T12:35:17.831Z</time></trkpt><trkpt lat="44.1092967" lon="9.8059333"><ele>13.0</ele><time>2026-03-27T12:35:18.83Z</time></trkpt><trkpt lat="44.1092317" lon="9.8058617"><ele>13.5</ele><time>2026-03-27T12:35:19.831Z</time></trkpt><trkpt lat="44.1091733" lon="9.8057833"><ele>14.0</ele><time>2026-03-27T12:35:20.83Z</time></trkpt><trkpt lat="44.1091217" lon="9.805725"><ele>14.5</ele><time>2026-03-27T12:35:21.831Z</time></trkpt><trkpt lat="44.109055" lon="9.80563"><ele>15.0</ele><time>2026-03-27T12:35:23.831Z</time></trkpt><trkpt lat="44.1090417" lon="9.8055433"><ele>15.0</ele><time>2026-03-27T12:35:25.831Z</time></trkpt><trkpt lat="44.109085" lon="9.8054633"><ele>15.0</ele><time>2026-03-27T12:35:27.831Z</time></trkpt><trkpt lat="44.1091417" lon="9.8053733"><ele>15.0</ele><time>2026-03-27T12:35:29.831Z</time></trkpt><trkpt lat="44.1091833" lon="9.8052933"><ele>15.0</ele><time>2026-03-27T12:35:31.831Z</time></trkpt><trkpt lat="44.1092517" lon="9.8051967"><ele>15.0</ele><time>2026-03-27T12:35:34.83Z</time></trkpt><trkpt lat="44.1092983" lon="9.8051183"><ele>15.0</ele><time>2026-03-27T12:35:36.831Z</time></trkpt><trkpt lat="44.1093417" lon="9.8050417"><ele>15.0</ele><time>2026-03-27T12:35:38.831Z</time></trkpt><trkpt lat="44.1093883" lon="9.80496"><ele>15.0</ele><time>2026-03-27T12:35:40.831Z</time></trkpt><trkpt lat="44.1094467" lon="9.8048717"><ele>15.0</ele><time>2026-03-27T12:35:42.831Z</time></trkpt><trkpt lat="44.109505" lon="9.804755"><ele>15.0</ele><time>2026-03-27T12:35:44.831Z</time></trkpt><trkpt lat="44.1095617" lon="9.804635"><ele>15.0</ele><time>2026-03-27T12:35:46.831Z</time></trkpt><trkpt lat="44.1096217" lon="9.8045167"><ele>15.0</ele><time>2026-03-27T12:35:48.831Z</time></trkpt><trkpt lat="44.109665" lon="9.8044483"><ele>15.0</ele><time>2026-03-27T12:35:49.831Z</time></trkpt><trkpt lat="44.1097317" lon="9.8043267"><ele>15.0</ele><time>2026-03-27T12:35:51.831Z</time></trkpt><trkpt lat="44.109785" lon="9.80423"><ele>15.0</ele><time>2026-03-27T12:35:53.831Z</time></trkpt><trkpt lat="44.1098467" lon="9.804125"><ele>15.0</ele><time>2026-03-27T12:35:55.831Z</time></trkpt><trkpt lat="44.1099467" lon="9.8040117"><ele>15.0</ele><time>2026-03-27T12:35:57.831Z</time></trkpt><trkpt lat="44.1100183" lon="9.8038817"><ele>15.0</ele><time>2026-03-27T12:35:59.831Z</time></trkpt><trkpt lat="44.1100833" lon="9.80378"><ele>15.0</ele><time>2026-03-27T12:36:01.831Z</time></trkpt><trkpt lat="44.11014" lon="9.8036833"><ele>15.0</ele><time>2026-03-27T12:36:03.831Z</time></trkpt><trkpt lat="44.1102017" lon="9.8035633"><ele>15.0</ele><time>2026-03-27T12:36:05.831Z</time></trkpt><trkpt lat="44.1102567" lon="9.80346"><ele>14.833333333333334</ele><time>2026-03-27T12:36:07.831Z</time></trkpt><trkpt lat="44.1103067" lon="9.803365"><ele>14.666666666666668</ele><time>2026-03-27T12:36:09.831Z</time></trkpt><trkpt lat="44.1103533" lon="9.803265"><ele>14.5</ele><time>2026-03-27T12:36:11.831Z</time></trkpt><trkpt lat="44.1104" lon="9.8031783"><ele>14.333333333333334</ele><time>2026-03-27T12:36:13.831Z</time></trkpt><trkpt lat="44.1104417" lon="9.8030917"><ele>14.166666666666668</ele><time>2026-03-27T12:36:15.831Z</time></trkpt><trkpt lat="44.110495" lon="9.8030167"><ele>14.0</ele><time>2026-03-27T12:36:17.831Z</time></trkpt><trkpt lat="44.11055" lon="9.8029283"><ele>14.0</ele><time>2026-03-27T12:36:19.831Z</time></trkpt><trkpt lat="44.1106017" lon="9.8028283"><ele>13.999999999999998</ele><time>2026-03-27T12:36:21.831Z</time></trkpt><trkpt lat="44.1106617" lon="9.80273"><ele>13.999999999999998</ele><time>2026-03-27T12:36:23.831Z</time></trkpt><trkpt lat="44.1107217" lon="9.80261"><ele>14.0</ele><time>2026-03-27T12:36:25.831Z</time></trkpt><trkpt lat="44.1107767" lon="9.8024933"><ele>14.0</ele><time>2026-03-27T12:36:27.831Z</time></trkpt><trkpt lat="44.1108383" lon="9.802375"><ele>14.799999999999999</ele><time>2026-03-27T12:36:29.831Z</time></trkpt><trkpt lat="44.110905" lon="9.8022567"><ele>15.599999999999998</ele><time>2026-03-27T12:36:31.83Z</time></trkpt><trkpt lat="44.11098" lon="9.8021617"><ele>16.4</ele><time>2026-03-27T12:36:33.831Z</time></trkpt><trkpt lat="44.1110817" lon="9.8020967"><ele>17.2</ele><time>2026-03-27T12:36:35.831Z</time></trkpt><trkpt lat="44.1111767" lon="9.802065"><ele>18.0</ele><time>2026-03-27T12:36:37.83Z</time></trkpt><trkpt lat="44.1112733" lon="9.80205"><ele>18.0</ele><time>2026-03-27T12:36:39.831Z</time></trkpt><trkpt lat="44.1113867" lon="9.8020433"><ele>18.0</ele><time>2026-03-27T12:36:41.831Z</time></trkpt><trkpt lat="44.1114883" lon="9.8020633"><ele>18.0</ele><time>2026-03-27T12:36:43.83Z</time></trkpt><trkpt lat="44.1115817" lon="9.8020983"><ele>18.0</ele><time>2026-03-27T12:36:45.83Z</time></trkpt><trkpt lat="44.1116783" lon="9.8021317"><ele>18.0</ele><time>2026-03-27T12:36:47.831Z</time></trkpt><trkpt lat="44.111775" lon="9.80217"><ele>18.333333333333332</ele><time>2026-03-27T12:36:49.831Z</time></trkpt><trkpt lat="44.1118633" lon="9.8022217"><ele>18.666666666666668</ele><time>2026-03-27T12:36:51.831Z</time></trkpt><trkpt lat="44.11195" lon="9.8022617"><ele>19.0</ele><time>2026-03-27T12:36:53.831Z</time></trkpt><trkpt lat="44.1120317" lon="9.8022967"><ele>19.333333333333336</ele><time>2026-03-27T12:36:55.831Z</time></trkpt><trkpt lat="44.112105" lon="9.8023317"><ele>19.666666666666668</ele><time>2026-03-27T12:36:57.831Z</time></trkpt><trkpt lat="44.112195" lon="9.8023883"><ele>20.0</ele><time>2026-03-27T12:36:59.831Z</time></trkpt><trkpt lat="44.1122817" lon="9.802445"><ele>20.0</ele><time>2026-03-27T12:37:01.831Z</time></trkpt><trkpt lat="44.11236" lon="9.8024733"><ele>20.0</ele><time>2026-03-27T12:37:03.831Z</time></trkpt><trkpt lat="44.112425" lon="9.8025117"><ele>20.0</ele><time>2026-03-27T12:37:05.831Z</time></trkpt><trkpt lat="44.1124967" lon="9.8025533"><ele>20.0</ele><time>2026-03-27T12:37:07.831Z</time></trkpt><trkpt lat="44.11258" lon="9.8025883"><ele>20.0</ele><time>2026-03-27T12:37:09.831Z</time></trkpt><trkpt lat="44.1126617" lon="9.8026217"><ele>20.0</ele><time>2026-03-27T12:37:11.83Z</time></trkpt><trkpt lat="44.11274" lon="9.8026633"><ele>20.2</ele><time>2026-03-27T12:37:13.831Z</time></trkpt><trkpt lat="44.1128167" lon="9.8026967"><ele>20.4</ele><time>2026-03-27T12:37:15.831Z</time></trkpt><trkpt lat="44.1129017" lon="9.8027283"><ele>20.6</ele><time>2026-03-27T12:37:17.831Z</time></trkpt><trkpt lat="44.1129983" lon="9.8027617"><ele>20.8</ele><time>2026-03-27T12:37:19.831Z</time></trkpt><trkpt lat="44.1130967" lon="9.8028"><ele>21.0</ele><time>2026-03-27T12:37:21.831Z</time></trkpt><trkpt lat="44.1131933" lon="9.8028133"><ele>21.8</ele><time>2026-03-27T12:37:23.831Z</time></trkpt><trkpt lat="44.113285" lon="9.80282"><ele>22.6</ele><time>2026-03-27T12:37:25.831Z</time></trkpt><trkpt lat="44.1133783" lon="9.8028233"><ele>23.4</ele><time>2026-03-27T12:37:27.83Z</time></trkpt><trkpt lat="44.1134733" lon="9.8028417"><ele>24.2</ele><time>2026-03-27T12:37:29.831Z</time></trkpt><trkpt lat="44.1135683" lon="9.8028533"><ele>25.0</ele><time>2026-03-27T12:37:31.83Z</time></trkpt><trkpt lat="44.1136583" lon="9.802875"><ele>25.0</ele><time>2026-03-27T12:37:33.831Z</time></trkpt><trkpt lat="44.1137483" lon="9.802895"><ele>25.0</ele><time>2026-03-27T12:37:35.831Z</time></trkpt><trkpt lat="44.1138533" lon="9.8029333"><ele>25.0</ele><time>2026-03-27T12:37:37.831Z</time></trkpt><trkpt lat="44.1139633" lon="9.80296"><ele>25.0</ele><time>2026-03-27T12:37:39.83Z</time></trkpt><trkpt lat="44.114065" lon="9.8029733"><ele>25.0</ele><time>2026-03-27T12:37:41.831Z</time></trkpt><trkpt lat="44.1141667" lon="9.802995"><ele>25.0</ele><time>2026-03-27T12:37:43.831Z</time></trkpt><trkpt lat="44.1142633" lon="9.8030233"><ele>25.0</ele><time>2026-03-27T12:37:45.831Z</time></trkpt><trkpt lat="44.1143583" lon="9.8030433"><ele>25.0</ele><time>2026-03-27T12:37:47.831Z</time></trkpt><trkpt lat="44.11445" lon="9.8030667"><ele>25.0</ele><time>2026-03-27T12:37:49.831Z</time></trkpt><trkpt lat="44.1145367" lon="9.8030967"><ele>25.0</ele><time>2026-03-27T12:37:51.831Z</time></trkpt><trkpt lat="44.1146167" lon="9.8031217"><ele>25.0</ele><time>2026-03-27T12:37:53.831Z</time></trkpt><trkpt lat="44.114705" lon="9.8031617"><ele>25.0</ele><time>2026-03-27T12:37:55.831Z</time></trkpt><trkpt lat="44.11479" lon="9.80321"><ele>25.0</ele><time>2026-03-27T12:37:57.831Z</time></trkpt><trkpt lat="44.1148733" lon="9.8032783"><ele>25.0</ele><time>2026-03-27T12:37:59.831Z</time></trkpt><trkpt lat="44.114955" lon="9.8033417"><ele>25.0</ele><time>2026-03-27T12:38:01.831Z</time></trkpt><trkpt lat="44.1150383" lon="9.8033917"><ele>25.4</ele><time>2026-03-27T12:38:03.831Z</time></trkpt><trkpt lat="44.1151267" lon="9.80345"><ele>25.8</ele><time>2026-03-27T12:38:05.831Z</time></trkpt><trkpt lat="44.1152167" lon="9.803505"><ele>26.200000000000003</ele><time>2026-03-27T12:38:07.831Z</time></trkpt><trkpt lat="44.115305" lon="9.8035533"><ele>26.6</ele><time>2026-03-27T12:38:09.831Z</time></trkpt><trkpt lat="44.1153917" lon="9.8036033"><ele>27.0</ele><time>2026-03-27T12:38:11.83Z</time></trkpt><trkpt lat="44.1154767" lon="9.8036533"><ele>27.0</ele><time>2026-03-27T12:38:13.831Z</time></trkpt><trkpt lat="44.1155633" lon="9.8037083"><ele>27.000000000000004</ele><time>2026-03-27T12:38:15.831Z</time></trkpt><trkpt lat="44.1156517" lon="9.803745"><ele>27.000000000000004</ele><time>2026-03-27T12:38:17.83Z</time></trkpt><trkpt lat="44.1157433" lon="9.8037533"><ele>27.0</ele><time>2026-03-27T12:38:19.831Z</time></trkpt><trkpt lat="44.1158367" lon="9.803765"><ele>27.0</ele><time>2026-03-27T12:38:21.83Z</time></trkpt><trkpt lat="44.1159333" lon="9.8037567"><ele>27.333333333333332</ele><time>2026-03-27T12:38:23.831Z</time></trkpt><trkpt lat="44.11602" lon="9.80374"><ele>27.666666666666664</ele><time>2026-03-27T12:38:25.831Z</time></trkpt><trkpt lat="44.1160983" lon="9.8037167"><ele>28.0</ele><time>2026-03-27T12:38:27.83Z</time></trkpt><trkpt lat="44.1161733" lon="9.8036967"><ele>28.333333333333332</ele><time>2026-03-27T12:38:29.831Z</time></trkpt><trkpt lat="44.1162533" lon="9.8036817"><ele>28.666666666666664</ele><time>2026-03-27T12:38:31.83Z</time></trkpt><trkpt lat="44.1163317" lon="9.8036533"><ele>29.0</ele><time>2026-03-27T12:38:33.831Z</time></trkpt><trkpt lat="44.1164133" lon="9.803625"><ele>28.999999999999996</ele><time>2026-03-27T12:38:35.831Z</time></trkpt><trkpt lat="44.116505" lon="9.8036"><ele>29.0</ele><time>2026-03-27T12:38:37.831Z</time></trkpt><trkpt lat="44.116575" lon="9.803545"><ele>29.0</ele><time>2026-03-27T12:38:39.831Z</time></trkpt><trkpt lat="44.1166167" lon="9.8034617"><ele>29.0</ele><time>2026-03-27T12:38:41.831Z</time></trkpt><trkpt lat="44.11665" lon="9.8033617"><ele>28.999999999999996</ele><time>2026-03-27T12:38:43.831Z</time></trkpt><trkpt lat="44.1166883" lon="9.8032517"><ele>29.0</ele><time>2026-03-27T12:38:45.831Z</time></trkpt><trkpt lat="44.1167383" lon="9.803165"><ele>29.666666666666664</ele><time>2026-03-27T12:38:47.831Z</time></trkpt><trkpt lat="44.1168067" lon="9.8030867"><ele>30.333333333333332</ele><time>2026-03-27T12:38:49.83Z</time></trkpt><trkpt lat="44.1168617" lon="9.803015"><ele>31.0</ele><time>2026-03-27T12:38:51.831Z</time></trkpt><trkpt lat="44.116945" lon="9.8029617"><ele>31.666666666666664</ele><time>2026-03-27T12:38:53.831Z</time></trkpt><trkpt lat="44.11702" lon="9.8029133"><ele>32.333333333333336</ele><time>2026-03-27T12:38:55.831Z</time></trkpt><trkpt lat="44.1170967" lon="9.8028367"><ele>33.0</ele><time>2026-03-27T12:38:57.831Z</time></trkpt><trkpt lat="44.117165" lon="9.8027433"><ele>33.0</ele><time>2026-03-27T12:38:59.831Z</time></trkpt><trkpt lat="44.1172317" lon="9.802685"><ele>33.0</ele><time>2026-03-27T12:39:01.831Z</time></trkpt><trkpt lat="44.1172967" lon="9.8026317"><ele>33.0</ele><time>2026-03-27T12:39:03.831Z</time></trkpt><trkpt lat="44.1173617" lon="9.802575"><ele>33.0</ele><time>2026-03-27T12:39:05.831Z</time></trkpt><trkpt lat="44.1174517" lon="9.8025283"><ele>33.0</ele><time>2026-03-27T12:39:07.831Z</time></trkpt><trkpt lat="44.1175217" lon="9.8024933"><ele>33.0</ele><time>2026-03-27T12:39:09.831Z</time></trkpt><trkpt lat="44.11759" lon="9.80244"><ele>33.666666666666664</ele><time>2026-03-27T12:39:11.831Z</time></trkpt><trkpt lat="44.1176617" lon="9.8023983"><ele>34.333333333333336</ele><time>2026-03-27T12:39:13.831Z</time></trkpt><trkpt lat="44.1177433" lon="9.8023617"><ele>35.0</ele><time>2026-03-27T12:39:15.831Z</time></trkpt><trkpt lat="44.11784" lon="9.80234"><ele>35.66666666666667</ele><time>2026-03-27T12:39:17.831Z</time></trkpt><trkpt lat="44.117915" lon="9.8023217"><ele>36.333333333333336</ele><time>2026-03-27T12:39:19.831Z</time></trkpt><trkpt lat="44.1179767" lon="9.80227"><ele>37.0</ele><time>2026-03-27T12:39:21.83Z</time></trkpt><trkpt lat="44.1180367" lon="9.8022083"><ele>37.0</ele><time>2026-03-27T12:39:23.831Z</time></trkpt><trkpt lat="44.1181017" lon="9.8021467"><ele>37.0</ele><time>2026-03-27T12:39:25.831Z</time></trkpt><trkpt lat="44.1181917" lon="9.8021067"><ele>37.0</ele><time>2026-03-27T12:39:27.831Z</time></trkpt><trkpt lat="44.118255" lon="9.802055"><ele>37.0</ele><time>2026-03-27T12:39:29.831Z</time></trkpt><trkpt lat="44.118325" lon="9.80199"><ele>37.0</ele><time>2026-03-27T12:39:31.831Z</time></trkpt><trkpt lat="44.1183983" lon="9.8019433"><ele>37.0</ele><time>2026-03-27T12:39:33.83Z</time></trkpt><trkpt lat="44.1184667" lon="9.8019017"><ele>37.0</ele><time>2026-03-27T12:39:35.831Z</time></trkpt><trkpt lat="44.1185633" lon="9.80186"><ele>37.0</ele><time>2026-03-27T12:39:37.831Z</time></trkpt><trkpt lat="44.1186383" lon="9.8018333"><ele>37.0</ele><time>2026-03-27T12:39:39.831Z</time></trkpt><trkpt lat="44.1187133" lon="9.8017983"><ele>37.0</ele><time>2026-03-27T12:39:42.83Z</time></trkpt><trkpt lat="44.11879" lon="9.8017517"><ele>37.0</ele><time>2026-03-27T12:39:45.831Z</time></trkpt><trkpt lat="44.118845" lon="9.80167"><ele>37.0</ele><time>2026-03-27T12:39:48.831Z</time></trkpt><trkpt lat="44.1188983" lon="9.8016167"><ele>37.333333333333336</ele><time>2026-03-27T12:39:50.83Z</time></trkpt><trkpt lat="44.1189617" lon="9.8015517"><ele>37.66666666666667</ele><time>2026-03-27T12:39:52.83Z</time></trkpt><trkpt lat="44.119015" lon="9.8015033"><ele>38.0</ele><time>2026-03-27T12:39:54.831Z</time></trkpt><trkpt lat="44.1190767" lon="9.8014683"><ele>38.333333333333336</ele><time>2026-03-27T12:39:56.831Z</time></trkpt><trkpt lat="44.1191733" lon="9.8014517"><ele>38.666666666666664</ele><time>2026-03-27T12:39:58.831Z</time></trkpt><trkpt lat="44.1192517" lon="9.8013767"><ele>39.0</ele><time>2026-03-27T12:40:00.831Z</time></trkpt><trkpt lat="44.1193167" lon="9.8013133"><ele>39.0</ele><time>2026-03-27T12:40:02.831Z</time></trkpt><trkpt lat="44.119385" lon="9.801255"><ele>39.0</ele><time>2026-03-27T12:40:04.831Z</time></trkpt><trkpt lat="44.1194533" lon="9.8012033"><ele>39.0</ele><time>2026-03-27T12:40:06.831Z</time></trkpt><trkpt lat="44.119515" lon="9.8011533"><ele>39.0</ele><time>2026-03-27T12:40:08.831Z</time></trkpt><trkpt lat="44.1195867" lon="9.8011183"><ele>39.0</ele><time>2026-03-27T12:40:10.831Z</time></trkpt><trkpt lat="44.1196617" lon="9.8010567"><ele>39.0</ele><time>2026-03-27T12:40:12.831Z</time></trkpt><trkpt lat="44.11973" lon="9.800985"><ele>40.0</ele><time>2026-03-27T12:40:14.831Z</time></trkpt><trkpt lat="44.119795" lon="9.8009133"><ele>41.0</ele><time>2026-03-27T12:40:16.831Z</time></trkpt><trkpt lat="44.1198667" lon="9.8008817"><ele>42.0</ele><time>2026-03-27T12:40:18.831Z</time></trkpt><trkpt lat="44.11994" lon="9.8008317"><ele>43.0</ele><time>2026-03-27T12:40:20.831Z</time></trkpt><trkpt lat="44.1200167" lon="9.8007717"><ele>44.0</ele><time>2026-03-27T12:40:22.83Z</time></trkpt><trkpt lat="44.120085" lon="9.800735"><ele>45.0</ele><time>2026-03-27T12:40:24.831Z</time></trkpt><trkpt lat="44.120155" lon="9.8006817"><ele>45.0</ele><time>2026-03-27T12:40:26.83Z</time></trkpt><trkpt lat="44.1202717" lon="9.80068"><ele>45.0</ele><time>2026-03-27T12:40:28.831Z</time></trkpt><trkpt lat="44.1203633" lon="9.8006533"><ele>45.0</ele><time>2026-03-27T12:40:30.831Z</time></trkpt><trkpt lat="44.1204383" lon="9.8006183"><ele>45.0</ele><time>2026-03-27T12:40:32.831Z</time></trkpt><trkpt lat="44.120505" lon="9.800585"><ele>45.0</ele><time>2026-03-27T12:40:34.831Z</time></trkpt><trkpt lat="44.120565" lon="9.800545"><ele>45.0</ele><time>2026-03-27T12:40:36.83Z</time></trkpt><trkpt lat="44.120615" lon="9.800485"><ele>45.0</ele><time>2026-03-27T12:40:38.831Z</time></trkpt><trkpt lat="44.120675" lon="9.80042"><ele>45.0</ele><time>2026-03-27T12:40:40.831Z</time></trkpt><trkpt lat="44.1207333" lon="9.8003633"><ele>45.0</ele><time>2026-03-27T12:40:42.831Z</time></trkpt><trkpt lat="44.1207783" lon="9.800295"><ele>45.0</ele><time>2026-03-27T12:40:44.831Z</time></trkpt><trkpt lat="44.12086" lon="9.8002333"><ele>45.0</ele><time>2026-03-27T12:40:47.831Z</time></trkpt><trkpt lat="44.1209133" lon="9.80017"><ele>45.0</ele><time>2026-03-27T12:40:49.831Z</time></trkpt><trkpt lat="44.120985" lon="9.80011"><ele>45.666666666666664</ele><time>2026-03-27T12:40:51.831Z</time></trkpt><trkpt lat="44.1210517" lon="9.8000733"><ele>46.33333333333333</ele><time>2026-03-27T12:40:53.831Z</time></trkpt><trkpt lat="44.1211133" lon="9.8000533"><ele>47.0</ele><time>2026-03-27T12:40:55.831Z</time></trkpt><trkpt lat="44.1211917" lon="9.8000383"><ele>47.666666666666664</ele><time>2026-03-27T12:40:57.83Z</time></trkpt><trkpt lat="44.1212717" lon="9.8000317"><ele>48.33333333333333</ele><time>2026-03-27T12:40:59.831Z</time></trkpt><trkpt lat="44.1213617" lon="9.800035"><ele>49.0</ele><time>2026-03-27T12:41:01.831Z</time></trkpt><trkpt lat="44.1214417" lon="9.8000467"><ele>48.99999999999999</ele><time>2026-03-27T12:41:03.831Z</time></trkpt><trkpt lat="44.1215117" lon="9.8000367"><ele>49.0</ele><time>2026-03-27T12:41:05.831Z</time></trkpt><trkpt lat="44.121585" lon="9.8000333"><ele>49.0</ele><time>2026-03-27T12:41:07.83Z</time></trkpt><trkpt lat="44.1216717" lon="9.8000333"><ele>49.0</ele><time>2026-03-27T12:41:09.831Z</time></trkpt><trkpt lat="44.1217417" lon="9.800015"><ele>48.99999999999999</ele><time>2026-03-27T12:41:11.831Z</time></trkpt><trkpt lat="44.1218233" lon="9.7999967"><ele>49.0</ele><time>2026-03-27T12:41:13.831Z</time></trkpt><trkpt lat="44.12192" lon="9.8000033"><ele>49.33333333333333</ele><time>2026-03-27T12:41:15.831Z</time></trkpt><trkpt lat="44.122015" lon="9.8000183"><ele>49.666666666666664</ele><time>2026-03-27T12:41:17.831Z</time></trkpt><trkpt lat="44.1221" lon="9.80003"><ele>50.0</ele><time>2026-03-27T12:41:19.831Z</time></trkpt><trkpt lat="44.1221783" lon="9.8000383"><ele>50.33333333333333</ele><time>2026-03-27T12:41:21.83Z</time></trkpt><trkpt lat="44.1222517" lon="9.80005"><ele>50.666666666666664</ele><time>2026-03-27T12:41:23.83Z</time></trkpt><trkpt lat="44.1223367" lon="9.80007"><ele>51.0</ele><time>2026-03-27T12:41:25.83Z</time></trkpt><trkpt lat="44.1224233" lon="9.8000767"><ele>51.5</ele><time>2026-03-27T12:41:27.831Z</time></trkpt><trkpt lat="44.1225033" lon="9.8000917"><ele>52.0</ele><time>2026-03-27T12:41:29.831Z</time></trkpt><trkpt lat="44.1225833" lon="9.8001033"><ele>52.5</ele><time>2026-03-27T12:41:31.831Z</time></trkpt><trkpt lat="44.1226617" lon="9.80011"><ele>53.0</ele><time>2026-03-27T12:41:33.831Z</time></trkpt><trkpt lat="44.12274" lon="9.8001183"><ele>53.5</ele><time>2026-03-27T12:41:35.831Z</time></trkpt><trkpt lat="44.12281" lon="9.800115"><ele>54.0</ele><time>2026-03-27T12:41:37.831Z</time></trkpt><trkpt lat="44.1229033" lon="9.800075"><ele>54.0</ele><time>2026-03-27T12:41:40.831Z</time></trkpt><trkpt lat="44.12297" lon="9.8000417"><ele>54.0</ele><time>2026-03-27T12:41:42.831Z</time></trkpt><trkpt lat="44.1230367" lon="9.799955"><ele>54.0</ele><time>2026-03-27T12:41:45.831Z</time></trkpt><trkpt lat="44.1230533" lon="9.7998633"><ele>54.0</ele><time>2026-03-27T12:41:47.831Z</time></trkpt><trkpt lat="44.12304" lon="9.7997767"><ele>54.0</ele><time>2026-03-27T12:41:49.831Z</time></trkpt><trkpt lat="44.1230083" lon="9.7996967"><ele>54.0</ele><time>2026-03-27T12:41:51.831Z</time></trkpt><trkpt lat="44.1229483" lon="9.799605"><ele>54.0</ele><time>2026-03-27T12:41:54.831Z</time></trkpt><trkpt lat="44.1228817" lon="9.79951"><ele>54.0</ele><time>2026-03-27T12:41:57.831Z</time></trkpt><trkpt lat="44.122825" lon="9.7994067"><ele>54.0</ele><time>2026-03-27T12:42:00.831Z</time></trkpt><trkpt lat="44.1227733" lon="9.7993"><ele>54.0</ele><time>2026-03-27T12:42:03.831Z</time></trkpt><trkpt lat="44.1227367" lon="9.799185"><ele>54.0</ele><time>2026-03-27T12:42:06.831Z</time></trkpt><trkpt lat="44.1227117" lon="9.79907"><ele>54.0</ele><time>2026-03-27T12:42:09.83Z</time></trkpt><trkpt lat="44.122685" lon="9.7989783"><ele>54.0</ele><time>2026-03-27T12:42:12.83Z</time></trkpt><trkpt lat="44.1226783" lon="9.7988483"><ele>54.5</ele><time>2026-03-27T12:42:15.831Z</time></trkpt><trkpt lat="44.1226583" lon="9.7987267"><ele>55.0</ele><time>2026-03-27T12:42:18.83Z</time></trkpt><trkpt lat="44.1226367" lon="9.7986067"><ele>55.5</ele><time>2026-03-27T12:42:21.831Z</time></trkpt><trkpt lat="44.1226133" lon="9.7984933"><ele>56.0</ele><time>2026-03-27T12:42:24.831Z</time></trkpt><trkpt lat="44.1225867" lon="9.7983983"><ele>56.5</ele><time>2026-03-27T12:42:27.831Z</time></trkpt><trkpt lat="44.1225817" lon="9.7983067"><ele>57.0</ele><time>2026-03-27T12:42:29.831Z</time></trkpt><trkpt lat="44.122565" lon="9.798215"><ele>58.0</ele><time>2026-03-27T12:42:31.831Z</time></trkpt><trkpt lat="44.12253" lon="9.7980967"><ele>59.0</ele><time>2026-03-27T12:42:34.83Z</time></trkpt><trkpt lat="44.122525" lon="9.7979717"><ele>60.0</ele><time>2026-03-27T12:42:37.831Z</time></trkpt><trkpt lat="44.1225783" lon="9.797875"><ele>61.0</ele><time>2026-03-27T12:42:40.831Z</time></trkpt><trkpt lat="44.1226617" lon="9.7978867"><ele>62.0</ele><time>2026-03-27T12:42:43.831Z</time></trkpt><trkpt lat="44.1227067" lon="9.7979533"><ele>63.0</ele><time>2026-03-27T12:42:46.831Z</time></trkpt><trkpt lat="44.1227283" lon="9.7980683"><ele>63.0</ele><time>2026-03-27T12:42:50.831Z</time></trkpt><trkpt lat="44.12275" lon="9.7981633"><ele>63.0</ele><time>2026-03-27T12:42:53.831Z</time></trkpt><trkpt lat="44.12278" lon="9.7982667"><ele>63.0</ele><time>2026-03-27T12:42:56.831Z</time></trkpt><trkpt lat="44.12281" lon="9.79838"><ele>63.0</ele><time>2026-03-27T12:42:59.831Z</time></trkpt><trkpt lat="44.1228483" lon="9.7984933"><ele>63.0</ele><time>2026-03-27T12:43:02.831Z</time></trkpt><trkpt lat="44.122885" lon="9.7986117"><ele>63.0</ele><time>2026-03-27T12:43:05.831Z</time></trkpt><trkpt lat="44.1229067" lon="9.798695"><ele>62.0</ele><time>2026-03-27T12:43:07.831Z</time></trkpt><trkpt lat="44.1229433" lon="9.7988117"><ele>61.0</ele><time>2026-03-27T12:43:10.831Z</time></trkpt><trkpt lat="44.122985" lon="9.7988817"><ele>60.0</ele><time>2026-03-27T12:43:12.83Z</time></trkpt><trkpt lat="44.1230717" lon="9.7989133"><ele>59.0</ele><time>2026-03-27T12:43:15.831Z</time></trkpt><trkpt lat="44.123135" lon="9.798905"><ele>58.0</ele><time>2026-03-27T12:43:17.831Z</time></trkpt><trkpt lat="44.1232133" lon="9.7988517"><ele>57.0</ele><time>2026-03-27T12:43:20.831Z</time></trkpt><trkpt lat="44.1232517" lon="9.7987683"><ele>58.0</ele><time>2026-03-27T12:43:23.831Z</time></trkpt><trkpt lat="44.1232783" lon="9.7986533"><ele>59.0</ele><time>2026-03-27T12:43:26.831Z</time></trkpt><trkpt lat="44.123295" lon="9.798525"><ele>60.0</ele><time>2026-03-27T12:43:29.83Z</time></trkpt><trkpt lat="44.1232833" lon="9.7984117"><ele>61.0</ele><time>2026-03-27T12:43:32.83Z</time></trkpt><trkpt lat="44.1232633" lon="9.798305"><ele>62.0</ele><time>2026-03-27T12:43:35.83Z</time></trkpt><trkpt lat="44.1232267" lon="9.7982183"><ele>63.0</ele><time>2026-03-27T12:43:38.83Z</time></trkpt><trkpt lat="44.12317" lon="9.7981267"><ele>63.0</ele><time>2026-03-27T12:43:41.83Z</time></trkpt><trkpt lat="44.1231067" lon="9.7980483"><ele>63.0</ele><time>2026-03-27T12:43:44.83Z</time></trkpt><trkpt lat="44.1230267" lon="9.7979833"><ele>63.0</ele><time>2026-03-27T12:43:47.829Z</time></trkpt><trkpt lat="44.1229533" lon="9.797935"><ele>63.0</ele><time>2026-03-27T12:43:50.83Z</time></trkpt><trkpt lat="44.1229133" lon="9.7978317"><ele>63.0</ele><time>2026-03-27T12:43:53.83Z</time></trkpt><trkpt lat="44.122925" lon="9.7977167"><ele>63.0</ele><time>2026-03-27T12:43:56.83Z</time></trkpt><trkpt lat="44.1229817" lon="9.7976467"><ele>63.0</ele><time>2026-03-27T12:43:59.83Z</time></trkpt><trkpt lat="44.123075" lon="9.79763"><ele>63.0</ele><time>2026-03-27T12:44:02.83Z</time></trkpt><trkpt lat="44.12314" lon="9.7976933"><ele>63.0</ele><time>2026-03-27T12:44:05.83Z</time></trkpt><trkpt lat="44.1232017" lon="9.7977767"><ele>63.0</ele><time>2026-03-27T12:44:08.829Z</time></trkpt><trkpt lat="44.1232533" lon="9.7978533"><ele>63.0</ele><time>2026-03-27T12:44:11.829Z</time></trkpt><trkpt lat="44.1233017" lon="9.797925"><ele>63.0</ele><time>2026-03-27T12:44:14.83Z</time></trkpt><trkpt lat="44.12334" lon="9.797995"><ele>64.83333333333333</ele><time>2026-03-27T12:44:17.829Z</time></trkpt><trkpt lat="44.1233733" lon="9.7980833"><ele>66.66666666666667</ele><time>2026-03-27T12:44:20.83Z</time></trkpt><trkpt lat="44.1234183" lon="9.7981817"><ele>68.5</ele><time>2026-03-27T12:44:23.83Z</time></trkpt><trkpt lat="44.12347" lon="9.79827"><ele>70.33333333333334</ele><time>2026-03-27T12:44:26.83Z</time></trkpt><trkpt lat="44.12351" lon="9.7983567"><ele>72.16666666666667</ele><time>2026-03-27T12:44:29.83Z</time></trkpt><trkpt lat="44.123565" lon="9.79844"><ele>74.0</ele><time>2026-03-27T12:44:32.83Z</time></trkpt><trkpt lat="44.1236317" lon="9.7985067"><ele>74.0</ele><time>2026-03-27T12:44:35.829Z</time></trkpt><trkpt lat="44.12371" lon="9.7985317"><ele>74.0</ele><time>2026-03-27T12:44:38.83Z</time></trkpt><trkpt lat="44.1237967" lon="9.798505"><ele>74.0</ele><time>2026-03-27T12:44:41.829Z</time></trkpt><trkpt lat="44.12386" lon="9.7984433"><ele>74.0</ele><time>2026-03-27T12:44:44.83Z</time></trkpt><trkpt lat="44.123875" lon="9.7983517"><ele>74.0</ele><time>2026-03-27T12:44:47.83Z</time></trkpt><trkpt lat="44.12386" lon="9.7982383"><ele>74.0</ele><time>2026-03-27T12:44:50.83Z</time></trkpt><trkpt lat="44.123825" lon="9.798145"><ele>75.42857142857143</ele><time>2026-03-27T12:44:53.83Z</time></trkpt><trkpt lat="44.1237783" lon="9.7980567"><ele>76.85714285714286</ele><time>2026-03-27T12:44:56.83Z</time></trkpt><trkpt lat="44.1237367" lon="9.7979733"><ele>78.28571428571428</ele><time>2026-03-27T12:44:59.83Z</time></trkpt><trkpt lat="44.1237" lon="9.7978983"><ele>79.71428571428572</ele><time>2026-03-27T12:45:02.83Z</time></trkpt><trkpt lat="44.123685" lon="9.7977983"><ele>81.14285714285714</ele><time>2026-03-27T12:45:05.83Z</time></trkpt><trkpt lat="44.123675" lon="9.7976983"><ele>82.57142857142857</ele><time>2026-03-27T12:45:08.829Z</time></trkpt><trkpt lat="44.1236683" lon="9.7975933"><ele>84.0</ele><time>2026-03-27T12:45:11.83Z</time></trkpt><trkpt lat="44.1236667" lon="9.7974967"><ele>84.71428571428571</ele><time>2026-03-27T12:45:14.83Z</time></trkpt><trkpt lat="44.1236717" lon="9.7973933"><ele>85.42857142857143</ele><time>2026-03-27T12:45:17.83Z</time></trkpt><trkpt lat="44.12369" lon="9.7973"><ele>86.14285714285714</ele><time>2026-03-27T12:45:20.83Z</time></trkpt><trkpt lat="44.1237067" lon="9.7972133"><ele>86.85714285714286</ele><time>2026-03-27T12:45:23.83Z</time></trkpt><trkpt lat="44.1237267" lon="9.7971167"><ele>87.57142857142857</ele><time>2026-03-27T12:45:27.83Z</time></trkpt><trkpt lat="44.1237567" lon="9.797015"><ele>88.28571428571428</ele><time>2026-03-27T12:45:31.83Z</time></trkpt><trkpt lat="44.1237883" lon="9.7969233"><ele>89.0</ele><time>2026-03-27T12:45:34.83Z</time></trkpt><trkpt lat="44.1238167" lon="9.796825"><ele>89.85714285714285</ele><time>2026-03-27T12:45:37.83Z</time></trkpt><trkpt lat="44.12384" lon="9.79673"><ele>90.71428571428571</ele><time>2026-03-27T12:45:40.83Z</time></trkpt><trkpt lat="44.1238783" lon="9.79663"><ele>91.57142857142857</ele><time>2026-03-27T12:45:43.83Z</time></trkpt><trkpt lat="44.12391" lon="9.796535"><ele>92.42857142857142</ele><time>2026-03-27T12:45:46.83Z</time></trkpt><trkpt lat="44.12393" lon="9.7964517"><ele>93.28571428571429</ele><time>2026-03-27T12:45:49.83Z</time></trkpt><trkpt lat="44.1239517" lon="9.7963683"><ele>94.14285714285714</ele><time>2026-03-27T12:45:52.829Z</time></trkpt><trkpt lat="44.123985" lon="9.79627"><ele>95.0</ele><time>2026-03-27T12:45:56.83Z</time></trkpt><trkpt lat="44.1240067" lon="9.79618"><ele>95.0</ele><time>2026-03-27T12:45:59.83Z</time></trkpt><trkpt lat="44.124015" lon="9.7960717"><ele>95.0</ele><time>2026-03-27T12:46:03.83Z</time></trkpt><trkpt lat="44.124015" lon="9.7959833"><ele>95.0</ele><time>2026-03-27T12:46:06.83Z</time></trkpt><trkpt lat="44.1240083" lon="9.795885"><ele>95.0</ele><time>2026-03-27T12:46:09.83Z</time></trkpt><trkpt lat="44.1239917" lon="9.7957933"><ele>95.0</ele><time>2026-03-27T12:46:12.83Z</time></trkpt><trkpt lat="44.1239533" lon="9.7957117"><ele>95.0</ele><time>2026-03-27T12:46:15.83Z</time></trkpt><trkpt lat="44.1239017" lon="9.7956317"><ele>95.0</ele><time>2026-03-27T12:46:18.83Z</time></trkpt><trkpt lat="44.1238383" lon="9.7955817"><ele>97.57142857142857</ele><time>2026-03-27T12:46:21.829Z</time></trkpt><trkpt lat="44.1237617" lon="9.7955933"><ele>100.14285714285714</ele><time>2026-03-27T12:46:25.83Z</time></trkpt><trkpt lat="44.1236983" lon="9.7956217"><ele>102.71428571428572</ele><time>2026-03-27T12:46:28.83Z</time></trkpt><trkpt lat="44.1236317" lon="9.7956483"><ele>105.28571428571428</ele><time>2026-03-27T12:46:31.83Z</time></trkpt><trkpt lat="44.1235533" lon="9.7956617"><ele>107.85714285714285</ele><time>2026-03-27T12:46:34.83Z</time></trkpt><trkpt lat="44.12348" lon="9.7956733"><ele>110.42857142857143</ele><time>2026-03-27T12:46:37.83Z</time></trkpt><trkpt lat="44.1234" lon="9.795695"><ele>113.0</ele><time>2026-03-27T12:46:41.83Z</time></trkpt><trkpt lat="44.1233433" lon="9.7956467"><ele>113.0</ele><time>2026-03-27T12:46:44.829Z</time></trkpt><trkpt lat="44.1233583" lon="9.79555"><ele>113.0</ele><time>2026-03-27T12:46:48.83Z</time></trkpt><trkpt lat="44.12341" lon="9.7954967"><ele>113.0</ele><time>2026-03-27T12:46:51.83Z</time></trkpt><trkpt lat="44.1234783" lon="9.79546"><ele>113.0</ele><time>2026-03-27T12:46:54.829Z</time></trkpt><trkpt lat="44.1235367" lon="9.79542"><ele>113.0</ele><time>2026-03-27T12:46:57.83Z</time></trkpt><trkpt lat="44.1236117" lon="9.7953633"><ele>113.0</ele><time>2026-03-27T12:47:01.83Z</time></trkpt><trkpt lat="44.1236717" lon="9.7953167"><ele>113.0</ele><time>2026-03-27T12:47:04.829Z</time></trkpt><trkpt lat="44.1237333" lon="9.79527"><ele>112.99999999999999</ele><time>2026-03-27T12:47:07.83Z</time></trkpt><trkpt lat="44.1238033" lon="9.7952433"><ele>113.0</ele><time>2026-03-27T12:47:10.83Z</time></trkpt><trkpt lat="44.1238733" lon="9.795215"><ele>113.0</ele><time>2026-03-27T12:47:13.83Z</time></trkpt><trkpt lat="44.1239267" lon="9.7951633"><ele>113.0</ele><time>2026-03-27T12:47:16.83Z</time></trkpt><trkpt lat="44.1239583" lon="9.7950517"><ele>112.99999999999999</ele><time>2026-03-27T12:47:20.83Z</time></trkpt><trkpt lat="44.123925" lon="9.7949617"><ele>113.0</ele><time>2026-03-27T12:47:23.83Z</time></trkpt><trkpt lat="44.123845" lon="9.7949383"><ele>114.85714285714286</ele><time>2026-03-27T12:47:27.83Z</time></trkpt><trkpt lat="44.1237833" lon="9.7949617"><ele>116.71428571428571</ele><time>2026-03-27T12:47:30.829Z</time></trkpt><trkpt lat="44.12372" lon="9.7949683"><ele>118.57142857142857</ele><time>2026-03-27T12:47:33.829Z</time></trkpt><trkpt lat="44.1236483" lon="9.7949883"><ele>120.42857142857143</ele><time>2026-03-27T12:47:36.829Z</time></trkpt><trkpt lat="44.12356" lon="9.7949983"><ele>122.28571428571428</ele><time>2026-03-27T12:47:39.83Z</time></trkpt><trkpt lat="44.123475" lon="9.794975"><ele>124.14285714285714</ele><time>2026-03-27T12:47:42.83Z</time></trkpt><trkpt lat="44.12348" lon="9.794885"><ele>126.0</ele><time>2026-03-27T12:47:46.829Z</time></trkpt><trkpt lat="44.12355" lon="9.7948517"><ele>126.0</ele><time>2026-03-27T12:47:49.83Z</time></trkpt><trkpt lat="44.123615" lon="9.7948283"><ele>126.0</ele><time>2026-03-27T12:47:52.83Z</time></trkpt><trkpt lat="44.1236833" lon="9.7948033"><ele>126.0</ele><time>2026-03-27T12:47:55.829Z</time></trkpt><trkpt lat="44.123755" lon="9.7947767"><ele>126.0</ele><time>2026-03-27T12:47:58.83Z</time></trkpt><trkpt lat="44.12382" lon="9.794755"><ele>126.0</ele><time>2026-03-27T12:48:01.83Z</time></trkpt><trkpt lat="44.1238817" lon="9.7947283"><ele>126.0</ele><time>2026-03-27T12:48:04.83Z</time></trkpt><trkpt lat="44.12395" lon="9.7947017"><ele>126.0</ele><time>2026-03-27T12:48:07.83Z</time></trkpt><trkpt lat="44.1240233" lon="9.7946817"><ele>127.14285714285714</ele><time>2026-03-27T12:48:10.83Z</time></trkpt><trkpt lat="44.1241033" lon="9.7946833"><ele>128.28571428571428</ele><time>2026-03-27T12:48:13.829Z</time></trkpt><trkpt lat="44.12417" lon="9.7947133"><ele>129.42857142857144</ele><time>2026-03-27T12:48:16.83Z</time></trkpt><trkpt lat="44.1242317" lon="9.7947717"><ele>130.57142857142856</ele><time>2026-03-27T12:48:19.829Z</time></trkpt><trkpt lat="44.1242683" lon="9.7948483"><ele>131.71428571428572</ele><time>2026-03-27T12:48:22.829Z</time></trkpt><trkpt lat="44.1242783" lon="9.794955"><ele>132.85714285714286</ele><time>2026-03-27T12:48:26.83Z</time></trkpt><trkpt lat="44.12426" lon="9.79504"><ele>134.0</ele><time>2026-03-27T12:48:29.83Z</time></trkpt><trkpt lat="44.124225" lon="9.7951217"><ele>131.83333333333331</ele><time>2026-03-27T12:48:32.83Z</time></trkpt><trkpt lat="44.1241983" lon="9.7952217"><ele>129.66666666666666</ele><time>2026-03-27T12:48:35.83Z</time></trkpt><trkpt lat="44.124185" lon="9.79533"><ele>127.5</ele><time>2026-03-27T12:48:38.83Z</time></trkpt><trkpt lat="44.1241933" lon="9.7954417"><ele>125.33333333333334</ele><time>2026-03-27T12:48:41.83Z</time></trkpt><trkpt lat="44.1242333" lon="9.7955333"><ele>123.16666666666667</ele><time>2026-03-27T12:48:44.83Z</time></trkpt><trkpt lat="44.1243083" lon="9.7955783"><ele>121.0</ele><time>2026-03-27T12:48:47.83Z</time></trkpt><trkpt lat="44.124385" lon="9.7955583"><ele>121.00000000000001</ele><time>2026-03-27T12:48:50.83Z</time></trkpt><trkpt lat="44.12444" lon="9.79548"><ele>121.0</ele><time>2026-03-27T12:48:53.829Z</time></trkpt><trkpt lat="44.1244767" lon="9.7953917"><ele>121.0</ele><time>2026-03-27T12:48:56.83Z</time></trkpt><trkpt lat="44.1244967" lon="9.79529"><ele>121.0</ele><time>2026-03-27T12:48:59.83Z</time></trkpt><trkpt lat="44.1245117" lon="9.7951867"><ele>121.00000000000001</ele><time>2026-03-27T12:49:02.83Z</time></trkpt><trkpt lat="44.1245283" lon="9.7950817"><ele>121.0</ele><time>2026-03-27T12:49:05.83Z</time></trkpt><trkpt lat="44.12454" lon="9.79498"><ele>123.16666666666667</ele><time>2026-03-27T12:49:08.829Z</time></trkpt><trkpt lat="44.1245533" lon="9.79487"><ele>125.33333333333334</ele><time>2026-03-27T12:49:11.83Z</time></trkpt><trkpt lat="44.1245533" lon="9.7947583"><ele>127.5</ele><time>2026-03-27T12:49:14.83Z</time></trkpt><trkpt lat="44.1245433" lon="9.7946483"><ele>129.66666666666666</ele><time>2026-03-27T12:49:17.829Z</time></trkpt><trkpt lat="44.1245267" lon="9.7945467"><ele>131.83333333333331</ele><time>2026-03-27T12:49:20.83Z</time></trkpt><trkpt lat="44.1244933" lon="9.7944583"><ele>134.0</ele><time>2026-03-27T12:49:23.83Z</time></trkpt><trkpt lat="44.124455" lon="9.7943833"><ele>136.0</ele><time>2026-03-27T12:49:26.83Z</time></trkpt><trkpt lat="44.1244117" lon="9.7942967"><ele>138.0</ele><time>2026-03-27T12:49:29.83Z</time></trkpt><trkpt lat="44.1243633" lon="9.7942083"><ele>140.0</ele><time>2026-03-27T12:49:32.83Z</time></trkpt><trkpt lat="44.1243083" lon="9.79414"><ele>142.0</ele><time>2026-03-27T12:49:35.83Z</time></trkpt><trkpt lat="44.1242517" lon="9.794075"><ele>144.0</ele><time>2026-03-27T12:49:38.83Z</time></trkpt><trkpt lat="44.12419" lon="9.7940183"><ele>146.0</ele><time>2026-03-27T12:49:41.83Z</time></trkpt><trkpt lat="44.124125" lon="9.7939717"><ele>146.0</ele><time>2026-03-27T12:49:44.83Z</time></trkpt><trkpt lat="44.1240783" lon="9.7939033"><ele>146.0</ele><time>2026-03-27T12:49:47.829Z</time></trkpt><trkpt lat="44.1240617" lon="9.7938017"><ele>146.0</ele><time>2026-03-27T12:49:51.83Z</time></trkpt><trkpt lat="44.1241033" lon="9.793705"><ele>146.0</ele><time>2026-03-27T12:49:55.83Z</time></trkpt><trkpt lat="44.1241417" lon="9.7936067"><ele>146.0</ele><time>2026-03-27T12:49:59.83Z</time></trkpt><trkpt lat="44.1241667" lon="9.793525"><ele>146.0</ele><time>2026-03-27T12:50:02.829Z</time></trkpt><trkpt lat="44.1242033" lon="9.79343"><ele>146.0</ele><time>2026-03-27T12:50:06.83Z</time></trkpt><trkpt lat="44.12424" lon="9.7933533"><ele>147.28571428571428</ele><time>2026-03-27T12:50:09.829Z</time></trkpt><trkpt lat="44.1242767" lon="9.7932717"><ele>148.57142857142858</ele><time>2026-03-27T12:50:12.829Z</time></trkpt><trkpt lat="44.124315" lon="9.7931883"><ele>149.85714285714286</ele><time>2026-03-27T12:50:15.83Z</time></trkpt><trkpt lat="44.12435" lon="9.7931033"><ele>151.14285714285714</ele><time>2026-03-27T12:50:18.83Z</time></trkpt><trkpt lat="44.124375" lon="9.79302"><ele>152.42857142857142</ele><time>2026-03-27T12:50:21.829Z</time></trkpt><trkpt lat="44.1243783" lon="9.7929133"><ele>153.71428571428572</ele><time>2026-03-27T12:50:25.829Z</time></trkpt><trkpt lat="44.124385" lon="9.7928233"><ele>155.0</ele><time>2026-03-27T12:50:28.829Z</time></trkpt><trkpt lat="44.124395" lon="9.7927217"><ele>156.28571428571428</ele><time>2026-03-27T12:50:32.829Z</time></trkpt><trkpt lat="44.1243983" lon="9.792625"><ele>157.57142857142856</ele><time>2026-03-27T12:50:35.829Z</time></trkpt><trkpt lat="44.1243983" lon="9.7925183"><ele>158.85714285714283</ele><time>2026-03-27T12:50:38.829Z</time></trkpt><trkpt lat="44.124405" lon="9.79242"><ele>160.14285714285714</ele><time>2026-03-27T12:50:41.829Z</time></trkpt><trkpt lat="44.1244033" lon="9.7923317"><ele>161.42857142857142</ele><time>2026-03-27T12:50:44.828Z</time></trkpt><trkpt lat="44.1244" lon="9.7922233"><ele>162.7142857142857</ele><time>2026-03-27T12:50:47.829Z</time></trkpt><trkpt lat="44.1243917" lon="9.79213"><ele>164.0</ele><time>2026-03-27T12:50:50.829Z</time></trkpt><trkpt lat="44.1243833" lon="9.79204"><ele>164.0</ele><time>2026-03-27T12:50:53.829Z</time></trkpt><trkpt lat="44.124375" lon="9.7919133"><ele>164.0</ele><time>2026-03-27T12:50:57.829Z</time></trkpt><trkpt lat="44.1243867" lon="9.7918017"><ele>164.0</ele><time>2026-03-27T12:51:00.829Z</time></trkpt><trkpt lat="44.1244033" lon="9.7917017"><ele>164.0</ele><time>2026-03-27T12:51:03.829Z</time></trkpt><trkpt lat="44.12441" lon="9.7915983"><ele>164.0</ele><time>2026-03-27T12:51:06.829Z</time></trkpt><trkpt lat="44.124415" lon="9.7914983"><ele>164.0</ele><time>2026-03-27T12:51:09.829Z</time></trkpt><trkpt lat="44.1244233" lon="9.7914033"><ele>165.7142857142857</ele><time>2026-03-27T12:51:12.829Z</time></trkpt><trkpt lat="44.1244267" lon="9.7912983"><ele>167.42857142857142</ele><time>2026-03-27T12:51:16.829Z</time></trkpt><trkpt lat="44.1244167" lon="9.791195"><ele>169.14285714285714</ele><time>2026-03-27T12:51:19.829Z</time></trkpt><trkpt lat="44.124375" lon="9.7911217"><ele>170.85714285714283</ele><time>2026-03-27T12:51:22.828Z</time></trkpt><trkpt lat="44.1242967" lon="9.79112"><ele>172.57142857142856</ele><time>2026-03-27T12:51:26.829Z</time></trkpt><trkpt lat="44.1242133" lon="9.79114"><ele>174.28571428571428</ele><time>2026-03-27T12:51:30.829Z</time></trkpt><trkpt lat="44.1241483" lon="9.7911633"><ele>176.0</ele><time>2026-03-27T12:51:33.828Z</time></trkpt><trkpt lat="44.1240867" lon="9.7912"><ele>177.57142857142858</ele><time>2026-03-27T12:51:36.829Z</time></trkpt><trkpt lat="44.12402" lon="9.7912367"><ele>179.14285714285714</ele><time>2026-03-27T12:51:39.829Z</time></trkpt><trkpt lat="44.1239417" lon="9.7912883"><ele>180.71428571428572</ele><time>2026-03-27T12:51:42.828Z</time></trkpt><trkpt lat="44.1238733" lon="9.7913467"><ele>182.28571428571428</ele><time>2026-03-27T12:51:45.828Z</time></trkpt><trkpt lat="44.1238267" lon="9.7914117"><ele>183.85714285714286</ele><time>2026-03-27T12:51:48.829Z</time></trkpt><trkpt lat="44.1237667" lon="9.7914783"><ele>185.42857142857142</ele><time>2026-03-27T12:51:51.829Z</time></trkpt><trkpt lat="44.1237183" lon="9.79154"><ele>187.0</ele><time>2026-03-27T12:51:54.829Z</time></trkpt><trkpt lat="44.1236583" lon="9.7916"><ele>187.0</ele><time>2026-03-27T12:51:57.829Z</time></trkpt><trkpt lat="44.123595" lon="9.791655"><ele>187.0</ele><time>2026-03-27T12:52:00.829Z</time></trkpt><trkpt lat="44.1235283" lon="9.7916933"><ele>187.0</ele><time>2026-03-27T12:52:03.829Z</time></trkpt><trkpt lat="44.1234617" lon="9.79173"><ele>187.0</ele><time>2026-03-27T12:52:06.829Z</time></trkpt><trkpt lat="44.1233983" lon="9.7917567"><ele>187.0</ele><time>2026-03-27T12:52:09.829Z</time></trkpt><trkpt lat="44.1233267" lon="9.7917733"><ele>187.0</ele><time>2026-03-27T12:52:12.829Z</time></trkpt><trkpt lat="44.1232617" lon="9.791795"><ele>187.0</ele><time>2026-03-27T12:52:15.828Z</time></trkpt><trkpt lat="44.1231783" lon="9.7918133"><ele>185.83333333333334</ele><time>2026-03-27T12:52:18.829Z</time></trkpt><trkpt lat="44.1230983" lon="9.7918233"><ele>184.66666666666669</ele><time>2026-03-27T12:52:21.829Z</time></trkpt><trkpt lat="44.123025" lon="9.791825"><ele>183.5</ele><time>2026-03-27T12:52:24.828Z</time></trkpt><trkpt lat="44.12295" lon="9.79183"><ele>182.33333333333334</ele><time>2026-03-27T12:52:27.829Z</time></trkpt><trkpt lat="44.1228783" lon="9.7918417"><ele>181.16666666666666</ele><time>2026-03-27T12:52:30.828Z</time></trkpt><trkpt lat="44.1228067" lon="9.7918617"><ele>180.0</ele><time>2026-03-27T12:52:33.829Z</time></trkpt><trkpt lat="44.1227333" lon="9.7918917"><ele>180.0</ele><time>2026-03-27T12:52:36.829Z</time></trkpt><trkpt lat="44.12267" lon="9.7919033"><ele>180.0</ele><time>2026-03-27T12:52:39.829Z</time></trkpt><trkpt lat="44.1225883" lon="9.7919083"><ele>180.0</ele><time>2026-03-27T12:52:43.829Z</time></trkpt><trkpt lat="44.1225217" lon="9.7919417"><ele>180.0</ele><time>2026-03-27T12:52:46.829Z</time></trkpt><trkpt lat="44.1224333" lon="9.7919717"><ele>180.0</ele><time>2026-03-27T12:52:49.829Z</time></trkpt><trkpt lat="44.1223433" lon="9.7920067"><ele>180.0</ele><time>2026-03-27T12:52:52.829Z</time></trkpt><trkpt lat="44.1222783" lon="9.79203"><ele>183.5</ele><time>2026-03-27T12:52:54.829Z</time></trkpt><trkpt lat="44.1222067" lon="9.7920883"><ele>187.0</ele><time>2026-03-27T12:52:57.829Z</time></trkpt><trkpt lat="44.1221433" lon="9.7921483"><ele>190.5</ele><time>2026-03-27T12:53:00.829Z</time></trkpt><trkpt lat="44.1220833" lon="9.7922233"><ele>194.0</ele><time>2026-03-27T12:53:03.829Z</time></trkpt><trkpt lat="44.1220467" lon="9.792305"><ele>197.5</ele><time>2026-03-27T12:53:06.829Z</time></trkpt><trkpt lat="44.1220083" lon="9.7923917"><ele>201.0</ele><time>2026-03-27T12:53:09.829Z</time></trkpt><trkpt lat="44.121965" lon="9.7924767"><ele>201.0</ele><time>2026-03-27T12:53:12.829Z</time></trkpt><trkpt lat="44.1219433" lon="9.7925683"><ele>201.0</ele><time>2026-03-27T12:53:15.828Z</time></trkpt><trkpt lat="44.1219183" lon="9.7926633"><ele>201.0</ele><time>2026-03-27T12:53:18.829Z</time></trkpt><trkpt lat="44.1219" lon="9.7927617"><ele>201.0</ele><time>2026-03-27T12:53:21.829Z</time></trkpt><trkpt lat="44.1218617" lon="9.7928417"><ele>201.0</ele><time>2026-03-27T12:53:24.829Z</time></trkpt><trkpt lat="44.1218017" lon="9.7929"><ele>201.0</ele><time>2026-03-27T12:53:27.828Z</time></trkpt><trkpt lat="44.121735" lon="9.7929117"><ele>201.0</ele><time>2026-03-27T12:53:30.829Z</time></trkpt><trkpt lat="44.1216667" lon="9.7928767"><ele>201.0</ele><time>2026-03-27T12:53:33.829Z</time></trkpt><trkpt lat="44.1216267" lon="9.7927733"><ele>201.0</ele><time>2026-03-27T12:53:36.828Z</time></trkpt><trkpt lat="44.1216367" lon="9.7926767"><ele>201.0</ele><time>2026-03-27T12:53:39.829Z</time></trkpt><trkpt lat="44.121655" lon="9.7925817"><ele>201.0</ele><time>2026-03-27T12:53:42.829Z</time></trkpt><trkpt lat="44.121685" lon="9.79249"><ele>201.0</ele><time>2026-03-27T12:53:45.829Z</time></trkpt><trkpt lat="44.1217167" lon="9.7923883"><ele>201.0</ele><time>2026-03-27T12:53:48.829Z</time></trkpt><trkpt lat="44.121745" lon="9.792295"><ele>201.0</ele><time>2026-03-27T12:53:51.829Z</time></trkpt><trkpt lat="44.121765" lon="9.79219"><ele>201.0</ele><time>2026-03-27T12:53:55.829Z</time></trkpt><trkpt lat="44.121775" lon="9.7920733"><ele>201.0</ele><time>2026-03-27T12:53:59.829Z</time></trkpt><trkpt lat="44.1217817" lon="9.7919767"><ele>201.0</ele><time>2026-03-27T12:54:02.829Z</time></trkpt><trkpt lat="44.1217933" lon="9.7918683"><ele>201.0</ele><time>2026-03-27T12:54:05.829Z</time></trkpt><trkpt lat="44.1217983" lon="9.7917583"><ele>201.0</ele><time>2026-03-27T12:54:08.828Z</time></trkpt><trkpt lat="44.12181" lon="9.791655"><ele>202.42857142857142</ele><time>2026-03-27T12:54:11.829Z</time></trkpt><trkpt lat="44.1218267" lon="9.7915667"><ele>203.85714285714286</ele><time>2026-03-27T12:54:14.829Z</time></trkpt><trkpt lat="44.121865" lon="9.7914833"><ele>205.28571428571428</ele><time>2026-03-27T12:54:17.828Z</time></trkpt><trkpt lat="44.121905" lon="9.7914033"><ele>206.71428571428572</ele><time>2026-03-27T12:54:20.829Z</time></trkpt><trkpt lat="44.121945" lon="9.7913333"><ele>208.14285714285717</ele><time>2026-03-27T12:54:23.829Z</time></trkpt><trkpt lat="44.1219883" lon="9.791265"><ele>209.57142857142858</ele><time>2026-03-27T12:54:26.829Z</time></trkpt><trkpt lat="44.1220467" lon="9.7911917"><ele>211.0</ele><time>2026-03-27T12:54:30.829Z</time></trkpt><trkpt lat="44.1220933" lon="9.7911283"><ele>211.0</ele><time>2026-03-27T12:54:33.829Z</time></trkpt><trkpt lat="44.122155" lon="9.7910517"><ele>211.0</ele><time>2026-03-27T12:54:37.829Z</time></trkpt><trkpt lat="44.1222083" lon="9.791005"><ele>211.0</ele><time>2026-03-27T12:54:40.829Z</time></trkpt><trkpt lat="44.12227" lon="9.79097"><ele>211.0</ele><time>2026-03-27T12:54:43.829Z</time></trkpt><trkpt lat="44.1223367" lon="9.79095"><ele>211.0</ele><time>2026-03-27T12:54:46.829Z</time></trkpt><trkpt lat="44.1224117" lon="9.7909317"><ele>211.0</ele><time>2026-03-27T12:54:50.828Z</time></trkpt><trkpt lat="44.122485" lon="9.7908917"><ele>211.0</ele><time>2026-03-27T12:54:55.829Z</time></trkpt><trkpt lat="44.1225483" lon="9.7908617"><ele>211.14285714285714</ele><time>2026-03-27T12:54:58.828Z</time></trkpt><trkpt lat="44.1226183" lon="9.7908083"><ele>211.28571428571428</ele><time>2026-03-27T12:55:02.829Z</time></trkpt><trkpt lat="44.1226683" lon="9.790745"><ele>211.42857142857144</ele><time>2026-03-27T12:55:05.829Z</time></trkpt><trkpt lat="44.1227133" lon="9.790675"><ele>211.57142857142856</ele><time>2026-03-27T12:55:08.828Z</time></trkpt><trkpt lat="44.1227633" lon="9.7906133"><ele>211.7142857142857</ele><time>2026-03-27T12:55:11.829Z</time></trkpt><trkpt lat="44.122815" lon="9.790525"><ele>211.85714285714286</ele><time>2026-03-27T12:55:15.829Z</time></trkpt><trkpt lat="44.1228633" lon="9.79045"><ele>212.0</ele><time>2026-03-27T12:55:19.828Z</time></trkpt><trkpt lat="44.1229183" lon="9.790385"><ele>212.00000000000003</ele><time>2026-03-27T12:55:22.829Z</time></trkpt><trkpt lat="44.122985" lon="9.7903367"><ele>212.0</ele><time>2026-03-27T12:55:25.829Z</time></trkpt><trkpt lat="44.1230683" lon="9.790295"><ele>212.0</ele><time>2026-03-27T12:55:28.829Z</time></trkpt><trkpt lat="44.12314" lon="9.7902683"><ele>212.0</ele><time>2026-03-27T12:55:31.829Z</time></trkpt><trkpt lat="44.1232083" lon="9.7902467"><ele>212.00000000000003</ele><time>2026-03-27T12:55:34.829Z</time></trkpt><trkpt lat="44.1232833" lon="9.7902383"><ele>212.0</ele><time>2026-03-27T12:55:37.829Z</time></trkpt><trkpt lat="44.123365" lon="9.790225"><ele>210.50000000000003</ele><time>2026-03-27T12:55:40.829Z</time></trkpt><trkpt lat="44.123435" lon="9.7902217"><ele>209.0</ele><time>2026-03-27T12:55:43.829Z</time></trkpt><trkpt lat="44.1235083" lon="9.7902"><ele>207.5</ele><time>2026-03-27T12:55:46.828Z</time></trkpt><trkpt lat="44.1235833" lon="9.7901783"><ele>206.0</ele><time>2026-03-27T12:55:49.829Z</time></trkpt><trkpt lat="44.12366" lon="9.79015"><ele>204.50000000000003</ele><time>2026-03-27T12:55:52.829Z</time></trkpt><trkpt lat="44.1237433" lon="9.7900983"><ele>203.0</ele><time>2026-03-27T12:55:56.829Z</time></trkpt><trkpt lat="44.123805" lon="9.7900467"><ele>205.16666666666669</ele><time>2026-03-27T12:55:59.829Z</time></trkpt><trkpt lat="44.12387" lon="9.7899817"><ele>207.33333333333334</ele><time>2026-03-27T12:56:02.829Z</time></trkpt><trkpt lat="44.12393" lon="9.7899217"><ele>209.5</ele><time>2026-03-27T12:56:05.828Z</time></trkpt><trkpt lat="44.1239783" lon="9.7898617"><ele>211.66666666666669</ele><time>2026-03-27T12:56:08.828Z</time></trkpt><trkpt lat="44.1240467" lon="9.789795"><ele>213.83333333333334</ele><time>2026-03-27T12:56:12.829Z</time></trkpt><trkpt lat="44.1241017" lon="9.789725"><ele>216.0</ele><time>2026-03-27T12:56:16.828Z</time></trkpt><trkpt lat="44.1241683" lon="9.7896683"><ele>216.0</ele><time>2026-03-27T12:56:19.829Z</time></trkpt><trkpt lat="44.1242267" lon="9.78961"><ele>216.0</ele><time>2026-03-27T12:56:22.829Z</time></trkpt><trkpt lat="44.1242817" lon="9.7895467"><ele>216.0</ele><time>2026-03-27T12:56:25.829Z</time></trkpt><trkpt lat="44.1243433" lon="9.7894783"><ele>216.0</ele><time>2026-03-27T12:56:29.829Z</time></trkpt><trkpt lat="44.124395" lon="9.7894217"><ele>216.0</ele><time>2026-03-27T12:56:33.829Z</time></trkpt><trkpt lat="44.124445" lon="9.7893617"><ele>216.0</ele><time>2026-03-27T12:56:36.829Z</time></trkpt><trkpt lat="44.1245067" lon="9.78925"><ele>219.66666666666666</ele><time>2026-03-27T12:56:42.828Z</time></trkpt><trkpt lat="44.1245583" lon="9.7891517"><ele>223.33333333333331</ele><time>2026-03-27T12:56:47.828Z</time></trkpt><trkpt lat="44.1245983" lon="9.7890467"><ele>227.0</ele><time>2026-03-27T12:56:51.828Z</time></trkpt><trkpt lat="44.1246417" lon="9.788975"><ele>230.66666666666666</ele><time>2026-03-27T12:56:54.828Z</time></trkpt><trkpt lat="44.12469" lon="9.7889"><ele>234.33333333333331</ele><time>2026-03-27T12:56:57.827Z</time></trkpt><trkpt lat="44.1247417" lon="9.7888117"><ele>238.0</ele><time>2026-03-27T12:57:01.828Z</time></trkpt><trkpt lat="44.1247883" lon="9.7887167"><ele>238.0</ele><time>2026-03-27T12:57:05.828Z</time></trkpt><trkpt lat="44.124855" lon="9.7886567"><ele>238.0</ele><time>2026-03-27T12:57:08.828Z</time></trkpt><trkpt lat="44.124905" lon="9.7886017"><ele>238.0</ele><time>2026-03-27T12:57:11.828Z</time></trkpt><trkpt lat="44.1249683" lon="9.7885517"><ele>238.0</ele><time>2026-03-27T12:57:14.828Z</time></trkpt><trkpt lat="44.1250333" lon="9.7885067"><ele>238.0</ele><time>2026-03-27T12:57:17.828Z</time></trkpt><trkpt lat="44.125105" lon="9.78849"><ele>238.0</ele><time>2026-03-27T12:57:20.828Z</time></trkpt><trkpt lat="44.125175" lon="9.7884983"><ele>238.0</ele><time>2026-03-27T12:57:23.828Z</time></trkpt><trkpt lat="44.1252433" lon="9.7885133"><ele>236.28571428571428</ele><time>2026-03-27T12:57:26.828Z</time></trkpt><trkpt lat="44.1253117" lon="9.78853"><ele>234.57142857142856</ele><time>2026-03-27T12:57:29.827Z</time></trkpt><trkpt lat="44.12538" lon="9.7885283"><ele>232.85714285714286</ele><time>2026-03-27T12:57:32.828Z</time></trkpt><trkpt lat="44.1254533" lon="9.78855"><ele>231.14285714285714</ele><time>2026-03-27T12:57:36.828Z</time></trkpt><trkpt lat="44.12553" lon="9.7885683"><ele>229.42857142857142</ele><time>2026-03-27T12:57:40.828Z</time></trkpt><trkpt lat="44.1256017" lon="9.7885967"><ele>227.71428571428572</ele><time>2026-03-27T12:57:44.827Z</time></trkpt><trkpt lat="44.125665" lon="9.788635"><ele>226.0</ele><time>2026-03-27T12:57:48.828Z</time></trkpt><trkpt lat="44.1257217" lon="9.7886933"><ele>229.16666666666666</ele><time>2026-03-27T12:57:53.828Z</time></trkpt><trkpt lat="44.1257683" lon="9.7887617"><ele>232.33333333333331</ele><time>2026-03-27T12:57:58.828Z</time></trkpt><trkpt lat="44.1257983" lon="9.7888433"><ele>235.5</ele><time>2026-03-27T12:58:02.828Z</time></trkpt><trkpt lat="44.1258217" lon="9.7889333"><ele>238.66666666666669</ele><time>2026-03-27T12:58:07.828Z</time></trkpt><trkpt lat="44.1258783" lon="9.7890617"><ele>241.83333333333334</ele><time>2026-03-27T12:58:14.828Z</time></trkpt><trkpt lat="44.1258983" lon="9.7891633"><ele>245.0</ele><time>2026-03-27T12:58:18.827Z</time></trkpt><trkpt lat="44.12591" lon="9.78928"><ele>243.57142857142856</ele><time>2026-03-27T12:58:22.828Z</time></trkpt><trkpt lat="44.1259483" lon="9.7893783"><ele>242.14285714285714</ele><time>2026-03-27T12:58:26.828Z</time></trkpt><trkpt lat="44.1259883" lon="9.7894783"><ele>240.71428571428572</ele><time>2026-03-27T12:58:30.828Z</time></trkpt><trkpt lat="44.1260083" lon="9.7895783"><ele>239.28571428571428</ele><time>2026-03-27T12:58:34.828Z</time></trkpt><trkpt lat="44.126025" lon="9.78967"><ele>237.85714285714283</ele><time>2026-03-27T12:58:37.827Z</time></trkpt><trkpt lat="44.126055" lon="9.7897733"><ele>236.42857142857142</ele><time>2026-03-27T12:58:40.827Z</time></trkpt><trkpt lat="44.126075" lon="9.7898567"><ele>235.0</ele><time>2026-03-27T12:58:42.828Z</time></trkpt><trkpt lat="44.1261017" lon="9.7899417"><ele>234.99999999999997</ele><time>2026-03-27T12:58:44.828Z</time></trkpt><trkpt lat="44.126135" lon="9.7900433"><ele>235.0</ele><time>2026-03-27T12:58:47.828Z</time></trkpt><trkpt lat="44.1261717" lon="9.7901367"><ele>235.0</ele><time>2026-03-27T12:58:50.828Z</time></trkpt><trkpt lat="44.1262167" lon="9.7902217"><ele>235.0</ele><time>2026-03-27T12:58:53.828Z</time></trkpt><trkpt lat="44.1262783" lon="9.7903117"><ele>234.99999999999997</ele><time>2026-03-27T12:58:56.828Z</time></trkpt><trkpt lat="44.1263283" lon="9.79039"><ele>235.0</ele><time>2026-03-27T12:58:59.827Z</time></trkpt><trkpt lat="44.126375" lon="9.79048"><ele>234.14285714285714</ele><time>2026-03-27T12:59:02.828Z</time></trkpt><trkpt lat="44.12643" lon="9.7905567"><ele>233.28571428571428</ele><time>2026-03-27T12:59:05.828Z</time></trkpt><trkpt lat="44.1264733" lon="9.7906333"><ele>232.42857142857142</ele><time>2026-03-27T12:59:08.827Z</time></trkpt><trkpt lat="44.1265233" lon="9.7907083"><ele>231.57142857142856</ele><time>2026-03-27T12:59:11.828Z</time></trkpt><trkpt lat="44.1265717" lon="9.7907817"><ele>230.71428571428572</ele><time>2026-03-27T12:59:14.828Z</time></trkpt><trkpt lat="44.126625" lon="9.7908383"><ele>229.85714285714283</ele><time>2026-03-27T12:59:17.828Z</time></trkpt><trkpt lat="44.1266883" lon="9.7908983"><ele>229.0</ele><time>2026-03-27T12:59:21.828Z</time></trkpt><trkpt lat="44.1267567" lon="9.7909317"><ele>232.42857142857142</ele><time>2026-03-27T12:59:24.828Z</time></trkpt><trkpt lat="44.12683" lon="9.7909583"><ele>235.8571428571429</ele><time>2026-03-27T12:59:27.828Z</time></trkpt><trkpt lat="44.1269" lon="9.7909717"><ele>239.2857142857143</ele><time>2026-03-27T12:59:30.828Z</time></trkpt><trkpt lat="44.1269617" lon="9.7909483"><ele>242.71428571428572</ele><time>2026-03-27T12:59:33.827Z</time></trkpt><trkpt lat="44.12699" lon="9.7908583"><ele>246.14285714285717</ele><time>2026-03-27T12:59:37.828Z</time></trkpt><trkpt lat="44.1269333" lon="9.7907833"><ele>249.5714285714286</ele><time>2026-03-27T12:59:41.828Z</time></trkpt><trkpt lat="44.1268717" lon="9.7907533"><ele>253.00000000000003</ele><time>2026-03-27T12:59:44.828Z</time></trkpt><trkpt lat="44.1268067" lon="9.7907033"><ele>253.00000000000003</ele><time>2026-03-27T12:59:48.828Z</time></trkpt><trkpt lat="44.1267583" lon="9.7906267"><ele>253.0</ele><time>2026-03-27T12:59:51.828Z</time></trkpt><trkpt lat="44.1267383" lon="9.79054"><ele>253.00000000000003</ele><time>2026-03-27T12:59:54.828Z</time></trkpt><trkpt lat="44.12672" lon="9.7904317"><ele>253.00000000000003</ele><time>2026-03-27T12:59:58.828Z</time></trkpt><trkpt lat="44.1267183" lon="9.7903217"><ele>253.0</ele><time>2026-03-27T13:00:02.828Z</time></trkpt><trkpt lat="44.1267317" lon="9.7902183"><ele>253.00000000000003</ele><time>2026-03-27T13:00:06.828Z</time></trkpt><trkpt lat="44.1267533" lon="9.79013"><ele>253.00000000000003</ele><time>2026-03-27T13:00:10.828Z</time></trkpt><trkpt lat="44.1267917" lon="9.7900517"><ele>253.00000000000003</ele><time>2026-03-27T13:00:13.828Z</time></trkpt><trkpt lat="44.1268417" lon="9.7899817"><ele>253.0</ele><time>2026-03-27T13:00:17.828Z</time></trkpt><trkpt lat="44.126915" lon="9.7899517"><ele>253.00000000000003</ele><time>2026-03-27T13:00:21.828Z</time></trkpt><trkpt lat="44.12699" lon="9.78996"><ele>253.00000000000003</ele><time>2026-03-27T13:00:27.828Z</time></trkpt><trkpt lat="44.1270417" lon="9.7900217"><ele>253.0</ele><time>2026-03-27T13:00:31.828Z</time></trkpt><trkpt lat="44.1270867" lon="9.7900833"><ele>253.00000000000003</ele><time>2026-03-27T13:00:34.828Z</time></trkpt><trkpt lat="44.1271333" lon="9.7901533"><ele>253.00000000000003</ele><time>2026-03-27T13:00:37.828Z</time></trkpt><trkpt lat="44.127185" lon="9.7902217"><ele>253.00000000000003</ele><time>2026-03-27T13:00:40.827Z</time></trkpt><trkpt lat="44.1272367" lon="9.79029"><ele>253.0</ele><time>2026-03-27T13:00:43.828Z</time></trkpt><trkpt lat="44.127305" lon="9.790355"><ele>253.00000000000003</ele><time>2026-03-27T13:00:47.828Z</time></trkpt><trkpt lat="44.12738" lon="9.7903983"><ele>253.00000000000003</ele><time>2026-03-27T13:00:50.827Z</time></trkpt><trkpt lat="44.12745" lon="9.7904283"><ele>253.0</ele><time>2026-03-27T13:00:53.828Z</time></trkpt><trkpt lat="44.1275217" lon="9.7904583"><ele>253.00000000000003</ele><time>2026-03-27T13:00:56.828Z</time></trkpt><trkpt lat="44.127585" lon="9.790475"><ele>253.00000000000003</ele><time>2026-03-27T13:01:00.828Z</time></trkpt><trkpt lat="44.1276483" lon="9.7904917"><ele>254.71428571428575</ele><time>2026-03-27T13:01:04.828Z</time></trkpt><trkpt lat="44.1277333" lon="9.7904967"><ele>256.42857142857144</ele><time>2026-03-27T13:01:08.827Z</time></trkpt><trkpt lat="44.1278017" lon="9.7905"><ele>258.1428571428571</ele><time>2026-03-27T13:01:11.828Z</time></trkpt><trkpt lat="44.127865" lon="9.79049"><ele>259.8571428571429</ele><time>2026-03-27T13:01:14.828Z</time></trkpt><trkpt lat="44.127945" lon="9.79049"><ele>261.57142857142856</ele><time>2026-03-27T13:01:18.828Z</time></trkpt><trkpt lat="44.12801" lon="9.7904983"><ele>263.2857142857143</ele><time>2026-03-27T13:01:21.828Z</time></trkpt><trkpt lat="44.1280733" lon="9.7905133"><ele>265.0</ele><time>2026-03-27T13:01:24.828Z</time></trkpt><trkpt lat="44.1281333" lon="9.7905467"><ele>264.99999999999994</ele><time>2026-03-27T13:01:27.828Z</time></trkpt><trkpt lat="44.1282033" lon="9.7905817"><ele>265.0</ele><time>2026-03-27T13:01:30.828Z</time></trkpt><trkpt lat="44.1282683" lon="9.79062"><ele>265.0</ele><time>2026-03-27T13:01:33.828Z</time></trkpt><trkpt lat="44.1283333" lon="9.790665"><ele>265.0</ele><time>2026-03-27T13:01:36.828Z</time></trkpt><trkpt lat="44.1283967" lon="9.790735"><ele>265.0</ele><time>2026-03-27T13:01:40.828Z</time></trkpt><trkpt lat="44.12845" lon="9.7907967"><ele>264.99999999999994</ele><time>2026-03-27T13:01:44.828Z</time></trkpt><trkpt lat="44.1284917" lon="9.7908733"><ele>265.0</ele><time>2026-03-27T13:01:49.828Z</time></trkpt><trkpt lat="44.1285383" lon="9.7909633"><ele>263.16666666666663</ele><time>2026-03-27T13:01:53.827Z</time></trkpt><trkpt lat="44.1285833" lon="9.7910467"><ele>261.3333333333333</ele><time>2026-03-27T13:01:55.828Z</time></trkpt><trkpt lat="44.1286633" lon="9.791145"><ele>259.5</ele><time>2026-03-27T13:01:57.828Z</time></trkpt><trkpt lat="44.1287167" lon="9.7911917"><ele>257.6666666666667</ele><time>2026-03-27T13:01:58.828Z</time></trkpt><trkpt lat="44.1287817" lon="9.791225"><ele>255.83333333333334</ele><time>2026-03-27T13:01:59.828Z</time></trkpt><trkpt lat="44.12885" lon="9.7912633"><ele>254.0</ele><time>2026-03-27T13:02:00.828Z</time></trkpt><trkpt lat="44.1289233" lon="9.7913033"><ele>254.00000000000003</ele><time>2026-03-27T13:02:01.828Z</time></trkpt><trkpt lat="44.1290017" lon="9.7913433"><ele>254.0</ele><time>2026-03-27T13:02:02.828Z</time></trkpt><trkpt lat="44.1290817" lon="9.79139"><ele>254.0</ele><time>2026-03-27T13:02:03.828Z</time></trkpt><trkpt lat="44.12916" lon="9.791425"><ele>254.0</ele><time>2026-03-27T13:02:04.828Z</time></trkpt><trkpt lat="44.1292417" lon="9.7914717"><ele>254.00000000000003</ele><time>2026-03-27T13:02:05.827Z</time></trkpt><trkpt lat="44.129325" lon="9.791525"><ele>254.0</ele><time>2026-03-27T13:02:06.828Z</time></trkpt><trkpt lat="44.129405" lon="9.791575"><ele>257.8</ele><time>2026-03-27T13:02:07.828Z</time></trkpt><trkpt lat="44.1294867" lon="9.791615"><ele>261.59999999999997</ele><time>2026-03-27T13:02:08.828Z</time></trkpt><trkpt lat="44.129575" lon="9.7916667"><ele>265.4</ele><time>2026-03-27T13:02:09.828Z</time></trkpt><trkpt lat="44.1296633" lon="9.7917167"><ele>269.2</ele><time>2026-03-27T13:02:10.828Z</time></trkpt><trkpt lat="44.12976" lon="9.7917483"><ele>273.0</ele><time>2026-03-27T13:02:11.828Z</time></trkpt><trkpt lat="44.129855" lon="9.7917683"><ele>274.4</ele><time>2026-03-27T13:02:12.828Z</time></trkpt><trkpt lat="44.1299567" lon="9.79177"><ele>275.8</ele><time>2026-03-27T13:02:13.828Z</time></trkpt><trkpt lat="44.13006" lon="9.7917767"><ele>277.2</ele><time>2026-03-27T13:02:14.828Z</time></trkpt><trkpt lat="44.1301583" lon="9.7917933"><ele>278.6</ele><time>2026-03-27T13:02:15.828Z</time></trkpt><trkpt lat="44.1302517" lon="9.791815"><ele>280.0</ele><time>2026-03-27T13:02:16.828Z</time></trkpt><trkpt lat="44.1303383" lon="9.7918367"><ele>280.0</ele><time>2026-03-27T13:02:17.828Z</time></trkpt><trkpt lat="44.1304183" lon="9.7918383"><ele>280.0</ele><time>2026-03-27T13:02:18.828Z</time></trkpt><trkpt lat="44.1304883" lon="9.791835"><ele>280.0</ele><time>2026-03-27T13:02:19.828Z</time></trkpt><trkpt lat="44.1305967" lon="9.791835"><ele>280.0</ele><time>2026-03-27T13:02:21.827Z</time></trkpt><trkpt lat="44.13064" lon="9.7919133"><ele>280.0</ele><time>2026-03-27T13:02:23.827Z</time></trkpt><trkpt lat="44.1305867" lon="9.791985"><ele>280.0</ele><time>2026-03-27T13:02:25.828Z</time></trkpt><trkpt lat="44.1304433" lon="9.7919533"><ele>275.16666666666663</ele><time>2026-03-27T13:02:27.828Z</time></trkpt><trkpt lat="44.130365" lon="9.79194"><ele>270.3333333333333</ele><time>2026-03-27T13:02:28.828Z</time></trkpt><trkpt lat="44.1302833" lon="9.7919617"><ele>265.5</ele><time>2026-03-27T13:02:29.828Z</time></trkpt><trkpt lat="44.1301967" lon="9.792005"><ele>260.6666666666667</ele><time>2026-03-27T13:02:30.828Z</time></trkpt><trkpt lat="44.13011" lon="9.7920583"><ele>255.83333333333334</ele><time>2026-03-27T13:02:31.828Z</time></trkpt><trkpt lat="44.1300233" lon="9.7921183"><ele>251.0</ele><time>2026-03-27T13:02:32.828Z</time></trkpt><trkpt lat="44.1299417" lon="9.792155"><ele>250.20000000000002</ele><time>2026-03-27T13:02:33.828Z</time></trkpt><trkpt lat="44.1298567" lon="9.7922"><ele>249.40000000000003</ele><time>2026-03-27T13:02:34.828Z</time></trkpt><trkpt lat="44.12976" lon="9.79224"><ele>248.6</ele><time>2026-03-27T13:02:35.828Z</time></trkpt><trkpt lat="44.1296633" lon="9.792275"><ele>247.8</ele><time>2026-03-27T13:02:36.828Z</time></trkpt><trkpt lat="44.1295617" lon="9.7923083"><ele>247.0</ele><time>2026-03-27T13:02:37.828Z</time></trkpt><trkpt lat="44.1294467" lon="9.7923383"><ele>247.0</ele><time>2026-03-27T13:02:38.828Z</time></trkpt><trkpt lat="44.12934" lon="9.792375"><ele>247.0</ele><time>2026-03-27T13:02:39.828Z</time></trkpt><trkpt lat="44.1292267" lon="9.7924083"><ele>247.0</ele><time>2026-03-27T13:02:40.828Z</time></trkpt><trkpt lat="44.1291083" lon="9.7924383"><ele>247.0</ele><time>2026-03-27T13:02:41.828Z</time></trkpt><trkpt lat="44.128995" lon="9.7924933"><ele>244.6</ele><time>2026-03-27T13:02:42.828Z</time></trkpt><trkpt lat="44.1288833" lon="9.79256"><ele>242.2</ele><time>2026-03-27T13:02:43.828Z</time></trkpt><trkpt lat="44.12879" lon="9.7926367"><ele>239.8</ele><time>2026-03-27T13:02:44.828Z</time></trkpt><trkpt lat="44.1287033" lon="9.79272"><ele>237.4</ele><time>2026-03-27T13:02:45.827Z</time></trkpt><trkpt lat="44.1286233" lon="9.7928233"><ele>235.0</ele><time>2026-03-27T13:02:46.827Z</time></trkpt><trkpt lat="44.1285517" lon="9.792935"><ele>234.0</ele><time>2026-03-27T13:02:47.827Z</time></trkpt><trkpt lat="44.1284983" lon="9.7930717"><ele>233.0</ele><time>2026-03-27T13:02:48.827Z</time></trkpt><trkpt lat="44.1284467" lon="9.793215"><ele>232.0</ele><time>2026-03-27T13:02:49.827Z</time></trkpt><trkpt lat="44.1283967" lon="9.793355"><ele>231.0</ele><time>2026-03-27T13:02:50.827Z</time></trkpt><trkpt lat="44.128355" lon="9.7935"><ele>231.0</ele><time>2026-03-27T13:02:51.827Z</time></trkpt><trkpt lat="44.1283283" lon="9.7936567"><ele>231.0</ele><time>2026-03-27T13:02:52.827Z</time></trkpt><trkpt lat="44.1283083" lon="9.793825"><ele>231.0</ele><time>2026-03-27T13:02:53.827Z</time></trkpt><trkpt lat="44.1282883" lon="9.7939883"><ele>231.0</ele><time>2026-03-27T13:02:54.827Z</time></trkpt><trkpt lat="44.1282667" lon="9.79414"><ele>231.0</ele><time>2026-03-27T13:02:55.827Z</time></trkpt><trkpt lat="44.12823" lon="9.79427"><ele>231.00000000000003</ele><time>2026-03-27T13:02:56.827Z</time></trkpt><trkpt lat="44.1281717" lon="9.794375"><ele>231.00000000000003</ele><time>2026-03-27T13:02:57.827Z</time></trkpt><trkpt lat="44.128095" lon="9.7944533"><ele>231.0</ele><time>2026-03-27T13:02:58.827Z</time></trkpt><trkpt lat="44.128005" lon="9.7945133"><ele>231.0</ele><time>2026-03-27T13:02:59.827Z</time></trkpt><trkpt lat="44.1279133" lon="9.7945683"><ele>226.4</ele><time>2026-03-27T13:03:00.827Z</time></trkpt><trkpt lat="44.1278317" lon="9.7946333"><ele>221.8</ele><time>2026-03-27T13:03:01.827Z</time></trkpt><trkpt lat="44.1277633" lon="9.79472"><ele>217.20000000000002</ele><time>2026-03-27T13:03:02.827Z</time></trkpt><trkpt lat="44.1277167" lon="9.79483"><ele>212.60000000000002</ele><time>2026-03-27T13:03:03.826Z</time></trkpt><trkpt lat="44.1277033" lon="9.7949617"><ele>208.0</ele><time>2026-03-27T13:03:04.827Z</time></trkpt><trkpt lat="44.1277167" lon="9.7951"><ele>206.2</ele><time>2026-03-27T13:03:05.827Z</time></trkpt><trkpt lat="44.1277433" lon="9.7952433"><ele>204.4</ele><time>2026-03-27T13:03:06.827Z</time></trkpt><trkpt lat="44.1277683" lon="9.7953917"><ele>202.6</ele><time>2026-03-27T13:03:07.827Z</time></trkpt><trkpt lat="44.1277917" lon="9.7955417"><ele>200.79999999999998</ele><time>2026-03-27T13:03:08.827Z</time></trkpt><trkpt lat="44.1278133" lon="9.7956967"><ele>199.0</ele><time>2026-03-27T13:03:09.827Z</time></trkpt><trkpt lat="44.12783" lon="9.7958517"><ele>197.5</ele><time>2026-03-27T13:03:10.826Z</time></trkpt><trkpt lat="44.1278533" lon="9.796015"><ele>196.0</ele><time>2026-03-27T13:03:11.827Z</time></trkpt><trkpt lat="44.1278783" lon="9.79618"><ele>194.5</ele><time>2026-03-27T13:03:12.827Z</time></trkpt><trkpt lat="44.127905" lon="9.7963433"><ele>193.0</ele><time>2026-03-27T13:03:13.827Z</time></trkpt><trkpt lat="44.12793" lon="9.7964983"><ele>193.0</ele><time>2026-03-27T13:03:14.827Z</time></trkpt><trkpt lat="44.12796" lon="9.796645"><ele>193.0</ele><time>2026-03-27T13:03:15.827Z</time></trkpt><trkpt lat="44.1279967" lon="9.7967867"><ele>193.0</ele><time>2026-03-27T13:03:16.827Z</time></trkpt><trkpt lat="44.128045" lon="9.7969217"><ele>193.0</ele><time>2026-03-27T13:03:17.827Z</time></trkpt><trkpt lat="44.1281033" lon="9.7970333"><ele>193.0</ele><time>2026-03-27T13:03:18.827Z</time></trkpt><trkpt lat="44.1281617" lon="9.797135"><ele>192.83333333333331</ele><time>2026-03-27T13:03:19.826Z</time></trkpt><trkpt lat="44.1282117" lon="9.7972367"><ele>192.66666666666666</ele><time>2026-03-27T13:03:20.826Z</time></trkpt><trkpt lat="44.128255" lon="9.7973367"><ele>192.5</ele><time>2026-03-27T13:03:21.827Z</time></trkpt><trkpt lat="44.12828" lon="9.797445"><ele>192.33333333333331</ele><time>2026-03-27T13:03:22.827Z</time></trkpt><trkpt lat="44.1282833" lon="9.7975617"><ele>192.16666666666666</ele><time>2026-03-27T13:03:23.827Z</time></trkpt><trkpt lat="44.128255" lon="9.797685"><ele>192.0</ele><time>2026-03-27T13:03:24.827Z</time></trkpt><trkpt lat="44.1282" lon="9.7978067"><ele>189.39999999999998</ele><time>2026-03-27T13:03:25.827Z</time></trkpt><trkpt lat="44.128135" lon="9.7979217"><ele>186.79999999999998</ele><time>2026-03-27T13:03:26.827Z</time></trkpt><trkpt lat="44.128095" lon="9.7980483"><ele>184.2</ele><time>2026-03-27T13:03:27.827Z</time></trkpt><trkpt lat="44.128085" lon="9.7981833"><ele>181.6</ele><time>2026-03-27T13:03:28.827Z</time></trkpt><trkpt lat="44.12809" lon="9.7983183"><ele>179.0</ele><time>2026-03-27T13:03:29.827Z</time></trkpt><trkpt lat="44.1281083" lon="9.798465"><ele>175.5</ele><time>2026-03-27T13:03:30.827Z</time></trkpt><trkpt lat="44.1281233" lon="9.7986183"><ele>172.0</ele><time>2026-03-27T13:03:31.827Z</time></trkpt><trkpt lat="44.128135" lon="9.7987733"><ele>168.5</ele><time>2026-03-27T13:03:32.827Z</time></trkpt><trkpt lat="44.1281433" lon="9.7989317"><ele>165.0</ele><time>2026-03-27T13:03:33.827Z</time></trkpt><trkpt lat="44.1281533" lon="9.7990917"><ele>165.0</ele><time>2026-03-27T13:03:34.827Z</time></trkpt><trkpt lat="44.1281617" lon="9.799255"><ele>165.0</ele><time>2026-03-27T13:03:35.826Z</time></trkpt><trkpt lat="44.1281783" lon="9.799415"><ele>165.0</ele><time>2026-03-27T13:03:36.827Z</time></trkpt><trkpt lat="44.1281967" lon="9.7995717"><ele>165.0</ele><time>2026-03-27T13:03:37.827Z</time></trkpt><trkpt lat="44.12822" lon="9.7997317"><ele>168.5</ele><time>2026-03-27T13:03:38.827Z</time></trkpt><trkpt lat="44.1282533" lon="9.7998883"><ele>172.0</ele><time>2026-03-27T13:03:39.827Z</time></trkpt><trkpt lat="44.1283" lon="9.8000383"><ele>175.5</ele><time>2026-03-27T13:03:40.827Z</time></trkpt><trkpt lat="44.12835" lon="9.8001833"><ele>179.0</ele><time>2026-03-27T13:03:41.827Z</time></trkpt><trkpt lat="44.1284" lon="9.8003233"><ele>179.0</ele><time>2026-03-27T13:03:42.827Z</time></trkpt><trkpt lat="44.1284567" lon="9.8004567"><ele>179.0</ele><time>2026-03-27T13:03:43.827Z</time></trkpt><trkpt lat="44.1284983" lon="9.8006"><ele>179.0</ele><time>2026-03-27T13:03:44.827Z</time></trkpt><trkpt lat="44.1285117" lon="9.80075"><ele>179.0</ele><time>2026-03-27T13:03:45.826Z</time></trkpt><trkpt lat="44.1285033" lon="9.8008983"><ele>179.0</ele><time>2026-03-27T13:03:46.827Z</time></trkpt><trkpt lat="44.1284783" lon="9.8010283"><ele>179.66666666666666</ele><time>2026-03-27T13:03:47.827Z</time></trkpt><trkpt lat="44.1284533" lon="9.8011533"><ele>180.33333333333331</ele><time>2026-03-27T13:03:48.827Z</time></trkpt><trkpt lat="44.1284283" lon="9.8012667"><ele>181.0</ele><time>2026-03-27T13:03:49.827Z</time></trkpt><trkpt lat="44.1284117" lon="9.8013683"><ele>181.66666666666666</ele><time>2026-03-27T13:03:50.827Z</time></trkpt><trkpt lat="44.1283983" lon="9.8014717"><ele>182.33333333333334</ele><time>2026-03-27T13:03:51.827Z</time></trkpt><trkpt lat="44.1283883" lon="9.8015617"><ele>183.0</ele><time>2026-03-27T13:03:52.827Z</time></trkpt><trkpt lat="44.1283783" lon="9.801655"><ele>183.0</ele><time>2026-03-27T13:03:53.827Z</time></trkpt><trkpt lat="44.1283633" lon="9.801825"><ele>183.0</ele><time>2026-03-27T13:03:55.827Z</time></trkpt><trkpt lat="44.1283533" lon="9.8019667"><ele>183.0</ele><time>2026-03-27T13:03:57.827Z</time></trkpt><trkpt lat="44.1283367" lon="9.8021033"><ele>183.0</ele><time>2026-03-27T13:03:59.827Z</time></trkpt><trkpt lat="44.1283133" lon="9.80223"><ele>183.0</ele><time>2026-03-27T13:04:01.827Z</time></trkpt><trkpt lat="44.1282833" lon="9.802345"><ele>182.0</ele><time>2026-03-27T13:04:03.827Z</time></trkpt><trkpt lat="44.1282617" lon="9.8024633"><ele>181.0</ele><time>2026-03-27T13:04:05.827Z</time></trkpt><trkpt lat="44.1282417" lon="9.802575"><ele>180.0</ele><time>2026-03-27T13:04:07.827Z</time></trkpt><trkpt lat="44.1282233" lon="9.8026733"><ele>179.0</ele><time>2026-03-27T13:04:09.827Z</time></trkpt><trkpt lat="44.1282" lon="9.80276"><ele>178.0</ele><time>2026-03-27T13:04:11.827Z</time></trkpt><trkpt lat="44.1281783" lon="9.8028483"><ele>177.0</ele><time>2026-03-27T13:04:13.826Z</time></trkpt><trkpt lat="44.1281383" lon="9.802975"><ele>177.0</ele><time>2026-03-27T13:04:16.827Z</time></trkpt><trkpt lat="44.1281" lon="9.80308"><ele>177.0</ele><time>2026-03-27T13:04:18.827Z</time></trkpt><trkpt lat="44.1280617" lon="9.8031817"><ele>177.0</ele><time>2026-03-27T13:04:20.827Z</time></trkpt><trkpt lat="44.128025" lon="9.8032883"><ele>177.0</ele><time>2026-03-27T13:04:22.827Z</time></trkpt><trkpt lat="44.127995" lon="9.80339"><ele>177.0</ele><time>2026-03-27T13:04:24.827Z</time></trkpt><trkpt lat="44.1279733" lon="9.8034917"><ele>177.0</ele><time>2026-03-27T13:04:26.826Z</time></trkpt><trkpt lat="44.127965" lon="9.8036"><ele>177.66666666666666</ele><time>2026-03-27T13:04:28.826Z</time></trkpt><trkpt lat="44.1279583" lon="9.8037017"><ele>178.33333333333334</ele><time>2026-03-27T13:04:30.827Z</time></trkpt><trkpt lat="44.127955" lon="9.8038283"><ele>179.0</ele><time>2026-03-27T13:04:33.827Z</time></trkpt><trkpt lat="44.1279817" lon="9.803945"><ele>179.66666666666669</ele><time>2026-03-27T13:04:36.827Z</time></trkpt><trkpt lat="44.128005" lon="9.8040633"><ele>180.33333333333334</ele><time>2026-03-27T13:04:39.826Z</time></trkpt><trkpt lat="44.128015" lon="9.8041583"><ele>181.0</ele><time>2026-03-27T13:04:41.827Z</time></trkpt><trkpt lat="44.1280133" lon="9.80425"><ele>182.33333333333334</ele><time>2026-03-27T13:04:43.827Z</time></trkpt><trkpt lat="44.12801" lon="9.80435"><ele>183.66666666666669</ele><time>2026-03-27T13:04:45.827Z</time></trkpt><trkpt lat="44.1280083" lon="9.8044567"><ele>185.0</ele><time>2026-03-27T13:04:47.827Z</time></trkpt><trkpt lat="44.1279967" lon="9.8045617"><ele>186.33333333333334</ele><time>2026-03-27T13:04:49.827Z</time></trkpt><trkpt lat="44.1279817" lon="9.804665"><ele>187.66666666666666</ele><time>2026-03-27T13:04:51.827Z</time></trkpt><trkpt lat="44.127965" lon="9.80477"><ele>189.0</ele><time>2026-03-27T13:04:53.827Z</time></trkpt><trkpt lat="44.1279417" lon="9.80487"><ele>189.0</ele><time>2026-03-27T13:04:55.827Z</time></trkpt><trkpt lat="44.1279133" lon="9.8049683"><ele>189.0</ele><time>2026-03-27T13:04:57.827Z</time></trkpt><trkpt lat="44.12789" lon="9.8050617"><ele>189.0</ele><time>2026-03-27T13:04:59.827Z</time></trkpt><trkpt lat="44.12787" lon="9.80516"><ele>189.0</ele><time>2026-03-27T13:05:01.826Z</time></trkpt><trkpt lat="44.1278483" lon="9.805255"><ele>189.0</ele><time>2026-03-27T13:05:03.826Z</time></trkpt><trkpt lat="44.1278267" lon="9.80534"><ele>189.0</ele><time>2026-03-27T13:05:05.827Z</time></trkpt><trkpt lat="44.1278033" lon="9.8054383"><ele>189.0</ele><time>2026-03-27T13:05:07.827Z</time></trkpt><trkpt lat="44.1277667" lon="9.8055317"><ele>191.5</ele><time>2026-03-27T13:05:09.827Z</time></trkpt><trkpt lat="44.1277233" lon="9.805615"><ele>194.0</ele><time>2026-03-27T13:05:11.826Z</time></trkpt><trkpt lat="44.12766" lon="9.80569"><ele>196.5</ele><time>2026-03-27T13:05:14.827Z</time></trkpt><trkpt lat="44.1276033" lon="9.8057317"><ele>199.0</ele><time>2026-03-27T13:05:17.827Z</time></trkpt><trkpt lat="44.1275267" lon="9.805795"><ele>201.5</ele><time>2026-03-27T13:05:20.827Z</time></trkpt><trkpt lat="44.1274683" lon="9.8058567"><ele>204.0</ele><time>2026-03-27T13:05:22.827Z</time></trkpt><trkpt lat="44.12741" lon="9.80593"><ele>201.71428571428572</ele><time>2026-03-27T13:05:24.827Z</time></trkpt><trkpt lat="44.1273667" lon="9.8060267"><ele>199.42857142857144</ele><time>2026-03-27T13:05:26.827Z</time></trkpt><trkpt lat="44.127335" lon="9.8061283"><ele>197.14285714285714</ele><time>2026-03-27T13:05:28.827Z</time></trkpt><trkpt lat="44.1273283" lon="9.806235"><ele>194.85714285714286</ele><time>2026-03-27T13:05:30.827Z</time></trkpt><trkpt lat="44.127335" lon="9.8063383"><ele>192.57142857142856</ele><time>2026-03-27T13:05:32.826Z</time></trkpt><trkpt lat="44.1273433" lon="9.8064267"><ele>190.28571428571428</ele><time>2026-03-27T13:05:34.827Z</time></trkpt><trkpt lat="44.12736" lon="9.8065183"><ele>188.0</ele><time>2026-03-27T13:05:36.826Z</time></trkpt><trkpt lat="44.1273833" lon="9.8066367"><ele>190.14285714285714</ele><time>2026-03-27T13:05:39.827Z</time></trkpt><trkpt lat="44.1274033" lon="9.8067217"><ele>192.28571428571428</ele><time>2026-03-27T13:05:41.827Z</time></trkpt><trkpt lat="44.1274117" lon="9.8068133"><ele>194.42857142857144</ele><time>2026-03-27T13:05:43.827Z</time></trkpt><trkpt lat="44.1273967" lon="9.8069067"><ele>196.57142857142856</ele><time>2026-03-27T13:05:45.827Z</time></trkpt><trkpt lat="44.1273667" lon="9.806995"><ele>198.71428571428572</ele><time>2026-03-27T13:05:47.827Z</time></trkpt><trkpt lat="44.1273317" lon="9.8070717"><ele>200.85714285714286</ele><time>2026-03-27T13:05:49.827Z</time></trkpt><trkpt lat="44.1272883" lon="9.8071417"><ele>203.0</ele><time>2026-03-27T13:05:51.827Z</time></trkpt><trkpt lat="44.12724" lon="9.8072117"><ele>203.0</ele><time>2026-03-27T13:05:53.826Z</time></trkpt><trkpt lat="44.127185" lon="9.8072833"><ele>203.0</ele><time>2026-03-27T13:05:55.827Z</time></trkpt><trkpt lat="44.12714" lon="9.8073567"><ele>203.0</ele><time>2026-03-27T13:05:57.827Z</time></trkpt><trkpt lat="44.1270967" lon="9.807435"><ele>203.0</ele><time>2026-03-27T13:05:59.827Z</time></trkpt><trkpt lat="44.12705" lon="9.8075133"><ele>203.0</ele><time>2026-03-27T13:06:01.827Z</time></trkpt><trkpt lat="44.1270033" lon="9.8075867"><ele>203.0</ele><time>2026-03-27T13:06:03.827Z</time></trkpt><trkpt lat="44.1269617" lon="9.8076533"><ele>203.0</ele><time>2026-03-27T13:06:05.827Z</time></trkpt><trkpt lat="44.1269033" lon="9.8077267"><ele>204.0</ele><time>2026-03-27T13:06:08.827Z</time></trkpt><trkpt lat="44.1268617" lon="9.807795"><ele>205.0</ele><time>2026-03-27T13:06:10.827Z</time></trkpt><trkpt lat="44.1268183" lon="9.80787"><ele>206.0</ele><time>2026-03-27T13:06:12.827Z</time></trkpt><trkpt lat="44.1267667" lon="9.8079733"><ele>207.0</ele><time>2026-03-27T13:06:15.827Z</time></trkpt><trkpt lat="44.12675" lon="9.8080583"><ele>208.0</ele><time>2026-03-27T13:06:17.827Z</time></trkpt><trkpt lat="44.12674" lon="9.8081517"><ele>209.0</ele><time>2026-03-27T13:06:19.827Z</time></trkpt><trkpt lat="44.1267383" lon="9.80824"><ele>210.0</ele><time>2026-03-27T13:06:21.827Z</time></trkpt><trkpt lat="44.1267483" lon="9.8083283"><ele>210.0</ele><time>2026-03-27T13:06:23.827Z</time></trkpt><trkpt lat="44.126765" lon="9.8084533"><ele>210.0</ele><time>2026-03-27T13:06:26.827Z</time></trkpt><trkpt lat="44.1267617" lon="9.8085667"><ele>210.0</ele><time>2026-03-27T13:06:29.827Z</time></trkpt><trkpt lat="44.12675" lon="9.808655"><ele>210.0</ele><time>2026-03-27T13:06:31.827Z</time></trkpt><trkpt lat="44.1267283" lon="9.8087633"><ele>210.0</ele><time>2026-03-27T13:06:34.827Z</time></trkpt><trkpt lat="44.1266983" lon="9.808875"><ele>210.0</ele><time>2026-03-27T13:06:36.827Z</time></trkpt><trkpt lat="44.126675" lon="9.8089833"><ele>210.16666666666666</ele><time>2026-03-27T13:06:38.827Z</time></trkpt><trkpt lat="44.12665" lon="9.8090867"><ele>210.33333333333331</ele><time>2026-03-27T13:06:40.827Z</time></trkpt><trkpt lat="44.1266267" lon="9.8091833"><ele>210.5</ele><time>2026-03-27T13:06:42.827Z</time></trkpt><trkpt lat="44.1265867" lon="9.809255"><ele>210.66666666666666</ele><time>2026-03-27T13:06:44.827Z</time></trkpt><trkpt lat="44.1265367" lon="9.80931"><ele>210.83333333333331</ele><time>2026-03-27T13:06:46.827Z</time></trkpt><trkpt lat="44.1264633" lon="9.8093617"><ele>211.0</ele><time>2026-03-27T13:06:49.827Z</time></trkpt><trkpt lat="44.12637" lon="9.8093617"><ele>210.99999999999997</ele><time>2026-03-27T13:06:52.827Z</time></trkpt><trkpt lat="44.126285" lon="9.8093233"><ele>211.0</ele><time>2026-03-27T13:06:55.827Z</time></trkpt><trkpt lat="44.1262183" lon="9.8093067"><ele>211.0</ele><time>2026-03-27T13:06:57.827Z</time></trkpt><trkpt lat="44.1261417" lon="9.8093083"><ele>211.0</ele><time>2026-03-27T13:06:59.826Z</time></trkpt><trkpt lat="44.1260717" lon="9.8093117"><ele>210.99999999999997</ele><time>2026-03-27T13:07:01.827Z</time></trkpt><trkpt lat="44.1259883" lon="9.809365"><ele>211.0</ele><time>2026-03-27T13:07:04.827Z</time></trkpt><trkpt lat="44.1259133" lon="9.8094383"><ele>210.99999999999997</ele><time>2026-03-27T13:07:07.827Z</time></trkpt><trkpt lat="44.1258583" lon="9.8095333"><ele>211.0</ele><time>2026-03-27T13:07:10.827Z</time></trkpt><trkpt lat="44.125815" lon="9.809655"><ele>211.0</ele><time>2026-03-27T13:07:13.827Z</time></trkpt><trkpt lat="44.125815" lon="9.8097567"><ele>211.0</ele><time>2026-03-27T13:07:15.827Z</time></trkpt><trkpt lat="44.1258367" lon="9.8098833"><ele>210.99999999999997</ele><time>2026-03-27T13:07:18.827Z</time></trkpt><trkpt lat="44.1258633" lon="9.809975"><ele>211.0</ele><time>2026-03-27T13:07:20.827Z</time></trkpt><trkpt lat="44.1258933" lon="9.8100717"><ele>211.14285714285714</ele><time>2026-03-27T13:07:22.827Z</time></trkpt><trkpt lat="44.1259283" lon="9.8101733"><ele>211.28571428571428</ele><time>2026-03-27T13:07:24.827Z</time></trkpt><trkpt lat="44.1259433" lon="9.810275"><ele>211.42857142857144</ele><time>2026-03-27T13:07:26.827Z</time></trkpt><trkpt lat="44.1259617" lon="9.810385"><ele>211.57142857142856</ele><time>2026-03-27T13:07:28.826Z</time></trkpt><trkpt lat="44.1259783" lon="9.810485"><ele>211.7142857142857</ele><time>2026-03-27T13:07:30.827Z</time></trkpt><trkpt lat="44.1259917" lon="9.81058"><ele>211.85714285714286</ele><time>2026-03-27T13:07:32.827Z</time></trkpt><trkpt lat="44.1260033" lon="9.8106733"><ele>212.0</ele><time>2026-03-27T13:07:34.827Z</time></trkpt><trkpt lat="44.1260217" lon="9.8107933"><ele>212.00000000000003</ele><time>2026-03-27T13:07:37.827Z</time></trkpt><trkpt lat="44.1260583" lon="9.8109017"><ele>212.0</ele><time>2026-03-27T13:07:40.827Z</time></trkpt><trkpt lat="44.1260717" lon="9.8109883"><ele>212.0</ele><time>2026-03-27T13:07:42.827Z</time></trkpt><trkpt lat="44.1260917" lon="9.811075"><ele>212.0</ele><time>2026-03-27T13:07:44.827Z</time></trkpt><trkpt lat="44.126125" lon="9.8111917"><ele>212.00000000000003</ele><time>2026-03-27T13:07:47.827Z</time></trkpt><trkpt lat="44.12615" lon="9.8113067"><ele>212.0</ele><time>2026-03-27T13:07:50.827Z</time></trkpt><trkpt lat="44.1261667" lon="9.8114267"><ele>211.0</ele><time>2026-03-27T13:07:53.827Z</time></trkpt><trkpt lat="44.12616" lon="9.8115217"><ele>210.0</ele><time>2026-03-27T13:07:55.827Z</time></trkpt><trkpt lat="44.1261433" lon="9.81161"><ele>209.0</ele><time>2026-03-27T13:07:57.827Z</time></trkpt><trkpt lat="44.1261233" lon="9.8116983"><ele>208.0</ele><time>2026-03-27T13:07:59.827Z</time></trkpt><trkpt lat="44.1261033" lon="9.8117867"><ele>207.0</ele><time>2026-03-27T13:08:01.827Z</time></trkpt><trkpt lat="44.12607" lon="9.8118967"><ele>206.0</ele><time>2026-03-27T13:08:04.826Z</time></trkpt><trkpt lat="44.126065" lon="9.8119867"><ele>205.0</ele><time>2026-03-27T13:08:06.827Z</time></trkpt><trkpt lat="44.1260783" lon="9.812075"><ele>204.85714285714286</ele><time>2026-03-27T13:08:08.827Z</time></trkpt><trkpt lat="44.1261133" lon="9.8121583"><ele>204.7142857142857</ele><time>2026-03-27T13:08:10.827Z</time></trkpt><trkpt lat="44.126155" lon="9.81223"><ele>204.57142857142856</ele><time>2026-03-27T13:08:12.827Z</time></trkpt><trkpt lat="44.126205" lon="9.8122967"><ele>204.42857142857144</ele><time>2026-03-27T13:08:14.827Z</time></trkpt><trkpt lat="44.126255" lon="9.8123683"><ele>204.28571428571428</ele><time>2026-03-27T13:08:16.827Z</time></trkpt><trkpt lat="44.126305" lon="9.8124417"><ele>204.14285714285714</ele><time>2026-03-27T13:08:18.827Z</time></trkpt><trkpt lat="44.1263583" lon="9.812515"><ele>204.0</ele><time>2026-03-27T13:08:20.827Z</time></trkpt><trkpt lat="44.1264117" lon="9.8125917"><ele>204.71428571428572</ele><time>2026-03-27T13:08:22.827Z</time></trkpt><trkpt lat="44.126465" lon="9.8126633"><ele>205.42857142857144</ele><time>2026-03-27T13:08:24.827Z</time></trkpt><trkpt lat="44.126515" lon="9.8127333"><ele>206.14285714285714</ele><time>2026-03-27T13:08:26.827Z</time></trkpt><trkpt lat="44.1265633" lon="9.81281"><ele>206.85714285714286</ele><time>2026-03-27T13:08:28.826Z</time></trkpt><trkpt lat="44.1266017" lon="9.8128967"><ele>207.57142857142856</ele><time>2026-03-27T13:08:30.827Z</time></trkpt><trkpt lat="44.1266267" lon="9.8129917"><ele>208.28571428571428</ele><time>2026-03-27T13:08:32.827Z</time></trkpt><trkpt lat="44.1266333" lon="9.8130867"><ele>209.0</ele><time>2026-03-27T13:08:34.826Z</time></trkpt><trkpt lat="44.126625" lon="9.8131867"><ele>212.33333333333334</ele><time>2026-03-27T13:08:36.826Z</time></trkpt><trkpt lat="44.126615" lon="9.8132883"><ele>215.66666666666669</ele><time>2026-03-27T13:08:38.826Z</time></trkpt><trkpt lat="44.1266117" lon="9.8133917"><ele>219.0</ele><time>2026-03-27T13:08:40.826Z</time></trkpt><trkpt lat="44.1266167" lon="9.8134933"><ele>222.33333333333331</ele><time>2026-03-27T13:08:42.826Z</time></trkpt><trkpt lat="44.1266283" lon="9.8135967"><ele>225.66666666666666</ele><time>2026-03-27T13:08:44.826Z</time></trkpt><trkpt lat="44.1266483" lon="9.8137067"><ele>229.0</ele><time>2026-03-27T13:08:46.826Z</time></trkpt><trkpt lat="44.1266717" lon="9.8138467"><ele>229.33333333333331</ele><time>2026-03-27T13:08:48.826Z</time></trkpt><trkpt lat="44.1267017" lon="9.8140217"><ele>229.66666666666666</ele><time>2026-03-27T13:08:50.826Z</time></trkpt><trkpt lat="44.12671" lon="9.8141167"><ele>230.0</ele><time>2026-03-27T13:08:51.826Z</time></trkpt><trkpt lat="44.1267067" lon="9.8142133"><ele>230.33333333333331</ele><time>2026-03-27T13:08:52.826Z</time></trkpt><trkpt lat="44.1266983" lon="9.8143033"><ele>230.66666666666666</ele><time>2026-03-27T13:08:53.826Z</time></trkpt><trkpt lat="44.12664" lon="9.8144183"><ele>231.0</ele><time>2026-03-27T13:08:55.825Z</time></trkpt><trkpt lat="44.1265183" lon="9.8143967"><ele>229.20000000000002</ele><time>2026-03-27T13:08:57.826Z</time></trkpt><trkpt lat="44.1264367" lon="9.8143483"><ele>227.40000000000003</ele><time>2026-03-27T13:08:58.826Z</time></trkpt><trkpt lat="44.12636" lon="9.8142933"><ele>225.6</ele><time>2026-03-27T13:08:59.826Z</time></trkpt><trkpt lat="44.126275" lon="9.8142433"><ele>223.8</ele><time>2026-03-27T13:09:00.826Z</time></trkpt><trkpt lat="44.126175" lon="9.814205"><ele>222.0</ele><time>2026-03-27T13:09:01.826Z</time></trkpt><trkpt lat="44.1260767" lon="9.8141583"><ele>221.39999999999998</ele><time>2026-03-27T13:09:02.826Z</time></trkpt><trkpt lat="44.1259867" lon="9.8141033"><ele>220.79999999999998</ele><time>2026-03-27T13:09:03.826Z</time></trkpt><trkpt lat="44.1259033" lon="9.81405"><ele>220.2</ele><time>2026-03-27T13:09:04.826Z</time></trkpt><trkpt lat="44.1258217" lon="9.814005"><ele>219.6</ele><time>2026-03-27T13:09:05.825Z</time></trkpt><trkpt lat="44.1257367" lon="9.8139833"><ele>219.0</ele><time>2026-03-27T13:09:06.826Z</time></trkpt><trkpt lat="44.1256517" lon="9.813995"><ele>217.6</ele><time>2026-03-27T13:09:07.826Z</time></trkpt><trkpt lat="44.1255617" lon="9.8140367"><ele>216.2</ele><time>2026-03-27T13:09:08.826Z</time></trkpt><trkpt lat="44.12548" lon="9.8141033"><ele>214.79999999999998</ele><time>2026-03-27T13:09:09.826Z</time></trkpt><trkpt lat="44.1254033" lon="9.8141883"><ele>213.39999999999998</ele><time>2026-03-27T13:09:10.826Z</time></trkpt><trkpt lat="44.12534" lon="9.81429"><ele>212.0</ele><time>2026-03-27T13:09:11.826Z</time></trkpt><trkpt lat="44.1253017" lon="9.8144017"><ele>212.00000000000003</ele><time>2026-03-27T13:09:12.825Z</time></trkpt><trkpt lat="44.1252917" lon="9.81451"><ele>212.0</ele><time>2026-03-27T13:09:13.826Z</time></trkpt><trkpt lat="44.125285" lon="9.81461"><ele>212.0</ele><time>2026-03-27T13:09:14.826Z</time></trkpt><trkpt lat="44.1252583" lon="9.8147083"><ele>212.0</ele><time>2026-03-27T13:09:15.826Z</time></trkpt><trkpt lat="44.1252067" lon="9.8147733"><ele>212.00000000000003</ele><time>2026-03-27T13:09:16.826Z</time></trkpt><trkpt lat="44.125135" lon="9.814805"><ele>212.0</ele><time>2026-03-27T13:09:17.826Z</time></trkpt><trkpt lat="44.125055" lon="9.8147983"><ele>212.00000000000003</ele><time>2026-03-27T13:09:18.825Z</time></trkpt><trkpt lat="44.1249683" lon="9.81478"><ele>212.0</ele><time>2026-03-27T13:09:19.826Z</time></trkpt><trkpt lat="44.124885" lon="9.81478"><ele>212.0</ele><time>2026-03-27T13:09:20.826Z</time></trkpt><trkpt lat="44.1247983" lon="9.8147933"><ele>212.0</ele><time>2026-03-27T13:09:21.826Z</time></trkpt><trkpt lat="44.124715" lon="9.8148483"><ele>212.00000000000003</ele><time>2026-03-27T13:09:22.826Z</time></trkpt><trkpt lat="44.124645" lon="9.814935"><ele>212.0</ele><time>2026-03-27T13:09:23.826Z</time></trkpt><trkpt lat="44.1245783" lon="9.8150383"><ele>209.66666666666669</ele><time>2026-03-27T13:09:24.826Z</time></trkpt><trkpt lat="44.1245317" lon="9.8151333"><ele>207.33333333333334</ele><time>2026-03-27T13:09:25.826Z</time></trkpt><trkpt lat="44.124495" lon="9.8152217"><ele>205.0</ele><time>2026-03-27T13:09:26.826Z</time></trkpt><trkpt lat="44.124465" lon="9.8153017"><ele>202.66666666666669</ele><time>2026-03-27T13:09:27.826Z</time></trkpt><trkpt lat="44.12442" lon="9.8154517"><ele>200.33333333333334</ele><time>2026-03-27T13:09:29.826Z</time></trkpt><trkpt lat="44.1243983" lon="9.8155683"><ele>198.0</ele><time>2026-03-27T13:09:31.826Z</time></trkpt><trkpt lat="44.1243267" lon="9.8155867"><ele>198.0</ele><time>2026-03-27T13:09:34.826Z</time></trkpt><trkpt lat="44.1243083" lon="9.8154617"><ele>198.0</ele><time>2026-03-27T13:09:36.826Z</time></trkpt><trkpt lat="44.124335" lon="9.8152717"><ele>198.0</ele><time>2026-03-27T13:09:38.826Z</time></trkpt><trkpt lat="44.1243467" lon="9.8151517"><ele>198.0</ele><time>2026-03-27T13:09:39.826Z</time></trkpt><trkpt lat="44.1243617" lon="9.8150267"><ele>198.0</ele><time>2026-03-27T13:09:40.826Z</time></trkpt><trkpt lat="44.12438" lon="9.8148933"><ele>197.0</ele><time>2026-03-27T13:09:41.826Z</time></trkpt><trkpt lat="44.1243967" lon="9.8147667"><ele>196.0</ele><time>2026-03-27T13:09:42.826Z</time></trkpt><trkpt lat="44.1244183" lon="9.8146517"><ele>195.0</ele><time>2026-03-27T13:09:43.826Z</time></trkpt><trkpt lat="44.1244467" lon="9.8145533"><ele>194.0</ele><time>2026-03-27T13:09:44.826Z</time></trkpt><trkpt lat="44.1244883" lon="9.8144633"><ele>193.0</ele><time>2026-03-27T13:09:45.825Z</time></trkpt><trkpt lat="44.12454" lon="9.814395"><ele>192.0</ele><time>2026-03-27T13:09:46.826Z</time></trkpt><trkpt lat="44.12459" lon="9.8143367"><ele>192.0</ele><time>2026-03-27T13:09:47.825Z</time></trkpt><trkpt lat="44.1246033" lon="9.8142033"><ele>192.0</ele><time>2026-03-27T13:09:49.826Z</time></trkpt><trkpt lat="44.1244983" lon="9.8141483"><ele>192.0</ele><time>2026-03-27T13:09:51.826Z</time></trkpt><trkpt lat="44.1244317" lon="9.8141883"><ele>192.0</ele><time>2026-03-27T13:09:52.826Z</time></trkpt><trkpt lat="44.1243617" lon="9.8142683"><ele>192.0</ele><time>2026-03-27T13:09:53.826Z</time></trkpt><trkpt lat="44.124295" lon="9.8143617"><ele>192.0</ele><time>2026-03-27T13:09:54.826Z</time></trkpt><trkpt lat="44.12424" lon="9.814455"><ele>192.0</ele><time>2026-03-27T13:09:55.826Z</time></trkpt><trkpt lat="44.1241883" lon="9.814555"><ele>192.0</ele><time>2026-03-27T13:09:56.826Z</time></trkpt><trkpt lat="44.1241367" lon="9.8146583"><ele>192.0</ele><time>2026-03-27T13:09:57.826Z</time></trkpt><trkpt lat="44.12408" lon="9.814765"><ele>192.0</ele><time>2026-03-27T13:09:58.826Z</time></trkpt><trkpt lat="44.1240167" lon="9.814865"><ele>190.6</ele><time>2026-03-27T13:09:59.826Z</time></trkpt><trkpt lat="44.1239433" lon="9.8149583"><ele>189.2</ele><time>2026-03-27T13:10:00.826Z</time></trkpt><trkpt lat="44.123855" lon="9.8150367"><ele>187.8</ele><time>2026-03-27T13:10:01.826Z</time></trkpt><trkpt lat="44.1237567" lon="9.81511"><ele>186.4</ele><time>2026-03-27T13:10:02.826Z</time></trkpt><trkpt lat="44.123655" lon="9.8151867"><ele>185.0</ele><time>2026-03-27T13:10:03.826Z</time></trkpt><trkpt lat="44.1235717" lon="9.8152583"><ele>185.0</ele><time>2026-03-27T13:10:04.826Z</time></trkpt><trkpt lat="44.1234917" lon="9.8153233"><ele>185.0</ele><time>2026-03-27T13:10:05.826Z</time></trkpt><trkpt lat="44.1233983" lon="9.815365"><ele>185.0</ele><time>2026-03-27T13:10:06.826Z</time></trkpt><trkpt lat="44.123295" lon="9.8153567"><ele>185.0</ele><time>2026-03-27T13:10:07.826Z</time></trkpt><trkpt lat="44.123195" lon="9.81531"><ele>185.0</ele><time>2026-03-27T13:10:08.826Z</time></trkpt><trkpt lat="44.12309" lon="9.81525"><ele>182.6</ele><time>2026-03-27T13:10:09.826Z</time></trkpt><trkpt lat="44.1229867" lon="9.8152033"><ele>180.2</ele><time>2026-03-27T13:10:10.826Z</time></trkpt><trkpt lat="44.1228867" lon="9.8151817"><ele>177.8</ele><time>2026-03-27T13:10:11.826Z</time></trkpt><trkpt lat="44.1227967" lon="9.8151717"><ele>175.4</ele><time>2026-03-27T13:10:12.826Z</time></trkpt><trkpt lat="44.12271" lon="9.8151567"><ele>173.0</ele><time>2026-03-27T13:10:13.826Z</time></trkpt><trkpt lat="44.1226267" lon="9.815145"><ele>173.0</ele><time>2026-03-27T13:10:14.826Z</time></trkpt><trkpt lat="44.1225483" lon="9.8151617"><ele>173.0</ele><time>2026-03-27T13:10:15.826Z</time></trkpt><trkpt lat="44.1224633" lon="9.8152067"><ele>173.0</ele><time>2026-03-27T13:10:16.826Z</time></trkpt><trkpt lat="44.1223867" lon="9.8152883"><ele>173.0</ele><time>2026-03-27T13:10:17.826Z</time></trkpt><trkpt lat="44.122325" lon="9.8154067"><ele>173.0</ele><time>2026-03-27T13:10:18.826Z</time></trkpt><trkpt lat="44.1222833" lon="9.815535"><ele>171.83333333333331</ele><time>2026-03-27T13:10:19.826Z</time></trkpt><trkpt lat="44.1222417" lon="9.8156483"><ele>170.66666666666666</ele><time>2026-03-27T13:10:20.826Z</time></trkpt><trkpt lat="44.1222017" lon="9.8157417"><ele>169.5</ele><time>2026-03-27T13:10:21.826Z</time></trkpt><trkpt lat="44.1221633" lon="9.8158133"><ele>168.33333333333334</ele><time>2026-03-27T13:10:22.825Z</time></trkpt><trkpt lat="44.1220833" lon="9.81585"><ele>167.16666666666669</ele><time>2026-03-27T13:10:24.826Z</time></trkpt><trkpt lat="44.1220567" lon="9.8157333"><ele>166.0</ele><time>2026-03-27T13:10:26.826Z</time></trkpt><trkpt lat="44.1221317" lon="9.815595"><ele>166.0</ele><time>2026-03-27T13:10:28.826Z</time></trkpt><trkpt lat="44.1221717" lon="9.8155183"><ele>166.0</ele><time>2026-03-27T13:10:29.825Z</time></trkpt><trkpt lat="44.12221" lon="9.815435"><ele>166.0</ele><time>2026-03-27T13:10:30.826Z</time></trkpt><trkpt lat="44.1222433" lon="9.8153433"><ele>166.0</ele><time>2026-03-27T13:10:31.826Z</time></trkpt><trkpt lat="44.1222717" lon="9.8152417"><ele>166.0</ele><time>2026-03-27T13:10:32.826Z</time></trkpt><trkpt lat="44.1222983" lon="9.8151417"><ele>166.0</ele><time>2026-03-27T13:10:33.826Z</time></trkpt><trkpt lat="44.1223283" lon="9.8150467"><ele>166.0</ele><time>2026-03-27T13:10:34.826Z</time></trkpt><trkpt lat="44.122365" lon="9.8149633"><ele>165.83333333333334</ele><time>2026-03-27T13:10:35.825Z</time></trkpt><trkpt lat="44.1224733" lon="9.8148667"><ele>165.66666666666669</ele><time>2026-03-27T13:10:37.826Z</time></trkpt><trkpt lat="44.122555" lon="9.8148317"><ele>165.5</ele><time>2026-03-27T13:10:38.826Z</time></trkpt><trkpt lat="44.12264" lon="9.8148017"><ele>165.33333333333334</ele><time>2026-03-27T13:10:39.826Z</time></trkpt><trkpt lat="44.1227183" lon="9.814795"><ele>165.16666666666666</ele><time>2026-03-27T13:10:40.826Z</time></trkpt><trkpt lat="44.122785" lon="9.8147917"><ele>165.0</ele><time>2026-03-27T13:10:41.826Z</time></trkpt><trkpt lat="44.1228767" lon="9.8147417"><ele>165.0</ele><time>2026-03-27T13:10:43.826Z</time></trkpt><trkpt lat="44.12286" lon="9.8146533"><ele>165.0</ele><time>2026-03-27T13:10:45.826Z</time></trkpt><trkpt lat="44.1227483" lon="9.8146717"><ele>165.0</ele><time>2026-03-27T13:10:47.826Z</time></trkpt><trkpt lat="44.1226733" lon="9.8147"><ele>165.0</ele><time>2026-03-27T13:10:48.825Z</time></trkpt><trkpt lat="44.1225983" lon="9.8147017"><ele>165.0</ele><time>2026-03-27T13:10:49.826Z</time></trkpt><trkpt lat="44.1225233" lon="9.8146933"><ele>165.0</ele><time>2026-03-27T13:10:50.825Z</time></trkpt><trkpt lat="44.1224367" lon="9.8146833"><ele>163.33333333333334</ele><time>2026-03-27T13:10:51.826Z</time></trkpt><trkpt lat="44.1223567" lon="9.814695"><ele>161.66666666666666</ele><time>2026-03-27T13:10:52.826Z</time></trkpt><trkpt lat="44.12228" lon="9.8147383"><ele>160.0</ele><time>2026-03-27T13:10:53.826Z</time></trkpt><trkpt lat="44.12222" lon="9.8148117"><ele>158.33333333333331</ele><time>2026-03-27T13:10:54.826Z</time></trkpt><trkpt lat="44.122165" lon="9.8149117"><ele>156.66666666666666</ele><time>2026-03-27T13:10:55.825Z</time></trkpt><trkpt lat="44.12211" lon="9.8150267"><ele>155.0</ele><time>2026-03-27T13:10:56.825Z</time></trkpt><trkpt lat="44.122045" lon="9.8151383"><ele>156.83333333333331</ele><time>2026-03-27T13:10:57.826Z</time></trkpt><trkpt lat="44.1219733" lon="9.8152217"><ele>158.66666666666666</ele><time>2026-03-27T13:10:58.826Z</time></trkpt><trkpt lat="44.121895" lon="9.81528"><ele>160.5</ele><time>2026-03-27T13:10:59.826Z</time></trkpt><trkpt lat="44.1218117" lon="9.8153"><ele>162.33333333333334</ele><time>2026-03-27T13:11:00.826Z</time></trkpt><trkpt lat="44.12173" lon="9.8152817"><ele>164.16666666666669</ele><time>2026-03-27T13:11:01.826Z</time></trkpt><trkpt lat="44.1216467" lon="9.81522"><ele>166.0</ele><time>2026-03-27T13:11:02.826Z</time></trkpt><trkpt lat="44.12157" lon="9.8151817"><ele>162.0</ele><time>2026-03-27T13:11:03.826Z</time></trkpt><trkpt lat="44.12153" lon="9.815055"><ele>158.0</ele><time>2026-03-27T13:11:04.826Z</time></trkpt><trkpt lat="44.1215217" lon="9.814905"><ele>154.0</ele><time>2026-03-27T13:11:05.826Z</time></trkpt><trkpt lat="44.121525" lon="9.81475"><ele>150.0</ele><time>2026-03-27T13:11:06.826Z</time></trkpt><trkpt lat="44.1215183" lon="9.8145933"><ele>146.0</ele><time>2026-03-27T13:11:07.826Z</time></trkpt><trkpt lat="44.1214967" lon="9.8144367"><ele>144.2</ele><time>2026-03-27T13:11:08.826Z</time></trkpt><trkpt lat="44.1214667" lon="9.8142867"><ele>142.39999999999998</ele><time>2026-03-27T13:11:09.826Z</time></trkpt><trkpt lat="44.1214133" lon="9.814165"><ele>140.6</ele><time>2026-03-27T13:11:10.825Z</time></trkpt><trkpt lat="44.1213333" lon="9.81408"><ele>138.79999999999998</ele><time>2026-03-27T13:11:11.826Z</time></trkpt><trkpt lat="44.12124" lon="9.81404"><ele>137.0</ele><time>2026-03-27T13:11:12.825Z</time></trkpt><trkpt lat="44.1211367" lon="9.8140417"><ele>137.0</ele><time>2026-03-27T13:11:13.826Z</time></trkpt><trkpt lat="44.1210317" lon="9.81408"><ele>137.0</ele><time>2026-03-27T13:11:14.825Z</time></trkpt><trkpt lat="44.1209333" lon="9.8141483"><ele>137.0</ele><time>2026-03-27T13:11:15.826Z</time></trkpt><trkpt lat="44.120835" lon="9.8142317"><ele>137.0</ele><time>2026-03-27T13:11:16.826Z</time></trkpt><trkpt lat="44.1207617" lon="9.8143167"><ele>137.0</ele><time>2026-03-27T13:11:17.826Z</time></trkpt><trkpt lat="44.12069" lon="9.8144017"><ele>135.4</ele><time>2026-03-27T13:11:18.826Z</time></trkpt><trkpt lat="44.12063" lon="9.814495"><ele>133.79999999999998</ele><time>2026-03-27T13:11:19.826Z</time></trkpt><trkpt lat="44.1205733" lon="9.8146017"><ele>132.2</ele><time>2026-03-27T13:11:20.825Z</time></trkpt><trkpt lat="44.1205133" lon="9.8147067"><ele>130.6</ele><time>2026-03-27T13:11:21.826Z</time></trkpt><trkpt lat="44.1204533" lon="9.8148117"><ele>129.0</ele><time>2026-03-27T13:11:22.825Z</time></trkpt><trkpt lat="44.120395" lon="9.8149183"><ele>129.0</ele><time>2026-03-27T13:11:23.826Z</time></trkpt><trkpt lat="44.1203317" lon="9.81502"><ele>129.0</ele><time>2026-03-27T13:11:24.826Z</time></trkpt><trkpt lat="44.120245" lon="9.8151017"><ele>129.0</ele><time>2026-03-27T13:11:25.826Z</time></trkpt><trkpt lat="44.1201433" lon="9.8151617"><ele>129.0</ele><time>2026-03-27T13:11:26.826Z</time></trkpt><trkpt lat="44.12004" lon="9.81521"><ele>129.0</ele><time>2026-03-27T13:11:27.826Z</time></trkpt><trkpt lat="44.11994" lon="9.8152617"><ele>128.0</ele><time>2026-03-27T13:11:28.826Z</time></trkpt><trkpt lat="44.119855" lon="9.8153183"><ele>127.0</ele><time>2026-03-27T13:11:29.826Z</time></trkpt><trkpt lat="44.119775" lon="9.8153833"><ele>126.0</ele><time>2026-03-27T13:11:30.826Z</time></trkpt><trkpt lat="44.1197" lon="9.8154467"><ele>125.0</ele><time>2026-03-27T13:11:31.826Z</time></trkpt><trkpt lat="44.1196167" lon="9.8154967"><ele>124.0</ele><time>2026-03-27T13:11:32.826Z</time></trkpt><trkpt lat="44.119525" lon="9.815515"><ele>124.0</ele><time>2026-03-27T13:11:33.826Z</time></trkpt><trkpt lat="44.1194317" lon="9.8155"><ele>124.0</ele><time>2026-03-27T13:11:34.826Z</time></trkpt><trkpt lat="44.1193383" lon="9.8154767"><ele>124.0</ele><time>2026-03-27T13:11:35.825Z</time></trkpt><trkpt lat="44.119245" lon="9.8154667"><ele>124.0</ele><time>2026-03-27T13:11:36.826Z</time></trkpt><trkpt lat="44.1191433" lon="9.8154917"><ele>124.0</ele><time>2026-03-27T13:11:37.826Z</time></trkpt><trkpt lat="44.1190467" lon="9.8155483"><ele>122.80000000000001</ele><time>2026-03-27T13:11:38.826Z</time></trkpt><trkpt lat="44.1189783" lon="9.81565"><ele>121.60000000000001</ele><time>2026-03-27T13:11:39.825Z</time></trkpt><trkpt lat="44.1189267" lon="9.8157883"><ele>120.4</ele><time>2026-03-27T13:11:40.826Z</time></trkpt><trkpt lat="44.11887" lon="9.8159267"><ele>119.2</ele><time>2026-03-27T13:11:41.826Z</time></trkpt><trkpt lat="44.1188017" lon="9.8160483"><ele>118.0</ele><time>2026-03-27T13:11:42.825Z</time></trkpt><trkpt lat="44.1187117" lon="9.81615"><ele>118.0</ele><time>2026-03-27T13:11:43.826Z</time></trkpt><trkpt lat="44.11861" lon="9.8162333"><ele>118.0</ele><time>2026-03-27T13:11:44.826Z</time></trkpt><trkpt lat="44.1185067" lon="9.8163"><ele>118.0</ele><time>2026-03-27T13:11:45.826Z</time></trkpt><trkpt lat="44.1184033" lon="9.8163517"><ele>118.0</ele><time>2026-03-27T13:11:46.826Z</time></trkpt><trkpt lat="44.1182933" lon="9.8163867"><ele>116.4</ele><time>2026-03-27T13:11:47.826Z</time></trkpt><trkpt lat="44.1181817" lon="9.8163983"><ele>114.80000000000001</ele><time>2026-03-27T13:11:48.826Z</time></trkpt><trkpt lat="44.1180683" lon="9.8164117"><ele>113.2</ele><time>2026-03-27T13:11:49.826Z</time></trkpt><trkpt lat="44.1179583" lon="9.8164233"><ele>111.6</ele><time>2026-03-27T13:11:50.826Z</time></trkpt><trkpt lat="44.1178517" lon="9.8164417"><ele>110.0</ele><time>2026-03-27T13:11:51.826Z</time></trkpt><trkpt lat="44.1177483" lon="9.8164717"><ele>110.0</ele><time>2026-03-27T13:11:52.826Z</time></trkpt><trkpt lat="44.11765" lon="9.816505"><ele>110.0</ele><time>2026-03-27T13:11:53.826Z</time></trkpt><trkpt lat="44.117555" lon="9.8165417"><ele>110.0</ele><time>2026-03-27T13:11:54.825Z</time></trkpt><trkpt lat="44.11746" lon="9.8165833"><ele>110.0</ele><time>2026-03-27T13:11:55.826Z</time></trkpt><trkpt lat="44.1173583" lon="9.816615"><ele>110.0</ele><time>2026-03-27T13:11:56.826Z</time></trkpt><trkpt lat="44.117255" lon="9.8166183"><ele>109.8</ele><time>2026-03-27T13:11:57.826Z</time></trkpt><trkpt lat="44.117155" lon="9.8166083"><ele>109.6</ele><time>2026-03-27T13:11:58.826Z</time></trkpt><trkpt lat="44.1170533" lon="9.8166083"><ele>109.4</ele><time>2026-03-27T13:11:59.826Z</time></trkpt><trkpt lat="44.116955" lon="9.81661"><ele>109.2</ele><time>2026-03-27T13:12:00.826Z</time></trkpt><trkpt lat="44.1168533" lon="9.816605"><ele>109.0</ele><time>2026-03-27T13:12:01.826Z</time></trkpt><trkpt lat="44.1167533" lon="9.8166017"><ele>109.0</ele><time>2026-03-27T13:12:02.826Z</time></trkpt><trkpt lat="44.1166533" lon="9.8165967"><ele>109.0</ele><time>2026-03-27T13:12:03.826Z</time></trkpt><trkpt lat="44.1165567" lon="9.8165817"><ele>109.0</ele><time>2026-03-27T13:12:04.826Z</time></trkpt><trkpt lat="44.1164583" lon="9.8165617"><ele>109.0</ele><time>2026-03-27T13:12:05.825Z</time></trkpt><trkpt lat="44.1163633" lon="9.8165417"><ele>109.0</ele><time>2026-03-27T13:12:06.826Z</time></trkpt><trkpt lat="44.116265" lon="9.8165267"><ele>109.83333333333334</ele><time>2026-03-27T13:12:07.825Z</time></trkpt><trkpt lat="44.1161783" lon="9.8164983"><ele>110.66666666666667</ele><time>2026-03-27T13:12:08.826Z</time></trkpt><trkpt lat="44.1160983" lon="9.8164617"><ele>111.5</ele><time>2026-03-27T13:12:09.826Z</time></trkpt><trkpt lat="44.1160133" lon="9.8164383"><ele>112.33333333333334</ele><time>2026-03-27T13:12:10.826Z</time></trkpt><trkpt lat="44.1159283" lon="9.8164067"><ele>113.16666666666667</ele><time>2026-03-27T13:12:11.825Z</time></trkpt><trkpt lat="44.1158417" lon="9.8163833"><ele>114.0</ele><time>2026-03-27T13:12:12.826Z</time></trkpt><trkpt lat="44.1157417" lon="9.81636"><ele>111.0</ele><time>2026-03-27T13:12:13.826Z</time></trkpt><trkpt lat="44.1156567" lon="9.8163283"><ele>108.0</ele><time>2026-03-27T13:12:14.826Z</time></trkpt><trkpt lat="44.1155767" lon="9.8162967"><ele>105.0</ele><time>2026-03-27T13:12:15.825Z</time></trkpt><trkpt lat="44.1154933" lon="9.8162617"><ele>102.0</ele><time>2026-03-27T13:12:16.826Z</time></trkpt><trkpt lat="44.1154117" lon="9.816215"><ele>99.0</ele><time>2026-03-27T13:12:17.826Z</time></trkpt><trkpt lat="44.1153333" lon="9.816165"><ele>96.0</ele><time>2026-03-27T13:12:18.826Z</time></trkpt><trkpt lat="44.1152583" lon="9.8161067"><ele>96.0</ele><time>2026-03-27T13:12:19.826Z</time></trkpt><trkpt lat="44.11519" lon="9.8160433"><ele>96.0</ele><time>2026-03-27T13:12:20.826Z</time></trkpt><trkpt lat="44.1151267" lon="9.8159783"><ele>96.0</ele><time>2026-03-27T13:12:21.826Z</time></trkpt><trkpt lat="44.1150633" lon="9.8159133"><ele>96.0</ele><time>2026-03-27T13:12:22.826Z</time></trkpt><trkpt lat="44.1150017" lon="9.8158483"><ele>96.0</ele><time>2026-03-27T13:12:23.826Z</time></trkpt><trkpt lat="44.11494" lon="9.81578"><ele>96.0</ele><time>2026-03-27T13:12:24.825Z</time></trkpt><trkpt lat="44.1148717" lon="9.815725"><ele>94.14285714285714</ele><time>2026-03-27T13:12:25.826Z</time></trkpt><trkpt lat="44.1148017" lon="9.8157033"><ele>92.28571428571428</ele><time>2026-03-27T13:12:26.826Z</time></trkpt><trkpt lat="44.1147333" lon="9.8157067"><ele>90.42857142857142</ele><time>2026-03-27T13:12:27.825Z</time></trkpt><trkpt lat="44.1146683" lon="9.81575"><ele>88.57142857142857</ele><time>2026-03-27T13:12:28.825Z</time></trkpt><trkpt lat="44.1146167" lon="9.815805"><ele>86.71428571428572</ele><time>2026-03-27T13:12:29.826Z</time></trkpt><trkpt lat="44.1145867" lon="9.8158983"><ele>84.85714285714285</ele><time>2026-03-27T13:12:30.826Z</time></trkpt><trkpt lat="44.114595" lon="9.816005"><ele>83.0</ele><time>2026-03-27T13:12:31.826Z</time></trkpt><trkpt lat="44.114645" lon="9.81611"><ele>85.16666666666667</ele><time>2026-03-27T13:12:32.826Z</time></trkpt><trkpt lat="44.11469" lon="9.8162017"><ele>87.33333333333334</ele><time>2026-03-27T13:12:33.826Z</time></trkpt><trkpt lat="44.114745" lon="9.8162633"><ele>89.5</ele><time>2026-03-27T13:12:34.826Z</time></trkpt><trkpt lat="44.1148083" lon="9.816325"><ele>91.66666666666667</ele><time>2026-03-27T13:12:35.826Z</time></trkpt><trkpt lat="44.114875" lon="9.8163983"><ele>93.83333333333333</ele><time>2026-03-27T13:12:36.825Z</time></trkpt><trkpt lat="44.1149417" lon="9.8164733"><ele>96.0</ele><time>2026-03-27T13:12:37.825Z</time></trkpt><trkpt lat="44.115" lon="9.8165417"><ele>96.0</ele><time>2026-03-27T13:12:38.826Z</time></trkpt><trkpt lat="44.11505" lon="9.816625"><ele>96.0</ele><time>2026-03-27T13:12:39.826Z</time></trkpt><trkpt lat="44.1150883" lon="9.816715"><ele>96.0</ele><time>2026-03-27T13:12:40.826Z</time></trkpt><trkpt lat="44.1151167" lon="9.8168133"><ele>96.0</ele><time>2026-03-27T13:12:41.826Z</time></trkpt><trkpt lat="44.115145" lon="9.8169117"><ele>96.0</ele><time>2026-03-27T13:12:42.826Z</time></trkpt><trkpt lat="44.1151733" lon="9.8170117"><ele>96.0</ele><time>2026-03-27T13:12:43.826Z</time></trkpt><trkpt lat="44.1151917" lon="9.8171183"><ele>96.0</ele><time>2026-03-27T13:12:44.826Z</time></trkpt><trkpt lat="44.1152033" lon="9.8172233"><ele>96.0</ele><time>2026-03-27T13:12:45.826Z</time></trkpt><trkpt lat="44.1152033" lon="9.81732"><ele>96.0</ele><time>2026-03-27T13:12:46.826Z</time></trkpt><trkpt lat="44.115195" lon="9.8174117"><ele>96.0</ele><time>2026-03-27T13:12:47.826Z</time></trkpt><trkpt lat="44.1151383" lon="9.8175533"><ele>96.0</ele><time>2026-03-27T13:12:49.826Z</time></trkpt><trkpt lat="44.1150883" lon="9.8176083"><ele>96.0</ele><time>2026-03-27T13:12:50.826Z</time></trkpt><trkpt lat="44.1150067" lon="9.8176467"><ele>94.8</ele><time>2026-03-27T13:12:51.825Z</time></trkpt><trkpt lat="44.1149167" lon="9.8176933"><ele>93.6</ele><time>2026-03-27T13:12:52.826Z</time></trkpt><trkpt lat="44.114825" lon="9.8177383"><ele>92.4</ele><time>2026-03-27T13:12:53.825Z</time></trkpt><trkpt lat="44.1147367" lon="9.81779"><ele>91.2</ele><time>2026-03-27T13:12:54.826Z</time></trkpt><trkpt lat="44.1146483" lon="9.8178417"><ele>90.0</ele><time>2026-03-27T13:12:55.826Z</time></trkpt><trkpt lat="44.11456" lon="9.8179"><ele>90.0</ele><time>2026-03-27T13:12:56.826Z</time></trkpt><trkpt lat="44.1144817" lon="9.8179733"><ele>90.0</ele><time>2026-03-27T13:12:57.826Z</time></trkpt><trkpt lat="44.1144117" lon="9.8180633"><ele>90.0</ele><time>2026-03-27T13:12:58.826Z</time></trkpt><trkpt lat="44.114345" lon="9.8181583"><ele>90.0</ele><time>2026-03-27T13:12:59.826Z</time></trkpt><trkpt lat="44.1142783" lon="9.818255"><ele>90.0</ele><time>2026-03-27T13:13:00.826Z</time></trkpt><trkpt lat="44.1142117" lon="9.8183483"><ele>90.0</ele><time>2026-03-27T13:13:01.826Z</time></trkpt><trkpt lat="44.1141417" lon="9.818435"><ele>90.0</ele><time>2026-03-27T13:13:02.826Z</time></trkpt><trkpt lat="44.1140683" lon="9.81851"><ele>90.0</ele><time>2026-03-27T13:13:03.826Z</time></trkpt><trkpt lat="44.1139867" lon="9.8185767"><ele>90.0</ele><time>2026-03-27T13:13:04.826Z</time></trkpt><trkpt lat="44.1138967" lon="9.81863"><ele>90.0</ele><time>2026-03-27T13:13:05.826Z</time></trkpt><trkpt lat="44.1138067" lon="9.81868"><ele>88.6</ele><time>2026-03-27T13:13:06.826Z</time></trkpt><trkpt lat="44.1137133" lon="9.8187283"><ele>87.2</ele><time>2026-03-27T13:13:07.826Z</time></trkpt><trkpt lat="44.1136233" lon="9.8187817"><ele>85.80000000000001</ele><time>2026-03-27T13:13:08.826Z</time></trkpt><trkpt lat="44.11353" lon="9.8188417"><ele>84.4</ele><time>2026-03-27T13:13:09.826Z</time></trkpt><trkpt lat="44.1134317" lon="9.8189083"><ele>83.0</ele><time>2026-03-27T13:13:10.826Z</time></trkpt><trkpt lat="44.11333" lon="9.8189683"><ele>80.2</ele><time>2026-03-27T13:13:11.826Z</time></trkpt><trkpt lat="44.1132283" lon="9.81903"><ele>77.4</ele><time>2026-03-27T13:13:12.826Z</time></trkpt><trkpt lat="44.11313" lon="9.81909"><ele>74.60000000000001</ele><time>2026-03-27T13:13:13.825Z</time></trkpt><trkpt lat="44.1130367" lon="9.819145"><ele>71.80000000000001</ele><time>2026-03-27T13:13:14.826Z</time></trkpt><trkpt lat="44.1129383" lon="9.8192117"><ele>69.0</ele><time>2026-03-27T13:13:15.825Z</time></trkpt><trkpt lat="44.112845" lon="9.8192767"><ele>69.4</ele><time>2026-03-27T13:13:16.826Z</time></trkpt><trkpt lat="44.1127567" lon="9.8193567"><ele>69.80000000000001</ele><time>2026-03-27T13:13:17.826Z</time></trkpt><trkpt lat="44.1126767" lon="9.8194533"><ele>70.19999999999999</ele><time>2026-03-27T13:13:18.826Z</time></trkpt><trkpt lat="44.1126067" lon="9.8195533"><ele>70.6</ele><time>2026-03-27T13:13:19.825Z</time></trkpt><trkpt lat="44.1125367" lon="9.81965"><ele>71.0</ele><time>2026-03-27T13:13:20.826Z</time></trkpt><trkpt lat="44.1124367" lon="9.8197317"><ele>71.0</ele><time>2026-03-27T13:13:21.826Z</time></trkpt><trkpt lat="44.1123467" lon="9.8198017"><ele>71.0</ele><time>2026-03-27T13:13:22.826Z</time></trkpt><trkpt lat="44.112255" lon="9.8198667"><ele>71.0</ele><time>2026-03-27T13:13:23.826Z</time></trkpt><trkpt lat="44.1121633" lon="9.8199217"><ele>71.0</ele><time>2026-03-27T13:13:24.825Z</time></trkpt><trkpt lat="44.1120767" lon="9.81997"><ele>71.0</ele><time>2026-03-27T13:13:25.826Z</time></trkpt><trkpt lat="44.111995" lon="9.8200067"><ele>71.0</ele><time>2026-03-27T13:13:26.825Z</time></trkpt><trkpt lat="44.1119" lon="9.8200317"><ele>71.0</ele><time>2026-03-27T13:13:27.826Z</time></trkpt><trkpt lat="44.1118117" lon="9.8200633"><ele>71.0</ele><time>2026-03-27T13:13:28.826Z</time></trkpt><trkpt lat="44.111725" lon="9.8201017"><ele>71.0</ele><time>2026-03-27T13:13:29.825Z</time></trkpt><trkpt lat="44.1116483" lon="9.8201367"><ele>71.0</ele><time>2026-03-27T13:13:30.826Z</time></trkpt><trkpt lat="44.11157" lon="9.8201683"><ele>71.0</ele><time>2026-03-27T13:13:31.826Z</time></trkpt><trkpt lat="44.111495" lon="9.8202"><ele>71.57142857142857</ele><time>2026-03-27T13:13:32.826Z</time></trkpt><trkpt lat="44.1114233" lon="9.8202383"><ele>72.14285714285714</ele><time>2026-03-27T13:13:33.826Z</time></trkpt><trkpt lat="44.1113583" lon="9.8202867"><ele>72.71428571428571</ele><time>2026-03-27T13:13:34.826Z</time></trkpt><trkpt lat="44.1112867" lon="9.82033"><ele>73.28571428571428</ele><time>2026-03-27T13:13:35.826Z</time></trkpt><trkpt lat="44.1112167" lon="9.8203683"><ele>73.85714285714286</ele><time>2026-03-27T13:13:36.825Z</time></trkpt><trkpt lat="44.1111517" lon="9.8204017"><ele>74.42857142857142</ele><time>2026-03-27T13:13:37.826Z</time></trkpt><trkpt lat="44.111085" lon="9.8204233"><ele>75.0</ele><time>2026-03-27T13:13:38.826Z</time></trkpt><trkpt lat="44.1110217" lon="9.8204467"><ele>75.0</ele><time>2026-03-27T13:13:39.826Z</time></trkpt><trkpt lat="44.1109567" lon="9.82047"><ele>75.0</ele><time>2026-03-27T13:13:40.826Z</time></trkpt><trkpt lat="44.1108933" lon="9.820495"><ele>75.0</ele><time>2026-03-27T13:13:41.825Z</time></trkpt><trkpt lat="44.11083" lon="9.8205117"><ele>75.0</ele><time>2026-03-27T13:13:42.826Z</time></trkpt><trkpt lat="44.1107233" lon="9.8205383"><ele>75.0</ele><time>2026-03-27T13:13:44.826Z</time></trkpt><trkpt lat="44.11061" lon="9.8205417"><ele>75.0</ele><time>2026-03-27T13:13:46.826Z</time></trkpt><trkpt lat="44.110485" lon="9.8205183"><ele>75.66666666666667</ele><time>2026-03-27T13:13:48.826Z</time></trkpt><trkpt lat="44.1104183" lon="9.8205067"><ele>76.33333333333333</ele><time>2026-03-27T13:13:49.826Z</time></trkpt><trkpt lat="44.1103" lon="9.82048"><ele>77.0</ele><time>2026-03-27T13:13:51.826Z</time></trkpt><trkpt lat="44.1101733" lon="9.8204683"><ele>77.66666666666666</ele><time>2026-03-27T13:13:53.826Z</time></trkpt><trkpt lat="44.1101067" lon="9.820455"><ele>78.33333333333333</ele><time>2026-03-27T13:13:54.826Z</time></trkpt><trkpt lat="44.11004" lon="9.8204383"><ele>79.0</ele><time>2026-03-27T13:13:55.826Z</time></trkpt><trkpt lat="44.1099633" lon="9.820415"><ele>76.83333333333333</ele><time>2026-03-27T13:13:56.826Z</time></trkpt><trkpt lat="44.1098933" lon="9.82043"><ele>74.66666666666666</ele><time>2026-03-27T13:13:57.826Z</time></trkpt><trkpt lat="44.1098217" lon="9.8204667"><ele>72.5</ele><time>2026-03-27T13:13:58.826Z</time></trkpt><trkpt lat="44.10976" lon="9.8205433"><ele>70.33333333333333</ele><time>2026-03-27T13:13:59.826Z</time></trkpt><trkpt lat="44.1097017" lon="9.8206083"><ele>68.16666666666667</ele><time>2026-03-27T13:14:00.826Z</time></trkpt><trkpt lat="44.1096367" lon="9.820675"><ele>66.0</ele><time>2026-03-27T13:14:01.826Z</time></trkpt><trkpt lat="44.1095783" lon="9.8207467"><ele>66.0</ele><time>2026-03-27T13:14:02.826Z</time></trkpt><trkpt lat="44.109515" lon="9.8208167"><ele>66.0</ele><time>2026-03-27T13:14:03.826Z</time></trkpt><trkpt lat="44.1094567" lon="9.820885"><ele>66.0</ele><time>2026-03-27T13:14:04.826Z</time></trkpt><trkpt lat="44.1094067" lon="9.82094"><ele>66.0</ele><time>2026-03-27T13:14:05.826Z</time></trkpt><trkpt lat="44.1093133" lon="9.8210483"><ele>66.0</ele><time>2026-03-27T13:14:07.826Z</time></trkpt><trkpt lat="44.1092183" lon="9.821155"><ele>68.2</ele><time>2026-03-27T13:14:09.826Z</time></trkpt><trkpt lat="44.1091117" lon="9.8212133"><ele>70.39999999999999</ele><time>2026-03-27T13:14:11.826Z</time></trkpt><trkpt lat="44.1090067" lon="9.8212367"><ele>72.6</ele><time>2026-03-27T13:14:13.826Z</time></trkpt><trkpt lat="44.1089" lon="9.8212167"><ele>74.8</ele><time>2026-03-27T13:14:15.825Z</time></trkpt><trkpt lat="44.10884" lon="9.82119"><ele>77.0</ele><time>2026-03-27T13:14:16.826Z</time></trkpt><trkpt lat="44.1087217" lon="9.821135"><ele>77.0</ele><time>2026-03-27T13:14:18.826Z</time></trkpt><trkpt lat="44.1086033" lon="9.82109"><ele>77.0</ele><time>2026-03-27T13:14:20.825Z</time></trkpt><trkpt lat="44.1085383" lon="9.8210867"><ele>77.0</ele><time>2026-03-27T13:14:21.826Z</time></trkpt><trkpt lat="44.108415" lon="9.82111"><ele>77.0</ele><time>2026-03-27T13:14:23.826Z</time></trkpt><trkpt lat="44.1083183" lon="9.8212"><ele>77.0</ele><time>2026-03-27T13:14:25.825Z</time></trkpt><trkpt lat="44.108235" lon="9.8213017"><ele>73.6</ele><time>2026-03-27T13:14:27.825Z</time></trkpt><trkpt lat="44.1081483" lon="9.8213983"><ele>70.2</ele><time>2026-03-27T13:14:29.825Z</time></trkpt><trkpt lat="44.1080533" lon="9.8214717"><ele>66.8</ele><time>2026-03-27T13:14:31.825Z</time></trkpt><trkpt lat="44.1079933" lon="9.8215283"><ele>63.4</ele><time>2026-03-27T13:14:33.824Z</time></trkpt><trkpt lat="44.1079367" lon="9.82159"><ele>60.0</ele><time>2026-03-27T13:14:38.825Z</time></trkpt><trkpt lat="44.10786" lon="9.8216517"><ele>60.0</ele><time>2026-03-27T13:14:42.825Z</time></trkpt><trkpt lat="44.1077933" lon="9.8217117"><ele>60.0</ele><time>2026-03-27T13:14:45.825Z</time></trkpt><trkpt lat="44.1077233" lon="9.8218017"><ele>60.0</ele><time>2026-03-27T13:14:48.825Z</time></trkpt><trkpt lat="44.1076983" lon="9.8219067"><ele>60.0</ele><time>2026-03-27T13:14:50.824Z</time></trkpt><trkpt lat="44.10769" lon="9.82203"><ele>60.0</ele><time>2026-03-27T13:14:52.825Z</time></trkpt><trkpt lat="44.1077133" lon="9.82216"><ele>60.0</ele><time>2026-03-27T13:14:54.825Z</time></trkpt><trkpt lat="44.1077567" lon="9.8222917"><ele>58.6</ele><time>2026-03-27T13:14:56.825Z</time></trkpt><trkpt lat="44.10781" lon="9.8224067"><ele>57.2</ele><time>2026-03-27T13:14:58.824Z</time></trkpt><trkpt lat="44.1078633" lon="9.822525"><ele>55.8</ele><time>2026-03-27T13:15:00.825Z</time></trkpt><trkpt lat="44.10791" lon="9.82267"><ele>54.4</ele><time>2026-03-27T13:15:02.824Z</time></trkpt><trkpt lat="44.107945" lon="9.822825"><ele>53.0</ele><time>2026-03-27T13:15:04.825Z</time></trkpt><trkpt lat="44.1079483" lon="9.8229883"><ele>52.333333333333336</ele><time>2026-03-27T13:15:06.825Z</time></trkpt><trkpt lat="44.1079383" lon="9.8231733"><ele>51.66666666666667</ele><time>2026-03-27T13:15:08.825Z</time></trkpt><trkpt lat="44.10795" lon="9.8232683"><ele>51.0</ele><time>2026-03-27T13:15:09.825Z</time></trkpt><trkpt lat="44.1079883" lon="9.823355"><ele>50.33333333333333</ele><time>2026-03-27T13:15:10.825Z</time></trkpt><trkpt lat="44.1080467" lon="9.82343"><ele>49.666666666666664</ele><time>2026-03-27T13:15:11.825Z</time></trkpt><trkpt lat="44.1081183" lon="9.8234733"><ele>49.0</ele><time>2026-03-27T13:15:12.824Z</time></trkpt><trkpt lat="44.1081933" lon="9.8235"><ele>47.83333333333333</ele><time>2026-03-27T13:15:13.825Z</time></trkpt><trkpt lat="44.1082717" lon="9.8235167"><ele>46.666666666666664</ele><time>2026-03-27T13:15:14.824Z</time></trkpt><trkpt lat="44.10835" lon="9.823535"><ele>45.5</ele><time>2026-03-27T13:15:15.825Z</time></trkpt><trkpt lat="44.10843" lon="9.8235483"><ele>44.33333333333333</ele><time>2026-03-27T13:15:16.825Z</time></trkpt><trkpt lat="44.108515" lon="9.823565"><ele>43.166666666666664</ele><time>2026-03-27T13:15:17.825Z</time></trkpt><trkpt lat="44.1086033" lon="9.8235917"><ele>42.0</ele><time>2026-03-27T13:15:18.825Z</time></trkpt><trkpt lat="44.1086933" lon="9.8236383"><ele>42.0</ele><time>2026-03-27T13:15:19.825Z</time></trkpt><trkpt lat="44.108775" lon="9.823705"><ele>42.0</ele><time>2026-03-27T13:15:20.825Z</time></trkpt><trkpt lat="44.1088433" lon="9.8237817"><ele>42.0</ele><time>2026-03-27T13:15:21.825Z</time></trkpt><trkpt lat="44.1089017" lon="9.8238783"><ele>42.0</ele><time>2026-03-27T13:15:22.825Z</time></trkpt><trkpt lat="44.108945" lon="9.8239883"><ele>42.0</ele><time>2026-03-27T13:15:23.825Z</time></trkpt><trkpt lat="44.1089683" lon="9.82411"><ele>42.0</ele><time>2026-03-27T13:15:24.825Z</time></trkpt><trkpt lat="44.1089883" lon="9.8242417"><ele>42.0</ele><time>2026-03-27T13:15:25.825Z</time></trkpt><trkpt lat="44.1090017" lon="9.8243767"><ele>42.0</ele><time>2026-03-27T13:15:26.825Z</time></trkpt><trkpt lat="44.1090083" lon="9.8245033"><ele>42.0</ele><time>2026-03-27T13:15:27.825Z</time></trkpt><trkpt lat="44.1090133" lon="9.82461"><ele>42.0</ele><time>2026-03-27T13:15:28.825Z</time></trkpt><trkpt lat="44.1090117" lon="9.8247117"><ele>42.0</ele><time>2026-03-27T13:15:29.825Z</time></trkpt><trkpt lat="44.1090067" lon="9.8248067"><ele>39.800000000000004</ele><time>2026-03-27T13:15:30.825Z</time></trkpt><trkpt lat="44.1089767" lon="9.8249583"><ele>37.6</ele><time>2026-03-27T13:15:32.825Z</time></trkpt><trkpt lat="44.10891" lon="9.8250567"><ele>35.400000000000006</ele><time>2026-03-27T13:15:34.825Z</time></trkpt><trkpt lat="44.1088167" lon="9.8250083"><ele>33.2</ele><time>2026-03-27T13:15:36.825Z</time></trkpt><trkpt lat="44.1088083" lon="9.8249133"><ele>31.0</ele><time>2026-03-27T13:15:37.825Z</time></trkpt><trkpt lat="44.1088283" lon="9.8247917"><ele>31.000000000000004</ele><time>2026-03-27T13:15:38.825Z</time></trkpt><trkpt lat="44.10885" lon="9.8246783"><ele>31.0</ele><time>2026-03-27T13:15:39.825Z</time></trkpt><trkpt lat="44.10886" lon="9.82456"><ele>31.0</ele><time>2026-03-27T13:15:40.825Z</time></trkpt><trkpt lat="44.1088517" lon="9.8244433"><ele>31.0</ele><time>2026-03-27T13:15:41.825Z</time></trkpt><trkpt lat="44.1088267" lon="9.8243117"><ele>31.000000000000004</ele><time>2026-03-27T13:15:42.824Z</time></trkpt><trkpt lat="44.1087967" lon="9.824205"><ele>31.0</ele><time>2026-03-27T13:15:43.825Z</time></trkpt><trkpt lat="44.1087533" lon="9.8241117"><ele>32.833333333333336</ele><time>2026-03-27T13:15:44.824Z</time></trkpt><trkpt lat="44.1087" lon="9.8240317"><ele>34.66666666666667</ele><time>2026-03-27T13:15:45.825Z</time></trkpt><trkpt lat="44.1086367" lon="9.8239767"><ele>36.5</ele><time>2026-03-27T13:15:46.825Z</time></trkpt><trkpt lat="44.1085667" lon="9.8239617"><ele>38.333333333333336</ele><time>2026-03-27T13:15:47.825Z</time></trkpt><trkpt lat="44.1084617" lon="9.8239883"><ele>40.166666666666664</ele><time>2026-03-27T13:15:49.824Z</time></trkpt><trkpt lat="44.1083683" lon="9.8240317"><ele>42.0</ele><time>2026-03-27T13:15:52.824Z</time></trkpt><trkpt lat="44.108285" lon="9.82406"><ele>41.6</ele><time>2026-03-27T13:15:54.825Z</time></trkpt><trkpt lat="44.1081867" lon="9.82404"><ele>41.2</ele><time>2026-03-27T13:15:56.825Z</time></trkpt><trkpt lat="44.1080667" lon="9.8239817"><ele>40.8</ele><time>2026-03-27T13:15:58.825Z</time></trkpt><trkpt lat="44.1080033" lon="9.8239517"><ele>40.4</ele><time>2026-03-27T13:15:59.824Z</time></trkpt><trkpt lat="44.1078833" lon="9.8239067"><ele>40.0</ele><time>2026-03-27T13:16:01.825Z</time></trkpt><trkpt lat="44.1077717" lon="9.8238967"><ele>40.0</ele><time>2026-03-27T13:16:03.825Z</time></trkpt><trkpt lat="44.10766" lon="9.8239"><ele>40.0</ele><time>2026-03-27T13:16:05.825Z</time></trkpt><trkpt lat="44.1075617" lon="9.8239333"><ele>40.0</ele><time>2026-03-27T13:16:07.825Z</time></trkpt><trkpt lat="44.1074767" lon="9.8239617"><ele>40.0</ele><time>2026-03-27T13:16:09.825Z</time></trkpt><trkpt lat="44.10738" lon="9.8240067"><ele>40.0</ele><time>2026-03-27T13:16:11.824Z</time></trkpt><trkpt lat="44.107285" lon="9.824055"><ele>37.0</ele><time>2026-03-27T13:16:13.825Z</time></trkpt><trkpt lat="44.107185" lon="9.8241067"><ele>34.0</ele><time>2026-03-27T13:16:15.825Z</time></trkpt><trkpt lat="44.10709" lon="9.8241167"><ele>31.0</ele><time>2026-03-27T13:16:17.825Z</time></trkpt><trkpt lat="44.107025" lon="9.8240383"><ele>28.0</ele><time>2026-03-27T13:16:19.824Z</time></trkpt><trkpt lat="44.10701" lon="9.8239217"><ele>25.0</ele><time>2026-03-27T13:16:21.825Z</time></trkpt><trkpt lat="44.10704" lon="9.8238"><ele>25.0</ele><time>2026-03-27T13:16:23.825Z</time></trkpt><trkpt lat="44.10709" lon="9.823705"><ele>25.0</ele><time>2026-03-27T13:16:25.825Z</time></trkpt><trkpt lat="44.107155" lon="9.82359"><ele>25.0</ele><time>2026-03-27T13:16:27.825Z</time></trkpt><trkpt lat="44.107225" lon="9.82349"><ele>25.0</ele><time>2026-03-27T13:16:29.825Z</time></trkpt><trkpt lat="44.1072967" lon="9.8233717"><ele>25.0</ele><time>2026-03-27T13:16:31.825Z</time></trkpt><trkpt lat="44.107345" lon="9.8232467"><ele>25.0</ele><time>2026-03-27T13:16:33.825Z</time></trkpt><trkpt lat="44.10739" lon="9.8231217"><ele>25.0</ele><time>2026-03-27T13:16:35.825Z</time></trkpt><trkpt lat="44.1074267" lon="9.8229967"><ele>25.0</ele><time>2026-03-27T13:16:37.825Z</time></trkpt><trkpt lat="44.10742" lon="9.8228667"><ele>25.0</ele><time>2026-03-27T13:16:39.825Z</time></trkpt><trkpt lat="44.1073767" lon="9.8227617"><ele>25.0</ele><time>2026-03-27T13:16:41.825Z</time></trkpt><trkpt lat="44.1073117" lon="9.8226667"><ele>25.6</ele><time>2026-03-27T13:16:43.825Z</time></trkpt><trkpt lat="44.107235" lon="9.8225817"><ele>26.2</ele><time>2026-03-27T13:16:45.824Z</time></trkpt><trkpt lat="44.1071433" lon="9.8225167"><ele>26.799999999999997</ele><time>2026-03-27T13:16:47.825Z</time></trkpt><trkpt lat="44.107045" lon="9.8224767"><ele>27.4</ele><time>2026-03-27T13:16:49.824Z</time></trkpt><trkpt lat="44.1069467" lon="9.8224267"><ele>28.0</ele><time>2026-03-27T13:16:51.825Z</time></trkpt><trkpt lat="44.10685" lon="9.82237"><ele>28.0</ele><time>2026-03-27T13:16:53.825Z</time></trkpt><trkpt lat="44.1067567" lon="9.822245"><ele>27.999999999999996</ele><time>2026-03-27T13:16:55.825Z</time></trkpt><trkpt lat="44.10667" lon="9.822125"><ele>27.999999999999996</ele><time>2026-03-27T13:16:57.824Z</time></trkpt><trkpt lat="44.106575" lon="9.822025"><ele>28.0</ele><time>2026-03-27T13:16:59.825Z</time></trkpt><trkpt lat="44.1065183" lon="9.821985"><ele>28.0</ele><time>2026-03-27T13:17:00.825Z</time></trkpt><trkpt lat="44.1064167" lon="9.8219267"><ele>27.0</ele><time>2026-03-27T13:17:02.824Z</time></trkpt><trkpt lat="44.1063183" lon="9.8218733"><ele>25.999999999999996</ele><time>2026-03-27T13:17:04.825Z</time></trkpt><trkpt lat="44.1062483" lon="9.8217767"><ele>25.0</ele><time>2026-03-27T13:17:06.824Z</time></trkpt><trkpt lat="44.1062067" lon="9.8216517"><ele>24.0</ele><time>2026-03-27T13:17:08.825Z</time></trkpt><trkpt lat="44.1061933" lon="9.8215183"><ele>23.0</ele><time>2026-03-27T13:17:10.825Z</time></trkpt><trkpt lat="44.10621" lon="9.8214167"><ele>23.0</ele><time>2026-03-27T13:17:12.825Z</time></trkpt><trkpt lat="44.1062567" lon="9.82133"><ele>23.0</ele><time>2026-03-27T13:17:14.825Z</time></trkpt><trkpt lat="44.1063133" lon="9.821255"><ele>23.0</ele><time>2026-03-27T13:17:16.825Z</time></trkpt><trkpt lat="44.1063983" lon="9.821155"><ele>23.0</ele><time>2026-03-27T13:17:18.825Z</time></trkpt><trkpt lat="44.1064883" lon="9.8210517"><ele>23.0</ele><time>2026-03-27T13:17:20.825Z</time></trkpt><trkpt lat="44.1065683" lon="9.8209533"><ele>25.0</ele><time>2026-03-27T13:17:22.825Z</time></trkpt><trkpt lat="44.1066633" lon="9.8208817"><ele>27.0</ele><time>2026-03-27T13:17:24.825Z</time></trkpt><trkpt lat="44.1067733" lon="9.8208383"><ele>28.999999999999996</ele><time>2026-03-27T13:17:26.824Z</time></trkpt><trkpt lat="44.106875" lon="9.8208117"><ele>31.0</ele><time>2026-03-27T13:17:28.825Z</time></trkpt><trkpt lat="44.10697" lon="9.820785"><ele>33.0</ele><time>2026-03-27T13:17:30.825Z</time></trkpt><trkpt lat="44.10706" lon="9.8207583"><ele>33.0</ele><time>2026-03-27T13:17:32.825Z</time></trkpt><trkpt lat="44.1071467" lon="9.820735"><ele>33.0</ele><time>2026-03-27T13:17:34.825Z</time></trkpt><trkpt lat="44.107245" lon="9.8207217"><ele>33.0</ele><time>2026-03-27T13:17:36.825Z</time></trkpt><trkpt lat="44.1073383" lon="9.8206917"><ele>33.0</ele><time>2026-03-27T13:17:38.824Z</time></trkpt><trkpt lat="44.107435" lon="9.8206467"><ele>33.0</ele><time>2026-03-27T13:17:40.824Z</time></trkpt><trkpt lat="44.1075417" lon="9.82061"><ele>36.75</ele><time>2026-03-27T13:17:42.825Z</time></trkpt><trkpt lat="44.1076483" lon="9.82057"><ele>40.5</ele><time>2026-03-27T13:17:44.824Z</time></trkpt><trkpt lat="44.1077583" lon="9.8205233"><ele>44.25</ele><time>2026-03-27T13:17:46.825Z</time></trkpt><trkpt lat="44.1078583" lon="9.82046"><ele>48.0</ele><time>2026-03-27T13:17:48.825Z</time></trkpt><trkpt lat="44.1079617" lon="9.8203867"><ele>48.0</ele><time>2026-03-27T13:17:50.825Z</time></trkpt><trkpt lat="44.1080767" lon="9.820335"><ele>48.0</ele><time>2026-03-27T13:17:52.824Z</time></trkpt><trkpt lat="44.1081883" lon="9.8202917"><ele>48.0</ele><time>2026-03-27T13:17:54.825Z</time></trkpt><trkpt lat="44.108285" lon="9.8202633"><ele>48.0</ele><time>2026-03-27T13:17:56.824Z</time></trkpt><trkpt lat="44.1083883" lon="9.82024"><ele>48.0</ele><time>2026-03-27T13:17:58.825Z</time></trkpt><trkpt lat="44.1084867" lon="9.820215"><ele>50.5</ele><time>2026-03-27T13:18:00.825Z</time></trkpt><trkpt lat="44.1086067" lon="9.8201817"><ele>53.0</ele><time>2026-03-27T13:18:02.824Z</time></trkpt><trkpt lat="44.10873" lon="9.8201533"><ele>55.5</ele><time>2026-03-27T13:18:04.825Z</time></trkpt><trkpt lat="44.1088417" lon="9.8201333"><ele>58.0</ele><time>2026-03-27T13:18:06.824Z</time></trkpt><trkpt lat="44.10896" lon="9.820105"><ele>55.8</ele><time>2026-03-27T13:18:08.825Z</time></trkpt><trkpt lat="44.1090467" lon="9.820055"><ele>53.599999999999994</ele><time>2026-03-27T13:18:10.825Z</time></trkpt><trkpt lat="44.1091217" lon="9.8199767"><ele>51.400000000000006</ele><time>2026-03-27T13:18:12.825Z</time></trkpt><trkpt lat="44.10919" lon="9.8198567"><ele>49.2</ele><time>2026-03-27T13:18:14.825Z</time></trkpt><trkpt lat="44.1092583" lon="9.8197517"><ele>47.0</ele><time>2026-03-27T13:18:16.825Z</time></trkpt><trkpt lat="44.1093333" lon="9.8196433"><ele>47.0</ele><time>2026-03-27T13:18:18.825Z</time></trkpt><trkpt lat="44.1094067" lon="9.8195317"><ele>47.0</ele><time>2026-03-27T13:18:20.825Z</time></trkpt><trkpt lat="44.1094667" lon="9.8194183"><ele>47.0</ele><time>2026-03-27T13:18:22.825Z</time></trkpt><trkpt lat="44.1095417" lon="9.8193233"><ele>47.0</ele><time>2026-03-27T13:18:24.825Z</time></trkpt><trkpt lat="44.10962" lon="9.8192483"><ele>47.0</ele><time>2026-03-27T13:18:26.825Z</time></trkpt><trkpt lat="44.109725" lon="9.8191783"><ele>46.285714285714285</ele><time>2026-03-27T13:18:28.825Z</time></trkpt><trkpt lat="44.109785" lon="9.8191367"><ele>45.57142857142857</ele><time>2026-03-27T13:18:29.825Z</time></trkpt><trkpt lat="44.1098467" lon="9.8190867"><ele>44.85714285714286</ele><time>2026-03-27T13:18:30.825Z</time></trkpt><trkpt lat="44.10991" lon="9.8190383"><ele>44.14285714285714</ele><time>2026-03-27T13:18:31.825Z</time></trkpt><trkpt lat="44.1099767" lon="9.8189983"><ele>43.42857142857143</ele><time>2026-03-27T13:18:32.825Z</time></trkpt><trkpt lat="44.1100483" lon="9.81897"><ele>42.714285714285715</ele><time>2026-03-27T13:18:33.825Z</time></trkpt><trkpt lat="44.110125" lon="9.8189617"><ele>42.0</ele><time>2026-03-27T13:18:34.825Z</time></trkpt><trkpt lat="44.1101967" lon="9.818965"><ele>42.0</ele><time>2026-03-27T13:18:35.825Z</time></trkpt><trkpt lat="44.11027" lon="9.8189867"><ele>42.0</ele><time>2026-03-27T13:18:36.825Z</time></trkpt><trkpt lat="44.1103417" lon="9.8190333"><ele>42.0</ele><time>2026-03-27T13:18:37.825Z</time></trkpt><trkpt lat="44.1104017" lon="9.8190933"><ele>42.0</ele><time>2026-03-27T13:18:38.825Z</time></trkpt><trkpt lat="44.110465" lon="9.81916"><ele>42.0</ele><time>2026-03-27T13:18:39.825Z</time></trkpt><trkpt lat="44.1105183" lon="9.81922"><ele>42.0</ele><time>2026-03-27T13:18:40.824Z</time></trkpt><trkpt lat="44.1106233" lon="9.8192683"><ele>42.0</ele><time>2026-03-27T13:18:42.824Z</time></trkpt><trkpt lat="44.110695" lon="9.819195"><ele>42.0</ele><time>2026-03-27T13:18:44.825Z</time></trkpt><trkpt lat="44.1107283" lon="9.8190183"><ele>42.0</ele><time>2026-03-27T13:18:46.825Z</time></trkpt><trkpt lat="44.1107767" lon="9.8188683"><ele>42.0</ele><time>2026-03-27T13:18:48.825Z</time></trkpt><trkpt lat="44.1108267" lon="9.8188133"><ele>42.0</ele><time>2026-03-27T13:18:49.825Z</time></trkpt><trkpt lat="44.1108817" lon="9.8187433"><ele>41.5</ele><time>2026-03-27T13:18:50.824Z</time></trkpt><trkpt lat="44.110935" lon="9.81866"><ele>41.0</ele><time>2026-03-27T13:18:51.824Z</time></trkpt><trkpt lat="44.1109667" lon="9.8185683"><ele>40.5</ele><time>2026-03-27T13:18:52.825Z</time></trkpt><trkpt lat="44.1109933" lon="9.8184767"><ele>40.0</ele><time>2026-03-27T13:18:53.825Z</time></trkpt><trkpt lat="44.1110233" lon="9.81839"><ele>39.5</ele><time>2026-03-27T13:18:54.825Z</time></trkpt><trkpt lat="44.1110867" lon="9.8182583"><ele>39.0</ele><time>2026-03-27T13:18:56.825Z</time></trkpt><trkpt lat="44.1111733" lon="9.8181683"><ele>39.666666666666664</ele><time>2026-03-27T13:18:58.824Z</time></trkpt><trkpt lat="44.111275" lon="9.8181383"><ele>40.333333333333336</ele><time>2026-03-27T13:19:00.825Z</time></trkpt><trkpt lat="44.1113667" lon="9.818115"><ele>41.0</ele><time>2026-03-27T13:19:02.825Z</time></trkpt><trkpt lat="44.11145" lon="9.8181033"><ele>41.66666666666667</ele><time>2026-03-27T13:19:04.825Z</time></trkpt><trkpt lat="44.1115367" lon="9.8180883"><ele>42.333333333333336</ele><time>2026-03-27T13:19:06.825Z</time></trkpt><trkpt lat="44.1116017" lon="9.8180517"><ele>43.0</ele><time>2026-03-27T13:19:08.825Z</time></trkpt><trkpt lat="44.111665" lon="9.8180117"><ele>43.00000000000001</ele><time>2026-03-27T13:19:10.825Z</time></trkpt><trkpt lat="44.1117317" lon="9.8179783"><ele>43.0</ele><time>2026-03-27T13:19:12.825Z</time></trkpt><trkpt lat="44.111795" lon="9.8179483"><ele>43.0</ele><time>2026-03-27T13:19:14.824Z</time></trkpt><trkpt lat="44.1118567" lon="9.8179017"><ele>43.0</ele><time>2026-03-27T13:19:16.825Z</time></trkpt><trkpt lat="44.111925" lon="9.81787"><ele>43.0</ele><time>2026-03-27T13:19:18.825Z</time></trkpt><trkpt lat="44.1120083" lon="9.8178483"><ele>43.00000000000001</ele><time>2026-03-27T13:19:21.825Z</time></trkpt><trkpt lat="44.11207" lon="9.8177917"><ele>43.0</ele><time>2026-03-27T13:19:23.825Z</time></trkpt><trkpt lat="44.112135" lon="9.8177533"><ele>43.0</ele><time>2026-03-27T13:19:25.825Z</time></trkpt><trkpt lat="44.1122233" lon="9.8177283"><ele>43.0</ele><time>2026-03-27T13:19:27.825Z</time></trkpt><trkpt lat="44.1123183" lon="9.8177017"><ele>43.0</ele><time>2026-03-27T13:19:29.825Z</time></trkpt><trkpt lat="44.1124067" lon="9.8176717"><ele>43.0</ele><time>2026-03-27T13:19:31.825Z</time></trkpt><trkpt lat="44.112485" lon="9.8176333"><ele>43.0</ele><time>2026-03-27T13:19:33.825Z</time></trkpt><trkpt lat="44.1125567" lon="9.8176117"><ele>43.0</ele><time>2026-03-27T13:19:35.825Z</time></trkpt><trkpt lat="44.1126267" lon="9.8175867"><ele>42.333333333333336</ele><time>2026-03-27T13:19:37.825Z</time></trkpt><trkpt lat="44.1127083" lon="9.8175483"><ele>41.66666666666667</ele><time>2026-03-27T13:19:39.825Z</time></trkpt><trkpt lat="44.1127933" lon="9.81749"><ele>41.0</ele><time>2026-03-27T13:19:41.825Z</time></trkpt><trkpt lat="44.1128667" lon="9.817415"><ele>40.333333333333336</ele><time>2026-03-27T13:19:43.825Z</time></trkpt><trkpt lat="44.112925" lon="9.8173333"><ele>39.666666666666664</ele><time>2026-03-27T13:19:45.825Z</time></trkpt><trkpt lat="44.11298" lon="9.81725"><ele>39.0</ele><time>2026-03-27T13:19:47.825Z</time></trkpt><trkpt lat="44.1130383" lon="9.817155"><ele>39.0</ele><time>2026-03-27T13:19:49.825Z</time></trkpt><trkpt lat="44.113115" lon="9.8170633"><ele>39.0</ele><time>2026-03-27T13:19:51.825Z</time></trkpt><trkpt lat="44.1131933" lon="9.81696"><ele>39.0</ele><time>2026-03-27T13:19:53.824Z</time></trkpt><trkpt lat="44.113265" lon="9.8168583"><ele>39.0</ele><time>2026-03-27T13:19:55.825Z</time></trkpt><trkpt lat="44.1133233" lon="9.8167367"><ele>39.0</ele><time>2026-03-27T13:19:57.825Z</time></trkpt><trkpt lat="44.11338" lon="9.8166167"><ele>40.0</ele><time>2026-03-27T13:19:59.825Z</time></trkpt><trkpt lat="44.1134067" lon="9.8164967"><ele>41.0</ele><time>2026-03-27T13:20:01.825Z</time></trkpt><trkpt lat="44.1133267" lon="9.816505"><ele>42.0</ele><time>2026-03-27T13:20:05.825Z</time></trkpt><trkpt lat="44.1132733" lon="9.8165633"><ele>43.0</ele><time>2026-03-27T13:20:07.825Z</time></trkpt><trkpt lat="44.1131883" lon="9.8166133"><ele>44.0</ele><time>2026-03-27T13:20:09.825Z</time></trkpt><trkpt lat="44.113125" lon="9.8166183"><ele>45.0</ele><time>2026-03-27T13:20:10.825Z</time></trkpt><trkpt lat="44.11301" lon="9.8166183"><ele>43.8</ele><time>2026-03-27T13:20:12.825Z</time></trkpt><trkpt lat="44.1128933" lon="9.816625"><ele>42.6</ele><time>2026-03-27T13:20:14.825Z</time></trkpt><trkpt lat="44.1127883" lon="9.81663"><ele>41.4</ele><time>2026-03-27T13:20:16.825Z</time></trkpt><trkpt lat="44.11273" lon="9.816665"><ele>40.2</ele><time>2026-03-27T13:20:17.824Z</time></trkpt><trkpt lat="44.11263" lon="9.8167533"><ele>39.0</ele><time>2026-03-27T13:20:19.824Z</time></trkpt><trkpt lat="44.1125317" lon="9.8168317"><ele>39.0</ele><time>2026-03-27T13:20:21.824Z</time></trkpt><trkpt lat="44.112475" lon="9.8168733"><ele>39.0</ele><time>2026-03-27T13:20:22.824Z</time></trkpt><trkpt lat="44.11241" lon="9.8169217"><ele>39.0</ele><time>2026-03-27T13:20:23.824Z</time></trkpt><trkpt lat="44.1123367" lon="9.8169633"><ele>39.0</ele><time>2026-03-27T13:20:24.823Z</time></trkpt><trkpt lat="44.1122517" lon="9.81699"><ele>39.0</ele><time>2026-03-27T13:20:25.824Z</time></trkpt><trkpt lat="44.112175" lon="9.8169967"><ele>39.0</ele><time>2026-03-27T13:20:26.824Z</time></trkpt><trkpt lat="44.1121" lon="9.8169933"><ele>37.57142857142858</ele><time>2026-03-27T13:20:27.823Z</time></trkpt><trkpt lat="44.1120233" lon="9.8169733"><ele>36.14285714285714</ele><time>2026-03-27T13:20:28.824Z</time></trkpt><trkpt lat="44.1119617" lon="9.816955"><ele>34.714285714285715</ele><time>2026-03-27T13:20:29.824Z</time></trkpt><trkpt lat="44.1118967" lon="9.8169017"><ele>33.28571428571429</ele><time>2026-03-27T13:20:30.824Z</time></trkpt><trkpt lat="44.111835" lon="9.816875"><ele>31.857142857142858</ele><time>2026-03-27T13:20:31.824Z</time></trkpt><trkpt lat="44.11177" lon="9.816855"><ele>30.42857142857143</ele><time>2026-03-27T13:20:32.824Z</time></trkpt><trkpt lat="44.111705" lon="9.8168333"><ele>29.000000000000004</ele><time>2026-03-27T13:20:33.824Z</time></trkpt><trkpt lat="44.111645" lon="9.8168033"><ele>26.999999999999996</ele><time>2026-03-27T13:20:34.824Z</time></trkpt><trkpt lat="44.111535" lon="9.8167617"><ele>25.0</ele><time>2026-03-27T13:20:36.824Z</time></trkpt><trkpt lat="44.11145" lon="9.81677"><ele>23.0</ele><time>2026-03-27T13:20:38.824Z</time></trkpt><trkpt lat="44.1114133" lon="9.8168417"><ele>21.0</ele><time>2026-03-27T13:20:41.824Z</time></trkpt><trkpt lat="44.1113633" lon="9.8169"><ele>19.0</ele><time>2026-03-27T13:20:45.824Z</time></trkpt><trkpt lat="44.1113017" lon="9.81694"><ele>17.0</ele><time>2026-03-27T13:20:50.824Z</time></trkpt><trkpt lat="44.11054" lon="9.81668"><ele>16.4</ele><time>2026-03-27T13:21:00.823Z</time></trkpt><trkpt lat="44.1104967" lon="9.8165483"><ele>15.799999999999999</ele><time>2026-03-27T13:21:01.824Z</time></trkpt><trkpt lat="44.1104267" lon="9.8165167"><ele>15.2</ele><time>2026-03-27T13:21:03.823Z</time></trkpt><trkpt lat="44.110315" lon="9.8164433"><ele>14.6</ele><time>2026-03-27T13:21:05.824Z</time></trkpt><trkpt lat="44.1102283" lon="9.8163483"><ele>14.0</ele><time>2026-03-27T13:21:07.824Z</time></trkpt><trkpt lat="44.1101717" lon="9.8162317"><ele>14.000000000000002</ele><time>2026-03-27T13:21:09.824Z</time></trkpt><trkpt lat="44.1101367" lon="9.81611"><ele>14.0</ele><time>2026-03-27T13:21:12.824Z</time></trkpt><trkpt lat="44.1101267" lon="9.8159933"><ele>14.0</ele><time>2026-03-27T13:21:14.824Z</time></trkpt><trkpt lat="44.1101067" lon="9.8158683"><ele>14.0</ele><time>2026-03-27T13:21:16.824Z</time></trkpt><trkpt lat="44.1100817" lon="9.8157483"><ele>14.000000000000002</ele><time>2026-03-27T13:21:18.824Z</time></trkpt><trkpt lat="44.11007" lon="9.81565"><ele>14.0</ele><time>2026-03-27T13:21:20.824Z</time></trkpt><trkpt lat="44.1100817" lon="9.8155233"><ele>14.0</ele><time>2026-03-27T13:21:23.824Z</time></trkpt><trkpt lat="44.1101133" lon="9.81544"><ele>13.999999999999998</ele><time>2026-03-27T13:21:25.824Z</time></trkpt><trkpt lat="44.110145" lon="9.8153467"><ele>13.999999999999998</ele><time>2026-03-27T13:21:27.824Z</time></trkpt><trkpt lat="44.1101833" lon="9.8152283"><ele>14.0</ele><time>2026-03-27T13:21:29.824Z</time></trkpt><trkpt lat="44.1102283" lon="9.8150883"><ele>14.0</ele><time>2026-03-27T13:21:31.824Z</time></trkpt><trkpt lat="44.1102717" lon="9.814955"><ele>14.0</ele><time>2026-03-27T13:21:33.824Z</time></trkpt><trkpt lat="44.1103133" lon="9.81483"><ele>13.999999999999998</ele><time>2026-03-27T13:21:35.824Z</time></trkpt><trkpt lat="44.11037" lon="9.814705"><ele>13.999999999999998</ele><time>2026-03-27T13:21:37.824Z</time></trkpt><trkpt lat="44.11042" lon="9.8145667"><ele>14.0</ele><time>2026-03-27T13:21:39.824Z</time></trkpt><trkpt lat="44.1104733" lon="9.8144433"><ele>14.0</ele><time>2026-03-27T13:21:41.824Z</time></trkpt><trkpt lat="44.1105483" lon="9.8143217"><ele>13.799999999999999</ele><time>2026-03-27T13:21:43.824Z</time></trkpt><trkpt lat="44.1106117" lon="9.8141983"><ele>13.599999999999998</ele><time>2026-03-27T13:21:45.824Z</time></trkpt><trkpt lat="44.1106683" lon="9.81407"><ele>13.4</ele><time>2026-03-27T13:21:47.824Z</time></trkpt><trkpt lat="44.1107167" lon="9.8139333"><ele>13.2</ele><time>2026-03-27T13:21:49.824Z</time></trkpt><trkpt lat="44.1107617" lon="9.8137883"><ele>13.0</ele><time>2026-03-27T13:21:51.823Z</time></trkpt><trkpt lat="44.1108083" lon="9.8136417"><ele>13.0</ele><time>2026-03-27T13:21:53.824Z</time></trkpt><trkpt lat="44.11085" lon="9.8135"><ele>13.0</ele><time>2026-03-27T13:21:55.823Z</time></trkpt><trkpt lat="44.110895" lon="9.8133633"><ele>13.0</ele><time>2026-03-27T13:21:57.824Z</time></trkpt><trkpt lat="44.1109433" lon="9.813225"><ele>13.0</ele><time>2026-03-27T13:21:59.824Z</time></trkpt><trkpt lat="44.11099" lon="9.813085"><ele>13.0</ele><time>2026-03-27T13:22:01.824Z</time></trkpt><trkpt lat="44.1110367" lon="9.8129533"><ele>13.2</ele><time>2026-03-27T13:22:03.823Z</time></trkpt><trkpt lat="44.11109" lon="9.8128167"><ele>13.4</ele><time>2026-03-27T13:22:05.824Z</time></trkpt><trkpt lat="44.1111433" lon="9.81269"><ele>13.599999999999998</ele><time>2026-03-27T13:22:07.824Z</time></trkpt><trkpt lat="44.1111983" lon="9.8125817"><ele>13.799999999999999</ele><time>2026-03-27T13:22:09.823Z</time></trkpt><trkpt lat="44.1112567" lon="9.8124633"><ele>14.0</ele><time>2026-03-27T13:22:11.823Z</time></trkpt><trkpt lat="44.1113283" lon="9.8123317"><ele>13.5</ele><time>2026-03-27T13:22:13.824Z</time></trkpt><trkpt lat="44.1113983" lon="9.8122067"><ele>13.0</ele><time>2026-03-27T13:22:15.823Z</time></trkpt><trkpt lat="44.1114567" lon="9.8120783"><ele>12.5</ele><time>2026-03-27T13:22:17.824Z</time></trkpt><trkpt lat="44.111525" lon="9.8119433"><ele>12.0</ele><time>2026-03-27T13:22:19.824Z</time></trkpt><trkpt lat="44.1115883" lon="9.81181"><ele>12.0</ele><time>2026-03-27T13:22:21.824Z</time></trkpt><trkpt lat="44.111645" lon="9.8116767"><ele>12.0</ele><time>2026-03-27T13:22:23.824Z</time></trkpt><trkpt lat="44.1117117" lon="9.8115483"><ele>12.0</ele><time>2026-03-27T13:22:25.824Z</time></trkpt><trkpt lat="44.11177" lon="9.8114383"><ele>12.0</ele><time>2026-03-27T13:22:27.824Z</time></trkpt><trkpt lat="44.1118283" lon="9.8113533"><ele>12.0</ele><time>2026-03-27T13:22:29.824Z</time></trkpt><trkpt lat="44.1118883" lon="9.8112883"><ele>12.0</ele><time>2026-03-27T13:22:31.824Z</time></trkpt><trkpt lat="44.1119533" lon="9.8112467"><ele>12.0</ele><time>2026-03-27T13:22:35.824Z</time></trkpt><trkpt lat="44.1120133" lon="9.8112083"><ele>12.0</ele><time>2026-03-27T13:22:56.824Z</time></trkpt><trkpt lat="44.1120317" lon="9.8111033"><ele>12.0</ele><time>2026-03-27T13:22:59.824Z</time></trkpt><trkpt lat="44.112005" lon="9.811015"><ele>12.0</ele><time>2026-03-27T13:23:01.824Z</time></trkpt><trkpt lat="44.1119433" lon="9.81094"><ele>12.0</ele><time>2026-03-27T13:23:03.824Z</time></trkpt><trkpt lat="44.111875" lon="9.810865"><ele>12.0</ele><time>2026-03-27T13:23:05.824Z</time></trkpt><trkpt lat="44.1118033" lon="9.8107867"><ele>12.0</ele><time>2026-03-27T13:23:07.824Z</time></trkpt><trkpt lat="44.1117283" lon="9.8107"><ele>12.0</ele><time>2026-03-27T13:23:09.824Z</time></trkpt><trkpt lat="44.1116533" lon="9.81061"><ele>12.0</ele><time>2026-03-27T13:23:11.824Z</time></trkpt><trkpt lat="44.1115767" lon="9.810525"><ele>12.0</ele><time>2026-03-27T13:23:13.823Z</time></trkpt><trkpt lat="44.111495" lon="9.8104233"><ele>12.0</ele><time>2026-03-27T13:23:15.823Z</time></trkpt><trkpt lat="44.111415" lon="9.8103267"><ele>12.0</ele><time>2026-03-27T13:23:17.824Z</time></trkpt><trkpt lat="44.1113367" lon="9.8102433"><ele>12.0</ele><time>2026-03-27T13:23:19.824Z</time></trkpt><trkpt lat="44.11125" lon="9.8101583"><ele>12.0</ele><time>2026-03-27T13:23:21.824Z</time></trkpt><trkpt lat="44.1111683" lon="9.81006"><ele>12.0</ele><time>2026-03-27T13:23:23.824Z</time></trkpt><trkpt lat="44.1110867" lon="9.8099467"><ele>12.0</ele><time>2026-03-27T13:23:25.824Z</time></trkpt><trkpt lat="44.1110017" lon="9.8098667"><ele>12.0</ele><time>2026-03-27T13:23:27.824Z</time></trkpt><trkpt lat="44.110915" lon="9.8097783"><ele>12.0</ele><time>2026-03-27T13:23:29.824Z</time></trkpt><trkpt lat="44.1108317" lon="9.809685"><ele>12.0</ele><time>2026-03-27T13:23:31.823Z</time></trkpt><trkpt lat="44.110755" lon="9.8095767"><ele>12.0</ele><time>2026-03-27T13:23:33.824Z</time></trkpt><trkpt lat="44.1106767" lon="9.8094817"><ele>12.0</ele><time>2026-03-27T13:23:35.824Z</time></trkpt><trkpt lat="44.110595" lon="9.809385"><ele>12.0</ele><time>2026-03-27T13:23:37.824Z</time></trkpt><trkpt lat="44.11052" lon="9.8093"><ele>12.0</ele><time>2026-03-27T13:23:39.824Z</time></trkpt><trkpt lat="44.1104433" lon="9.8091983"><ele>12.0</ele><time>2026-03-27T13:23:41.824Z</time></trkpt><trkpt lat="44.1103667" lon="9.80911"><ele>12.0</ele><time>2026-03-27T13:23:43.823Z</time></trkpt><trkpt lat="44.1102933" lon="9.80903"><ele>12.0</ele><time>2026-03-27T13:23:45.824Z</time></trkpt><trkpt lat="44.11024" lon="9.8089333"><ele>12.0</ele><time>2026-03-27T13:23:47.824Z</time></trkpt><trkpt lat="44.11025" lon="9.8088383"><ele>12.0</ele><time>2026-03-27T13:23:49.824Z</time></trkpt><trkpt lat="44.1103083" lon="9.8087383"><ele>12.0</ele><time>2026-03-27T13:23:51.823Z</time></trkpt><trkpt lat="44.1103533" lon="9.8086533"><ele>12.0</ele><time>2026-03-27T13:23:53.824Z</time></trkpt><trkpt lat="44.1104067" lon="9.8085717"><ele>12.0</ele><time>2026-03-27T13:23:55.823Z</time></trkpt><trkpt lat="44.1104583" lon="9.8084917"><ele>12.0</ele><time>2026-03-27T13:23:57.824Z</time></trkpt><trkpt lat="44.1105117" lon="9.8083883"><ele>12.0</ele><time>2026-03-27T13:23:59.824Z</time></trkpt><trkpt lat="44.1105833" lon="9.8082933"><ele>12.0</ele><time>2026-03-27T13:24:01.824Z</time></trkpt><trkpt lat="44.110645" lon="9.8081917"><ele>12.0</ele><time>2026-03-27T13:24:03.824Z</time></trkpt><trkpt lat="44.1107033" lon="9.8080917"><ele>12.0</ele><time>2026-03-27T13:24:05.824Z</time></trkpt><trkpt lat="44.1107667" lon="9.80798"><ele>12.0</ele><time>2026-03-27T13:24:07.824Z</time></trkpt><trkpt lat="44.110815" lon="9.8078867"><ele>12.0</ele><time>2026-03-27T13:24:09.824Z</time></trkpt><trkpt lat="44.110865" lon="9.8077817"><ele>12.0</ele><time>2026-03-27T13:24:11.824Z</time></trkpt><trkpt lat="44.1108967" lon="9.8076483"><ele>12.0</ele><time>2026-03-27T13:24:13.824Z</time></trkpt><trkpt lat="44.1109" lon="9.80751"><ele>12.0</ele><time>2026-03-27T13:24:15.824Z</time></trkpt><trkpt lat="44.11089" lon="9.8073817"><ele>12.0</ele><time>2026-03-27T13:24:17.824Z</time></trkpt><trkpt lat="44.1108833" lon="9.8072583"><ele>12.0</ele><time>2026-03-27T13:24:19.824Z</time></trkpt><trkpt lat="44.11086" lon="9.807155"><ele>12.0</ele><time>2026-03-27T13:24:21.824Z</time></trkpt><trkpt lat="44.1108117" lon="9.80708"><ele>12.0</ele><time>2026-03-27T13:24:23.824Z</time></trkpt><trkpt lat="44.11074" lon="9.807085"><ele>12.0</ele><time>2026-03-27T13:24:26.824Z</time></trkpt><trkpt lat="44.11066" lon="9.8071183"><ele>12.0</ele><time>2026-03-27T13:24:29.824Z</time></trkpt><trkpt lat="44.110575" lon="9.807135"><ele>12.0</ele><time>2026-03-27T13:24:32.824Z</time></trkpt><trkpt lat="44.1105117" lon="9.80714"><ele>12.0</ele><time>2026-03-27T13:24:34.824Z</time></trkpt><trkpt lat="44.11044" lon="9.8071233"><ele>12.0</ele><time>2026-03-27T13:24:36.824Z</time></trkpt><trkpt lat="44.1103633" lon="9.8070833"><ele>12.0</ele><time>2026-03-27T13:24:38.824Z</time></trkpt><trkpt lat="44.1102883" lon="9.8070433"><ele>12.0</ele><time>2026-03-27T13:24:40.824Z</time></trkpt><trkpt lat="44.1102117" lon="9.806995"><ele>12.0</ele><time>2026-03-27T13:24:42.823Z</time></trkpt><trkpt lat="44.1101417" lon="9.8069433"><ele>12.0</ele><time>2026-03-27T13:24:44.824Z</time></trkpt><trkpt lat="44.1100733" lon="9.8068917"><ele>12.0</ele><time>2026-03-27T13:24:46.824Z</time></trkpt><trkpt lat="44.110005" lon="9.8068483"><ele>12.0</ele><time>2026-03-27T13:24:48.824Z</time></trkpt><trkpt lat="44.1099533" lon="9.80678"><ele>12.0</ele><time>2026-03-27T13:24:50.823Z</time></trkpt><trkpt lat="44.1098983" lon="9.8067"><ele>12.0</ele><time>2026-03-27T13:24:52.824Z</time></trkpt><trkpt lat="44.10983" lon="9.8066233"><ele>12.0</ele><time>2026-03-27T13:24:54.824Z</time></trkpt><trkpt lat="44.109755" lon="9.8065417"><ele>12.0</ele><time>2026-03-27T13:24:56.824Z</time></trkpt><trkpt lat="44.1096783" lon="9.8064667"><ele>12.0</ele><time>2026-03-27T13:24:58.824Z</time></trkpt><trkpt lat="44.109605" lon="9.8063933"><ele>12.0</ele><time>2026-03-27T13:25:00.824Z</time></trkpt><trkpt lat="44.1095317" lon="9.8063067"><ele>12.0</ele><time>2026-03-27T13:25:02.824Z</time></trkpt><trkpt lat="44.1094533" lon="9.8062183"><ele>12.0</ele><time>2026-03-27T13:25:04.824Z</time></trkpt><trkpt lat="44.1093733" lon="9.8061267"><ele>12.0</ele><time>2026-03-27T13:25:06.824Z</time></trkpt><trkpt lat="44.1093" lon="9.806045"><ele>12.0</ele><time>2026-03-27T13:25:08.824Z</time></trkpt><trkpt lat="44.1092317" lon="9.80597"><ele>12.0</ele><time>2026-03-27T13:25:10.824Z</time></trkpt><trkpt lat="44.109165" lon="9.8059017"><ele>12.0</ele><time>2026-03-27T13:25:12.824Z</time></trkpt><trkpt lat="44.10911" lon="9.8058317"><ele>12.0</ele><time>2026-03-27T13:25:14.824Z</time></trkpt><trkpt lat="44.109045" lon="9.8057733"><ele>12.0</ele><time>2026-03-27T13:25:17.824Z</time></trkpt><trkpt lat="44.1090317" lon="9.80566"><ele>12.428571428571427</ele><time>2026-03-27T13:25:21.824Z</time></trkpt><trkpt lat="44.109075" lon="9.80558"><ele>12.857142857142858</ele><time>2026-03-27T13:25:23.824Z</time></trkpt><trkpt lat="44.10912" lon="9.8054917"><ele>13.285714285714285</ele><time>2026-03-27T13:25:25.824Z</time></trkpt><trkpt lat="44.10916" lon="9.8054"><ele>13.714285714285714</ele><time>2026-03-27T13:25:27.824Z</time></trkpt><trkpt lat="44.1092067" lon="9.805315"><ele>14.142857142857142</ele><time>2026-03-27T13:25:29.824Z</time></trkpt><trkpt lat="44.1092433" lon="9.805235"><ele>14.571428571428571</ele><time>2026-03-27T13:25:31.824Z</time></trkpt><trkpt lat="44.1092817" lon="9.8051533"><ele>15.0</ele><time>2026-03-27T13:25:33.824Z</time></trkpt><trkpt lat="44.1093217" lon="9.80506"><ele>15.0</ele><time>2026-03-27T13:25:35.824Z</time></trkpt><trkpt lat="44.1093633" lon="9.8049683"><ele>15.0</ele><time>2026-03-27T13:25:37.824Z</time></trkpt><trkpt lat="44.1094167" lon="9.8048733"><ele>15.0</ele><time>2026-03-27T13:25:39.824Z</time></trkpt><trkpt lat="44.1094567" lon="9.80476"><ele>15.0</ele><time>2026-03-27T13:25:41.824Z</time></trkpt><trkpt lat="44.109495" lon="9.8046433"><ele>15.0</ele><time>2026-03-27T13:25:43.824Z</time></trkpt><trkpt lat="44.1095567" lon="9.804535"><ele>15.0</ele><time>2026-03-27T13:25:45.824Z</time></trkpt><trkpt lat="44.1096233" lon="9.8044317"><ele>15.0</ele><time>2026-03-27T13:25:47.824Z</time></trkpt><trkpt lat="44.109685" lon="9.8043383"><ele>15.0</ele><time>2026-03-27T13:25:49.824Z</time></trkpt><trkpt lat="44.10974" lon="9.8042533"><ele>15.0</ele><time>2026-03-27T13:25:51.824Z</time></trkpt><trkpt lat="44.10979" lon="9.804155"><ele>15.0</ele><time>2026-03-27T13:25:53.824Z</time></trkpt><trkpt lat="44.1098183" lon="9.8040683"><ele>15.0</ele><time>2026-03-27T13:25:55.824Z</time></trkpt><trkpt lat="44.10987" lon="9.8039717"><ele>15.0</ele><time>2026-03-27T13:25:57.824Z</time></trkpt><trkpt lat="44.1099133" lon="9.8038817"><ele>15.0</ele><time>2026-03-27T13:25:59.824Z</time></trkpt><trkpt lat="44.1099533" lon="9.8038017"><ele>15.0</ele><time>2026-03-27T13:26:02.824Z</time></trkpt><trkpt lat="44.1100267" lon="9.8037367"><ele>15.0</ele><time>2026-03-27T13:26:05.824Z</time></trkpt><trkpt lat="44.11009" lon="9.80367"><ele>15.0</ele><time>2026-03-27T13:26:07.823Z</time></trkpt><trkpt lat="44.1101367" lon="9.803585"><ele>15.0</ele><time>2026-03-27T13:26:09.824Z</time></trkpt><trkpt lat="44.110185" lon="9.8035083"><ele>15.0</ele><time>2026-03-27T13:26:11.824Z</time></trkpt><trkpt lat="44.110225" lon="9.80343"><ele>14.833333333333334</ele><time>2026-03-27T13:26:13.823Z</time></trkpt><trkpt lat="44.1102667" lon="9.8033233"><ele>14.666666666666668</ele><time>2026-03-27T13:26:16.823Z</time></trkpt><trkpt lat="44.1103383" lon="9.8032483"><ele>14.5</ele><time>2026-03-27T13:26:18.823Z</time></trkpt><trkpt lat="44.110395" lon="9.8031567"><ele>14.333333333333334</ele><time>2026-03-27T13:26:20.823Z</time></trkpt><trkpt lat="44.1104417" lon="9.8030667"><ele>14.166666666666668</ele><time>2026-03-27T13:26:22.823Z</time></trkpt><trkpt lat="44.1104917" lon="9.8029833"><ele>14.0</ele><time>2026-03-27T13:26:24.822Z</time></trkpt><trkpt lat="44.1105467" lon="9.8029"><ele>14.000000000000002</ele><time>2026-03-27T13:26:26.822Z</time></trkpt><trkpt lat="44.1106" lon="9.802815"><ele>14.0</ele><time>2026-03-27T13:26:28.823Z</time></trkpt><trkpt lat="44.1106583" lon="9.8027317"><ele>14.0</ele><time>2026-03-27T13:26:30.823Z</time></trkpt><trkpt lat="44.1107267" lon="9.8026483"><ele>14.0</ele><time>2026-03-27T13:26:32.822Z</time></trkpt><trkpt lat="44.11079" lon="9.80254"><ele>14.000000000000002</ele><time>2026-03-27T13:26:34.823Z</time></trkpt><trkpt lat="44.1108417" lon="9.8024317"><ele>14.0</ele><time>2026-03-27T13:26:36.822Z</time></trkpt><trkpt lat="44.1108917" lon="9.8023367"><ele>14.799999999999999</ele><time>2026-03-27T13:26:38.823Z</time></trkpt><trkpt lat="44.1109417" lon="9.8022467"><ele>15.599999999999998</ele><time>2026-03-27T13:26:40.823Z</time></trkpt><trkpt lat="44.110995" lon="9.80215"><ele>16.4</ele><time>2026-03-27T13:26:42.822Z</time></trkpt><trkpt lat="44.111065" lon="9.8020733"><ele>17.2</ele><time>2026-03-27T13:26:44.822Z</time></trkpt><trkpt lat="44.1111533" lon="9.8020283"><ele>18.0</ele><time>2026-03-27T13:26:46.823Z</time></trkpt><trkpt lat="44.11125" lon="9.802"><ele>18.0</ele><time>2026-03-27T13:26:48.823Z</time></trkpt><trkpt lat="44.1113533" lon="9.8019967"><ele>18.0</ele><time>2026-03-27T13:26:50.823Z</time></trkpt><trkpt lat="44.1114567" lon="9.8020067"><ele>18.0</ele><time>2026-03-27T13:26:52.823Z</time></trkpt><trkpt lat="44.1115517" lon="9.802035"><ele>18.0</ele><time>2026-03-27T13:26:54.823Z</time></trkpt><trkpt lat="44.1116383" lon="9.8020717"><ele>18.0</ele><time>2026-03-27T13:26:56.822Z</time></trkpt><trkpt lat="44.1117233" lon="9.80212"><ele>18.333333333333332</ele><time>2026-03-27T13:26:58.823Z</time></trkpt><trkpt lat="44.1118" lon="9.8021667"><ele>18.666666666666668</ele><time>2026-03-27T13:27:00.823Z</time></trkpt><trkpt lat="44.1118733" lon="9.8022067"><ele>19.0</ele><time>2026-03-27T13:27:02.823Z</time></trkpt><trkpt lat="44.11195" lon="9.8022467"><ele>19.333333333333336</ele><time>2026-03-27T13:27:04.823Z</time></trkpt><trkpt lat="44.11203" lon="9.8022917"><ele>19.666666666666668</ele><time>2026-03-27T13:27:06.823Z</time></trkpt><trkpt lat="44.1121117" lon="9.8023417"><ele>20.0</ele><time>2026-03-27T13:27:08.823Z</time></trkpt><trkpt lat="44.112195" lon="9.8023933"><ele>20.0</ele><time>2026-03-27T13:27:10.823Z</time></trkpt><trkpt lat="44.112275" lon="9.8024367"><ele>20.0</ele><time>2026-03-27T13:27:12.822Z</time></trkpt><trkpt lat="44.1123333" lon="9.80247"><ele>20.0</ele><time>2026-03-27T13:27:14.822Z</time></trkpt><trkpt lat="44.1124217" lon="9.80252"><ele>20.0</ele><time>2026-03-27T13:27:17.823Z</time></trkpt><trkpt lat="44.1124983" lon="9.8025683"><ele>20.0</ele><time>2026-03-27T13:27:19.823Z</time></trkpt><trkpt lat="44.11258" lon="9.802615"><ele>20.0</ele><time>2026-03-27T13:27:21.823Z</time></trkpt><trkpt lat="44.112645" lon="9.8026367"><ele>20.166666666666668</ele><time>2026-03-27T13:27:23.822Z</time></trkpt><trkpt lat="44.1127367" lon="9.802655"><ele>20.333333333333336</ele><time>2026-03-27T13:27:26.823Z</time></trkpt><trkpt lat="44.112815" lon="9.8027033"><ele>20.5</ele><time>2026-03-27T13:27:28.823Z</time></trkpt><trkpt lat="44.1129017" lon="9.8027417"><ele>20.666666666666668</ele><time>2026-03-27T13:27:30.823Z</time></trkpt><trkpt lat="44.1129833" lon="9.8027833"><ele>20.833333333333332</ele><time>2026-03-27T13:27:32.822Z</time></trkpt><trkpt lat="44.1130633" lon="9.8028367"><ele>21.0</ele><time>2026-03-27T13:27:34.823Z</time></trkpt><trkpt lat="44.1131483" lon="9.8028783"><ele>21.666666666666668</ele><time>2026-03-27T13:27:36.823Z</time></trkpt><trkpt lat="44.11324" lon="9.802885"><ele>22.333333333333336</ele><time>2026-03-27T13:27:38.823Z</time></trkpt><trkpt lat="44.113325" lon="9.8028883"><ele>23.0</ele><time>2026-03-27T13:27:40.823Z</time></trkpt><trkpt lat="44.1134083" lon="9.8028917"><ele>23.666666666666668</ele><time>2026-03-27T13:27:42.823Z</time></trkpt><trkpt lat="44.113485" lon="9.8028783"><ele>24.333333333333336</ele><time>2026-03-27T13:27:44.823Z</time></trkpt><trkpt lat="44.1135583" lon="9.8028833"><ele>25.0</ele><time>2026-03-27T13:27:46.823Z</time></trkpt><trkpt lat="44.113645" lon="9.802905"><ele>25.0</ele><time>2026-03-27T13:27:48.823Z</time></trkpt><trkpt lat="44.1137467" lon="9.80294"><ele>25.0</ele><time>2026-03-27T13:27:50.823Z</time></trkpt><trkpt lat="44.1138583" lon="9.8029717"><ele>25.0</ele><time>2026-03-27T13:27:52.823Z</time></trkpt><trkpt lat="44.1139683" lon="9.8029817"><ele>25.0</ele><time>2026-03-27T13:27:54.823Z</time></trkpt><trkpt lat="44.1140733" lon="9.80299"><ele>25.0</ele><time>2026-03-27T13:27:56.823Z</time></trkpt><trkpt lat="44.1141683" lon="9.8029983"><ele>25.000000000000004</ele><time>2026-03-27T13:27:58.823Z</time></trkpt><trkpt lat="44.1142583" lon="9.80302"><ele>25.0</ele><time>2026-03-27T13:28:00.823Z</time></trkpt><trkpt lat="44.11434" lon="9.8030467"><ele>25.0</ele><time>2026-03-27T13:28:02.823Z</time></trkpt><trkpt lat="44.1144183" lon="9.8030717"><ele>25.0</ele><time>2026-03-27T13:28:04.823Z</time></trkpt><trkpt lat="44.1145017" lon="9.803085"><ele>25.000000000000004</ele><time>2026-03-27T13:28:06.823Z</time></trkpt><trkpt lat="44.114575" lon="9.803115"><ele>25.0</ele><time>2026-03-27T13:28:08.823Z</time></trkpt><trkpt lat="44.11465" lon="9.80314"><ele>25.000000000000004</ele><time>2026-03-27T13:28:10.823Z</time></trkpt><trkpt lat="44.1147283" lon="9.8031817"><ele>25.0</ele><time>2026-03-27T13:28:12.823Z</time></trkpt><trkpt lat="44.114795" lon="9.80322"><ele>25.0</ele><time>2026-03-27T13:28:14.822Z</time></trkpt><trkpt lat="44.11486" lon="9.8032567"><ele>25.0</ele><time>2026-03-27T13:28:16.823Z</time></trkpt><trkpt lat="44.1149367" lon="9.803305"><ele>25.000000000000004</ele><time>2026-03-27T13:28:18.823Z</time></trkpt><trkpt lat="44.115015" lon="9.8033533"><ele>25.0</ele><time>2026-03-27T13:28:20.823Z</time></trkpt><trkpt lat="44.1151083" lon="9.8034283"><ele>25.333333333333336</ele><time>2026-03-27T13:28:22.823Z</time></trkpt><trkpt lat="44.115205" lon="9.8034883"><ele>25.666666666666668</ele><time>2026-03-27T13:28:24.823Z</time></trkpt><trkpt lat="44.1152867" lon="9.8035417"><ele>26.0</ele><time>2026-03-27T13:28:26.823Z</time></trkpt><trkpt lat="44.115365" lon="9.8035733"><ele>26.333333333333336</ele><time>2026-03-27T13:28:28.823Z</time></trkpt><trkpt lat="44.11544" lon="9.8036283"><ele>26.666666666666668</ele><time>2026-03-27T13:28:30.823Z</time></trkpt><trkpt lat="44.1155133" lon="9.80368"><ele>27.0</ele><time>2026-03-27T13:28:32.822Z</time></trkpt><trkpt lat="44.115595" lon="9.803735"><ele>27.0</ele><time>2026-03-27T13:28:34.823Z</time></trkpt><trkpt lat="44.11568" lon="9.8037683"><ele>27.0</ele><time>2026-03-27T13:28:36.823Z</time></trkpt><trkpt lat="44.1157717" lon="9.8037967"><ele>27.0</ele><time>2026-03-27T13:28:38.823Z</time></trkpt><trkpt lat="44.115865" lon="9.8038067"><ele>27.0</ele><time>2026-03-27T13:28:40.823Z</time></trkpt><trkpt lat="44.1159533" lon="9.8038117"><ele>27.0</ele><time>2026-03-27T13:28:42.822Z</time></trkpt><trkpt lat="44.1160283" lon="9.803795"><ele>27.0</ele><time>2026-03-27T13:28:44.823Z</time></trkpt><trkpt lat="44.1160983" lon="9.8037733"><ele>27.333333333333332</ele><time>2026-03-27T13:28:46.823Z</time></trkpt><trkpt lat="44.116185" lon="9.8037217"><ele>27.666666666666664</ele><time>2026-03-27T13:28:49.823Z</time></trkpt><trkpt lat="44.1162667" lon="9.8037033"><ele>28.0</ele><time>2026-03-27T13:28:51.823Z</time></trkpt><trkpt lat="44.11634" lon="9.80368"><ele>28.333333333333332</ele><time>2026-03-27T13:28:53.823Z</time></trkpt><trkpt lat="44.11642" lon="9.8036617"><ele>28.666666666666664</ele><time>2026-03-27T13:28:55.823Z</time></trkpt><trkpt lat="44.11649" lon="9.80364"><ele>29.0</ele><time>2026-03-27T13:28:57.823Z</time></trkpt><trkpt lat="44.1165533" lon="9.803605"><ele>29.571428571428577</ele><time>2026-03-27T13:28:59.823Z</time></trkpt><trkpt lat="44.1166133" lon="9.8035367"><ele>30.142857142857146</ele><time>2026-03-27T13:29:01.822Z</time></trkpt><trkpt lat="44.1166567" lon="9.803455"><ele>30.714285714285715</ele><time>2026-03-27T13:29:03.823Z</time></trkpt><trkpt lat="44.11669" lon="9.8033667"><ele>31.28571428571429</ele><time>2026-03-27T13:29:05.823Z</time></trkpt><trkpt lat="44.1167217" lon="9.8032817"><ele>31.85714285714286</ele><time>2026-03-27T13:29:07.823Z</time></trkpt><trkpt lat="44.1167667" lon="9.8031933"><ele>32.42857142857143</ele><time>2026-03-27T13:29:11.823Z</time></trkpt><trkpt lat="44.116825" lon="9.8031333"><ele>33.0</ele><time>2026-03-27T13:29:14.823Z</time></trkpt><trkpt lat="44.1169" lon="9.8031067"><ele>33.0</ele><time>2026-03-27T13:29:17.823Z</time></trkpt><trkpt lat="44.1169833" lon="9.8031667"><ele>33.0</ele><time>2026-03-27T13:29:19.823Z</time></trkpt><trkpt lat="44.1170417" lon="9.8032117"><ele>33.0</ele><time>2026-03-27T13:29:21.822Z</time></trkpt><trkpt lat="44.1170967" lon="9.80327"><ele>33.0</ele><time>2026-03-27T13:29:23.823Z</time></trkpt><trkpt lat="44.1171683" lon="9.8032983"><ele>33.0</ele><time>2026-03-27T13:29:25.822Z</time></trkpt><trkpt lat="44.1172517" lon="9.8032817"><ele>33.0</ele><time>2026-03-27T13:29:28.823Z</time></trkpt><trkpt lat="44.117325" lon="9.80324"><ele>33.0</ele><time>2026-03-27T13:29:31.823Z</time></trkpt><trkpt lat="44.1174" lon="9.8031933"><ele>33.0</ele><time>2026-03-27T13:29:34.822Z</time></trkpt><trkpt lat="44.117485" lon="9.8031933"><ele>33.0</ele><time>2026-03-27T13:29:36.823Z</time></trkpt><trkpt lat="44.1175583" lon="9.803155"><ele>33.0</ele><time>2026-03-27T13:29:38.823Z</time></trkpt><trkpt lat="44.1176233" lon="9.8031167"><ele>33.0</ele><time>2026-03-27T13:29:40.823Z</time></trkpt><trkpt lat="44.1176833" lon="9.8030817"><ele>33.0</ele><time>2026-03-27T13:29:42.823Z</time></trkpt><trkpt lat="44.11775" lon="9.803035"><ele>33.666666666666664</ele><time>2026-03-27T13:29:44.822Z</time></trkpt><trkpt lat="44.117815" lon="9.80301"><ele>34.333333333333336</ele><time>2026-03-27T13:29:46.822Z</time></trkpt><trkpt lat="44.1178917" lon="9.80295"><ele>35.0</ele><time>2026-03-27T13:29:49.822Z</time></trkpt><trkpt lat="44.1179567" lon="9.8028283"><ele>35.66666666666667</ele><time>2026-03-27T13:29:51.823Z</time></trkpt><trkpt lat="44.1180183" lon="9.80279"><ele>36.333333333333336</ele><time>2026-03-27T13:29:55.823Z</time></trkpt><trkpt lat="44.118085" lon="9.802795"><ele>37.0</ele><time>2026-03-27T13:29:58.823Z</time></trkpt><trkpt lat="44.1182033" lon="9.802835"><ele>37.0</ele><time>2026-03-27T13:31:23.823Z</time></trkpt><trkpt lat="44.1182483" lon="9.802765"><ele>36.0</ele><time>2026-03-27T13:31:29.823Z</time></trkpt><trkpt lat="44.1181294" lon="9.8027798"><ele>37.0</ele><time>2026-03-27T13:31:42.465Z</time></trkpt></trkseg></trk></gpx>